<?xml version="1.0" encoding="UTF-8" standalone="no" ?>
<gpx xmlns="http://www.topografix.com/GPX/1/1" xmlns:xsi="http://www.w3.org/2001/XMLSchema-instance" xsi:schemaLocation="http://www.topografix.com/GPX/1/1 http://www.topografix.com/GPX/1/1/gpx.xsd" version="1.1" creator="VisuGPX - https://www.visugpx.com">
  <metadata>
    <name>Trail du Gypaete</name>
    <desc><![CDATA[Tracé du premier Trail du Gypaete le 5 juin 2010 autour des villages du Faucigny]]></desc>
  </metadata>
  <trk>
    <name><![CDATA[Trail du Gypaete_1]]></name>
    <trkseg>
      <trkpt lat="46.04292" lon="6.57933">
        <ele>932</ele>
        <time>2010-01-13T00:00:00Z</time>
      </trkpt>
      <trkpt lat="46.04273" lon="6.57981">
        <ele>932</ele>
        <time>2010-01-13T00:00:19Z</time>
      </trkpt>
      <trkpt lat="46.0423" lon="6.58128">
        <ele>940</ele>
        <time>2010-01-13T00:01:14Z</time>
      </trkpt>
      <trkpt lat="46.04203" lon="6.58191">
        <ele>944</ele>
        <time>2010-01-13T00:01:40Z</time>
      </trkpt>
      <trkpt lat="46.0419" lon="6.58244">
        <ele>944</ele>
        <time>2010-01-13T00:02:00Z</time>
      </trkpt>
      <trkpt lat="46.0419" lon="6.5829">
        <ele>942</ele>
        <time>2010-01-13T00:02:15Z</time>
      </trkpt>
      <trkpt lat="46.04187" lon="6.583">
        <ele>942</ele>
        <time>2010-01-13T00:02:19Z</time>
      </trkpt>
      <trkpt lat="46.04165" lon="6.58335">
        <ele>943</ele>
        <time>2010-01-13T00:02:36Z</time>
      </trkpt>
      <trkpt lat="46.04146" lon="6.58352">
        <ele>943</ele>
        <time>2010-01-13T00:02:47Z</time>
      </trkpt>
      <trkpt lat="46.04104" lon="6.58369">
        <ele>943</ele>
        <time>2010-01-13T00:03:09Z</time>
      </trkpt>
      <trkpt lat="46.04081" lon="6.58402">
        <ele>946</ele>
        <time>2010-01-13T00:03:25Z</time>
      </trkpt>
      <trkpt lat="46.04077" lon="6.58413">
        <ele>944</ele>
        <time>2010-01-13T00:03:29Z</time>
      </trkpt>
      <trkpt lat="46.04075" lon="6.58459">
        <ele>944</ele>
        <time>2010-01-13T00:03:46Z</time>
      </trkpt>
      <trkpt lat="46.04054" lon="6.58472">
        <ele>945</ele>
        <time>2010-01-13T00:03:57Z</time>
      </trkpt>
      <trkpt lat="46.04034" lon="6.58473">
        <ele>946</ele>
        <time>2010-01-13T00:04:07Z</time>
      </trkpt>
      <trkpt lat="46.04018" lon="6.58489">
        <ele>946</ele>
        <time>2010-01-13T00:04:17Z</time>
      </trkpt>
      <trkpt lat="46.0399" lon="6.58533">
        <ele>954</ele>
        <time>2010-01-13T00:04:38Z</time>
      </trkpt>
      <trkpt lat="46.0397" lon="6.58583">
        <ele>954</ele>
        <time>2010-01-13T00:04:58Z</time>
      </trkpt>
      <trkpt lat="46.03955" lon="6.58612">
        <ele>948</ele>
        <time>2010-01-13T00:05:10Z</time>
      </trkpt>
      <trkpt lat="46.03929" lon="6.5865">
        <ele>949</ele>
        <time>2010-01-13T00:05:29Z</time>
      </trkpt>
      <trkpt lat="46.03919" lon="6.58644">
        <ele>950</ele>
        <time>2010-01-13T00:05:34Z</time>
      </trkpt>
      <trkpt lat="46.03909" lon="6.5861">
        <ele>964</ele>
        <time>2010-01-13T00:05:47Z</time>
      </trkpt>
      <trkpt lat="46.03924" lon="6.58571">
        <ele>963</ele>
        <time>2010-01-13T00:06:03Z</time>
      </trkpt>
      <trkpt lat="46.03937" lon="6.58545">
        <ele>962</ele>
        <time>2010-01-13T00:06:14Z</time>
      </trkpt>
      <trkpt lat="46.03955" lon="6.58485">
        <ele>967</ele>
        <time>2010-01-13T00:06:37Z</time>
      </trkpt>
      <trkpt lat="46.03959" lon="6.58465">
        <ele>967</ele>
        <time>2010-01-13T00:06:44Z</time>
      </trkpt>
      <trkpt lat="46.03959" lon="6.58444">
        <ele>967</ele>
        <time>2010-01-13T00:06:51Z</time>
      </trkpt>
      <trkpt lat="46.03955" lon="6.58424">
        <ele>969</ele>
        <time>2010-01-13T00:06:58Z</time>
      </trkpt>
      <trkpt lat="46.0395" lon="6.58404">
        <ele>977</ele>
        <time>2010-01-13T00:07:06Z</time>
      </trkpt>
      <trkpt lat="46.03947" lon="6.58365">
        <ele>979</ele>
        <time>2010-01-13T00:07:19Z</time>
      </trkpt>
      <trkpt lat="46.03959" lon="6.58337">
        <ele>978</ele>
        <time>2010-01-13T00:07:31Z</time>
      </trkpt>
      <trkpt lat="46.03971" lon="6.58319">
        <ele>985</ele>
        <time>2010-01-13T00:07:40Z</time>
      </trkpt>
      <trkpt lat="46.03979" lon="6.58298">
        <ele>987</ele>
        <time>2010-01-13T00:07:47Z</time>
      </trkpt>
      <trkpt lat="46.0399" lon="6.5827">
        <ele>989</ele>
        <time>2010-01-13T00:07:59Z</time>
      </trkpt>
      <trkpt lat="46.04003" lon="6.58237">
        <ele>985</ele>
        <time>2010-01-13T00:08:12Z</time>
      </trkpt>
      <trkpt lat="46.04013" lon="6.58223">
        <ele>985</ele>
        <time>2010-01-13T00:08:19Z</time>
      </trkpt>
      <trkpt lat="46.04045" lon="6.58212">
        <ele>982</ele>
        <time>2010-01-13T00:08:35Z</time>
      </trkpt>
      <trkpt lat="46.04052" lon="6.58198">
        <ele>982</ele>
        <time>2010-01-13T00:08:41Z</time>
      </trkpt>
      <trkpt lat="46.04065" lon="6.58156">
        <ele>991</ele>
        <time>2010-01-13T00:08:57Z</time>
      </trkpt>
      <trkpt lat="46.04094" lon="6.58036">
        <ele>985</ele>
        <time>2010-01-13T00:09:42Z</time>
      </trkpt>
      <trkpt lat="46.04099" lon="6.58005">
        <ele>991</ele>
        <time>2010-01-13T00:09:53Z</time>
      </trkpt>
      <trkpt lat="46.04096" lon="6.57895">
        <ele>1001</ele>
        <time>2010-01-13T00:10:31Z</time>
      </trkpt>
      <trkpt lat="46.04096" lon="6.5782">
        <ele>1011</ele>
        <time>2010-01-13T00:10:57Z</time>
      </trkpt>
      <trkpt lat="46.0414" lon="6.57559">
        <ele>1039</ele>
        <time>2010-01-13T00:11:31Z</time>
      </trkpt>
      <trkpt lat="46.0416" lon="6.57499">
        <ele>1032</ele>
        <time>2010-01-13T00:11:54Z</time>
      </trkpt>
      <trkpt lat="46.04171" lon="6.57436">
        <ele>1023</ele>
        <time>2010-01-13T00:12:16Z</time>
      </trkpt>
      <trkpt lat="46.04187" lon="6.57355">
        <ele>1030</ele>
        <time>2010-01-13T00:12:46Z</time>
      </trkpt>
      <trkpt lat="46.04218" lon="6.57277">
        <ele>1042</ele>
        <time>2010-01-13T00:13:17Z</time>
      </trkpt>
      <trkpt lat="46.04259" lon="6.57224">
        <ele>1053</ele>
        <time>2010-01-13T00:13:44Z</time>
      </trkpt>
      <trkpt lat="46.04308" lon="6.57214">
        <ele>1057</ele>
        <time>2010-01-13T00:14:09Z</time>
      </trkpt>
      <trkpt lat="46.04358" lon="6.57224">
        <ele>1062</ele>
        <time>2010-01-13T00:14:34Z</time>
      </trkpt>
      <trkpt lat="46.04437" lon="6.57266">
        <ele>1053</ele>
        <time>2010-01-13T00:15:17Z</time>
      </trkpt>
      <trkpt lat="46.04486" lon="6.57295">
        <ele>1049</ele>
        <time>2010-01-13T00:15:43Z</time>
      </trkpt>
      <trkpt lat="46.0457" lon="6.57256">
        <ele>1051</ele>
        <time>2010-01-13T00:16:27Z</time>
      </trkpt>
      <trkpt lat="46.04581" lon="6.57175">
        <ele>1060</ele>
        <time>2010-01-13T00:16:56Z</time>
      </trkpt>
      <trkpt lat="46.04568" lon="6.57094">
        <ele>1071</ele>
        <time>2010-01-13T00:17:25Z</time>
      </trkpt>
      <trkpt lat="46.04565" lon="6.57005">
        <ele>1081</ele>
        <time>2010-01-13T00:17:56Z</time>
      </trkpt>
      <trkpt lat="46.04559" lon="6.56948">
        <ele>1091</ele>
        <time>2010-01-13T00:18:16Z</time>
      </trkpt>
      <trkpt lat="46.04547" lon="6.56854">
        <ele>1096</ele>
        <time>2010-01-13T00:18:49Z</time>
      </trkpt>
      <trkpt lat="46.04552" lon="6.56695">
        <ele>1098</ele>
        <time>2010-01-13T00:19:45Z</time>
      </trkpt>
      <trkpt lat="46.04548" lon="6.56635">
        <ele>1100</ele>
        <time>2010-01-13T00:20:06Z</time>
      </trkpt>
      <trkpt lat="46.04505" lon="6.56488">
        <ele>1111</ele>
        <time>2010-01-13T00:21:01Z</time>
      </trkpt>
      <trkpt lat="46.04516" lon="6.56355">
        <ele>1115</ele>
        <time>2010-01-13T00:21:47Z</time>
      </trkpt>
      <trkpt lat="46.04496" lon="6.56235">
        <ele>1133</ele>
        <time>2010-01-13T00:22:30Z</time>
      </trkpt>
      <trkpt lat="46.04516" lon="6.5616">
        <ele>1117</ele>
        <time>2010-01-13T00:22:58Z</time>
      </trkpt>
      <trkpt lat="46.04467" lon="6.56157">
        <ele>1131</ele>
        <time>2010-01-13T00:23:23Z</time>
      </trkpt>
      <trkpt lat="46.04442" lon="6.56126">
        <ele>1131</ele>
        <time>2010-01-13T00:23:39Z</time>
      </trkpt>
      <trkpt lat="46.04421" lon="6.56105">
        <ele>1130</ele>
        <time>2010-01-13T00:23:52Z</time>
      </trkpt>
      <trkpt lat="46.04385" lon="6.56089">
        <ele>1145</ele>
        <time>2010-01-13T00:24:11Z</time>
      </trkpt>
      <trkpt lat="46.04369" lon="6.5606">
        <ele>1144</ele>
        <time>2010-01-13T00:24:24Z</time>
      </trkpt>
      <trkpt lat="46.04353" lon="6.55959">
        <ele>1146</ele>
        <time>2010-01-13T00:25:00Z</time>
      </trkpt>
      <trkpt lat="46.04327" lon="6.56152">
        <ele>1170</ele>
        <time>2010-01-13T00:25:09Z</time>
      </trkpt>
      <trkpt lat="46.04324" lon="6.56277">
        <ele>1189</ele>
        <time>2010-01-13T00:25:52Z</time>
      </trkpt>
      <trkpt lat="46.04362" lon="6.56355">
        <ele>1181</ele>
        <time>2010-01-13T00:26:25Z</time>
      </trkpt>
      <trkpt lat="46.04369" lon="6.56397">
        <ele>1183</ele>
        <time>2010-01-13T00:26:40Z</time>
      </trkpt>
      <trkpt lat="46.04322" lon="6.56645">
        <ele>1204</ele>
        <time>2010-01-13T00:27:10Z</time>
      </trkpt>
      <trkpt lat="46.04293" lon="6.5664">
        <ele>1206</ele>
        <time>2010-01-13T00:27:24Z</time>
      </trkpt>
      <trkpt lat="46.04259" lon="6.56619">
        <ele>1209</ele>
        <time>2010-01-13T00:27:43Z</time>
      </trkpt>
      <trkpt lat="46.04227" lon="6.56585">
        <ele>1213</ele>
        <time>2010-01-13T00:28:03Z</time>
      </trkpt>
      <trkpt lat="46.04211" lon="6.56548">
        <ele>1222</ele>
        <time>2010-01-13T00:28:18Z</time>
      </trkpt>
      <trkpt lat="46.04171" lon="6.56525">
        <ele>1226</ele>
        <time>2010-01-13T00:28:39Z</time>
      </trkpt>
      <trkpt lat="46.04101" lon="6.56501">
        <ele>1242</ele>
        <time>2010-01-13T00:29:15Z</time>
      </trkpt>
      <trkpt lat="46.04126" lon="6.56421">
        <ele>1254</ele>
        <time>2010-01-13T00:29:46Z</time>
      </trkpt>
      <trkpt lat="46.04087" lon="6.56293">
        <ele>1277</ele>
        <time>2010-01-13T00:30:35Z</time>
      </trkpt>
      <trkpt lat="46.04051" lon="6.56173">
        <ele>1305</ele>
        <time>2010-01-13T00:31:20Z</time>
      </trkpt>
      <trkpt lat="46.04034" lon="6.56079">
        <ele>1308</ele>
        <time>2010-01-13T00:31:54Z</time>
      </trkpt>
      <trkpt lat="46.04015" lon="6.56053">
        <ele>1310</ele>
        <time>2010-01-13T00:32:07Z</time>
      </trkpt>
      <trkpt lat="46.03988" lon="6.56024">
        <ele>1316</ele>
        <time>2010-01-13T00:32:24Z</time>
      </trkpt>
      <trkpt lat="46.03959" lon="6.56037">
        <ele>1318</ele>
        <time>2010-01-13T00:32:39Z</time>
      </trkpt>
      <trkpt lat="46.03948" lon="6.56092">
        <ele>1342</ele>
        <time>2010-01-13T00:32:59Z</time>
      </trkpt>
      <trkpt lat="46.03909" lon="6.56149">
        <ele>1358</ele>
        <time>2010-01-13T00:33:27Z</time>
      </trkpt>
      <trkpt lat="46.03869" lon="6.5623">
        <ele>1380</ele>
        <time>2010-01-13T00:34:02Z</time>
      </trkpt>
      <trkpt lat="46.03841" lon="6.56381">
        <ele>1396</ele>
        <time>2010-01-13T00:34:56Z</time>
      </trkpt>
      <trkpt lat="46.03812" lon="6.56494">
        <ele>1408</ele>
        <time>2010-01-13T00:35:38Z</time>
      </trkpt>
      <trkpt lat="46.0379" lon="6.56546">
        <ele>1403</ele>
        <time>2010-01-13T00:35:59Z</time>
      </trkpt>
      <trkpt lat="46.03736" lon="6.56611">
        <ele>1425</ele>
        <time>2010-01-13T00:36:34Z</time>
      </trkpt>
      <trkpt lat="46.03686" lon="6.56739">
        <ele>1417</ele>
        <time>2010-01-13T00:37:25Z</time>
      </trkpt>
      <trkpt lat="46.03636" lon="6.56841">
        <ele>1426</ele>
        <time>2010-01-13T00:38:09Z</time>
      </trkpt>
      <trkpt lat="46.0354" lon="6.56958">
        <ele>1427</ele>
        <time>2010-01-13T00:38:12Z</time>
      </trkpt>
      <trkpt lat="46.03483" lon="6.57029">
        <ele>1415</ele>
        <time>2010-01-13T00:38:49Z</time>
      </trkpt>
      <trkpt lat="46.03408" lon="6.57112">
        <ele>1386</ele>
        <time>2010-01-13T00:39:37Z</time>
      </trkpt>
      <trkpt lat="46.03343" lon="6.57138">
        <ele>1375</ele>
        <time>2010-01-13T00:40:11Z</time>
      </trkpt>
      <trkpt lat="46.03285" lon="6.57133">
        <ele>1351</ele>
        <time>2010-01-13T00:40:40Z</time>
      </trkpt>
      <trkpt lat="46.03226" lon="6.5712">
        <ele>1331</ele>
        <time>2010-01-13T00:41:10Z</time>
      </trkpt>
      <trkpt lat="46.03168" lon="6.5712">
        <ele>1325</ele>
        <time>2010-01-13T00:41:38Z</time>
      </trkpt>
      <trkpt lat="46.03129" lon="6.5717">
        <ele>1312</ele>
        <time>2010-01-13T00:42:05Z</time>
      </trkpt>
      <trkpt lat="46.03099" lon="6.57243">
        <ele>1308</ele>
        <time>2010-01-13T00:42:34Z</time>
      </trkpt>
      <trkpt lat="46.0307" lon="6.57308">
        <ele>1304</ele>
        <time>2010-01-13T00:43:01Z</time>
      </trkpt>
      <trkpt lat="46.03048" lon="6.57363">
        <ele>1303</ele>
        <time>2010-01-13T00:43:23Z</time>
      </trkpt>
      <trkpt lat="46.03038" lon="6.57371">
        <ele>1303</ele>
        <time>2010-01-13T00:43:29Z</time>
      </trkpt>
      <trkpt lat="46.02991" lon="6.57399">
        <ele>1300</ele>
        <time>2010-01-13T00:43:54Z</time>
      </trkpt>
      <trkpt lat="46.02991" lon="6.57409">
        <ele>1300</ele>
        <time>2010-01-13T01:00:00Z</time>
      </trkpt>
      <trkpt lat="46.02972" lon="6.57419">
        <ele>1301</ele>
        <time>2010-01-13T01:00:10Z</time>
      </trkpt>
      <trkpt lat="46.02961" lon="6.57379">
        <ele>1300</ele>
        <time>2010-01-13T01:00:25Z</time>
      </trkpt>
      <trkpt lat="46.02954" lon="6.57364">
        <ele>1300</ele>
        <time>2010-01-13T01:00:31Z</time>
      </trkpt>
      <trkpt lat="46.02943" lon="6.57328">
        <ele>1296</ele>
        <time>2010-01-13T01:00:45Z</time>
      </trkpt>
      <trkpt lat="46.02937" lon="6.57301">
        <ele>1295</ele>
        <time>2010-01-13T01:00:54Z</time>
      </trkpt>
      <trkpt lat="46.02924" lon="6.57306">
        <ele>1296</ele>
        <time>2010-01-13T01:01:01Z</time>
      </trkpt>
      <trkpt lat="46.02913" lon="6.57315">
        <ele>1295</ele>
        <time>2010-01-13T01:01:08Z</time>
      </trkpt>
      <trkpt lat="46.02905" lon="6.57315">
        <ele>1295</ele>
        <time>2010-01-13T01:01:12Z</time>
      </trkpt>
      <trkpt lat="46.02869" lon="6.57315">
        <ele>1294</ele>
        <time>2010-01-13T01:01:29Z</time>
      </trkpt>
      <trkpt lat="46.02869" lon="6.57315">
        <ele>1294</ele>
        <time>2010-01-13T02:00:00Z</time>
      </trkpt>
      <trkpt lat="46.02854" lon="6.57301">
        <ele>1293</ele>
        <time>2010-01-13T02:00:08Z</time>
      </trkpt>
      <trkpt lat="46.02834" lon="6.5729">
        <ele>1291</ele>
        <time>2010-01-13T02:00:19Z</time>
      </trkpt>
      <trkpt lat="46.02806" lon="6.57288">
        <ele>1290</ele>
        <time>2010-01-13T02:00:33Z</time>
      </trkpt>
      <trkpt lat="46.02787" lon="6.57291">
        <ele>1290</ele>
        <time>2010-01-13T02:00:43Z</time>
      </trkpt>
      <trkpt lat="46.02722" lon="6.57316">
        <ele>1288</ele>
        <time>2010-01-13T02:01:16Z</time>
      </trkpt>
      <trkpt lat="46.0269" lon="6.57323">
        <ele>1287</ele>
        <time>2010-01-13T02:01:33Z</time>
      </trkpt>
      <trkpt lat="46.02649" lon="6.57341">
        <ele>1296</ele>
        <time>2010-01-13T02:01:54Z</time>
      </trkpt>
      <trkpt lat="46.02638" lon="6.57348">
        <ele>1297</ele>
        <time>2010-01-13T02:02:00Z</time>
      </trkpt>
      <trkpt lat="46.02623" lon="6.5736">
        <ele>1297</ele>
        <time>2010-01-13T02:02:09Z</time>
      </trkpt>
      <trkpt lat="46.02607" lon="6.57354">
        <ele>1294</ele>
        <time>2010-01-13T02:02:17Z</time>
      </trkpt>
      <trkpt lat="46.02568" lon="6.57368">
        <ele>1291</ele>
        <time>2010-01-13T02:02:37Z</time>
      </trkpt>
      <trkpt lat="46.02557" lon="6.57369">
        <ele>1291</ele>
        <time>2010-01-13T02:02:43Z</time>
      </trkpt>
      <trkpt lat="46.02542" lon="6.57367">
        <ele>1291</ele>
        <time>2010-01-13T02:02:50Z</time>
      </trkpt>
      <trkpt lat="46.02528" lon="6.57357">
        <ele>1288</ele>
        <time>2010-01-13T02:02:58Z</time>
      </trkpt>
      <trkpt lat="46.02503" lon="6.57344">
        <ele>1282</ele>
        <time>2010-01-13T02:03:11Z</time>
      </trkpt>
      <trkpt lat="46.02485" lon="6.57348">
        <ele>1285</ele>
        <time>2010-01-13T02:03:20Z</time>
      </trkpt>
      <trkpt lat="46.02469" lon="6.57332">
        <ele>1272</ele>
        <time>2010-01-13T02:03:30Z</time>
      </trkpt>
      <trkpt lat="46.02431" lon="6.57327">
        <ele>1275</ele>
        <time>2010-01-13T02:03:49Z</time>
      </trkpt>
      <trkpt lat="46.02402" lon="6.57315">
        <ele>1278</ele>
        <time>2010-01-13T02:04:05Z</time>
      </trkpt>
      <trkpt lat="46.02362" lon="6.5731">
        <ele>1280</ele>
        <time>2010-01-13T02:04:24Z</time>
      </trkpt>
      <trkpt lat="46.02338" lon="6.57287">
        <ele>1279</ele>
        <time>2010-01-13T02:04:39Z</time>
      </trkpt>
      <trkpt lat="46.02332" lon="6.5727">
        <ele>1286</ele>
        <time>2010-01-13T02:04:46Z</time>
      </trkpt>
      <trkpt lat="46.02313" lon="6.57237">
        <ele>1283</ele>
        <time>2010-01-13T02:05:01Z</time>
      </trkpt>
      <trkpt lat="46.02315" lon="6.57208">
        <ele>1283</ele>
        <time>2010-01-13T02:05:11Z</time>
      </trkpt>
      <trkpt lat="46.02317" lon="6.57142">
        <ele>1283</ele>
        <time>2010-01-13T02:05:33Z</time>
      </trkpt>
      <trkpt lat="46.02337" lon="6.5702">
        <ele>1272</ele>
        <time>2010-01-13T02:06:17Z</time>
      </trkpt>
      <trkpt lat="46.02359" lon="6.56978">
        <ele>1270</ele>
        <time>2010-01-13T02:06:35Z</time>
      </trkpt>
      <trkpt lat="46.02354" lon="6.56957">
        <ele>1271</ele>
        <time>2010-01-13T02:06:43Z</time>
      </trkpt>
      <trkpt lat="46.0235" lon="6.56928">
        <ele>1274</ele>
        <time>2010-01-13T02:06:53Z</time>
      </trkpt>
      <trkpt lat="46.02348" lon="6.56879">
        <ele>1266</ele>
        <time>2010-01-13T02:07:11Z</time>
      </trkpt>
      <trkpt lat="46.02336" lon="6.56858">
        <ele>1264</ele>
        <time>2010-01-13T02:07:20Z</time>
      </trkpt>
      <trkpt lat="46.02316" lon="6.56847">
        <ele>1276</ele>
        <time>2010-01-13T02:07:31Z</time>
      </trkpt>
      <trkpt lat="46.02294" lon="6.56832">
        <ele>1264</ele>
        <time>2010-01-13T02:07:43Z</time>
      </trkpt>
      <trkpt lat="46.02253" lon="6.56787">
        <ele>1262</ele>
        <time>2010-01-13T02:08:09Z</time>
      </trkpt>
      <trkpt lat="46.02224" lon="6.56738">
        <ele>1262</ele>
        <time>2010-01-13T02:08:31Z</time>
      </trkpt>
      <trkpt lat="46.02205" lon="6.56678">
        <ele>1260</ele>
        <time>2010-01-13T02:08:54Z</time>
      </trkpt>
      <trkpt lat="46.02187" lon="6.56657">
        <ele>1250</ele>
        <time>2010-01-13T02:09:06Z</time>
      </trkpt>
      <trkpt lat="46.0214" lon="6.56605">
        <ele>1267</ele>
        <time>2010-01-13T02:09:35Z</time>
      </trkpt>
      <trkpt lat="46.02097" lon="6.56545">
        <ele>1256</ele>
        <time>2010-01-13T02:10:05Z</time>
      </trkpt>
      <trkpt lat="46.02052" lon="6.56516">
        <ele>1270</ele>
        <time>2010-01-13T02:10:30Z</time>
      </trkpt>
      <trkpt lat="46.02025" lon="6.56503">
        <ele>1271</ele>
        <time>2010-01-13T02:10:44Z</time>
      </trkpt>
      <trkpt lat="46.01886" lon="6.56477">
        <ele>1267</ele>
        <time>2010-01-13T02:10:54Z</time>
      </trkpt>
      <trkpt lat="46.01858" lon="6.56422">
        <ele>1262</ele>
        <time>2010-01-13T02:11:18Z</time>
      </trkpt>
      <trkpt lat="46.01829" lon="6.56357">
        <ele>1254</ele>
        <time>2010-01-13T02:11:45Z</time>
      </trkpt>
      <trkpt lat="46.01746" lon="6.56297">
        <ele>1276</ele>
        <time>2010-01-13T02:12:31Z</time>
      </trkpt>
      <trkpt lat="46.01734" lon="6.56265">
        <ele>1272</ele>
        <time>2010-01-13T02:12:44Z</time>
      </trkpt>
      <trkpt lat="46.01714" lon="6.56197">
        <ele>1272</ele>
        <time>2010-01-13T02:13:09Z</time>
      </trkpt>
      <trkpt lat="46.01714" lon="6.56127">
        <ele>1263</ele>
        <time>2010-01-13T02:13:34Z</time>
      </trkpt>
      <trkpt lat="46.01719" lon="6.56051">
        <ele>1251</ele>
        <time>2010-01-13T02:14:00Z</time>
      </trkpt>
      <trkpt lat="46.0171" lon="6.56015">
        <ele>1251</ele>
        <time>2010-01-13T02:14:14Z</time>
      </trkpt>
      <trkpt lat="46.01694" lon="6.55983">
        <ele>1241</ele>
        <time>2010-01-13T02:14:28Z</time>
      </trkpt>
      <trkpt lat="46.01664" lon="6.55976">
        <ele>1252</ele>
        <time>2010-01-13T02:14:43Z</time>
      </trkpt>
      <trkpt lat="46.01608" lon="6.55981">
        <ele>1251</ele>
        <time>2010-01-13T02:15:11Z</time>
      </trkpt>
      <trkpt lat="46.01565" lon="6.55947">
        <ele>1250</ele>
        <time>2010-01-13T02:15:36Z</time>
      </trkpt>
      <trkpt lat="46.01504" lon="6.55876">
        <ele>1236</ele>
        <time>2010-01-13T02:16:15Z</time>
      </trkpt>
      <trkpt lat="46.01492" lon="6.55884">
        <ele>1248</ele>
        <time>2010-01-13T02:16:22Z</time>
      </trkpt>
      <trkpt lat="46.01482" lon="6.55892">
        <ele>1249</ele>
        <time>2010-01-13T02:16:27Z</time>
      </trkpt>
      <trkpt lat="46.01423" lon="6.55863">
        <ele>1252</ele>
        <time>2010-01-13T02:16:58Z</time>
      </trkpt>
      <trkpt lat="46.0139" lon="6.55833">
        <ele>1266</ele>
        <time>2010-01-13T02:17:18Z</time>
      </trkpt>
      <trkpt lat="46.0136" lon="6.55862">
        <ele>1273</ele>
        <time>2010-01-13T02:17:36Z</time>
      </trkpt>
      <trkpt lat="46.01365" lon="6.55914">
        <ele>1275</ele>
        <time>2010-01-13T02:17:54Z</time>
      </trkpt>
      <trkpt lat="46.01336" lon="6.55849">
        <ele>1278</ele>
        <time>2010-01-13T02:18:21Z</time>
      </trkpt>
      <trkpt lat="46.01347" lon="6.55828">
        <ele>1279</ele>
        <time>2010-01-13T02:18:30Z</time>
      </trkpt>
      <trkpt lat="46.01381" lon="6.55664">
        <ele>1284</ele>
        <time>2010-01-13T02:19:27Z</time>
      </trkpt>
      <trkpt lat="46.0135" lon="6.55679">
        <ele>1289</ele>
        <time>2010-01-13T02:19:43Z</time>
      </trkpt>
      <trkpt lat="46.01356" lon="6.55643">
        <ele>1288</ele>
        <time>2010-01-13T02:19:56Z</time>
      </trkpt>
      <trkpt lat="46.01385" lon="6.55596">
        <ele>1280</ele>
        <time>2010-01-13T02:20:18Z</time>
      </trkpt>
      <trkpt lat="46.01386" lon="6.55567">
        <ele>1270</ele>
        <time>2010-01-13T02:20:28Z</time>
      </trkpt>
      <trkpt lat="46.01377" lon="6.55538">
        <ele>1269</ele>
        <time>2010-01-13T02:20:39Z</time>
      </trkpt>
      <trkpt lat="46.0136" lon="6.5552">
        <ele>1271</ele>
        <time>2010-01-13T02:20:50Z</time>
      </trkpt>
      <trkpt lat="46.01327" lon="6.55505">
        <ele>1280</ele>
        <time>2010-01-13T02:21:07Z</time>
      </trkpt>
      <trkpt lat="46.01291" lon="6.55478">
        <ele>1264</ele>
        <time>2010-01-13T02:21:27Z</time>
      </trkpt>
      <trkpt lat="46.01329" lon="6.5545">
        <ele>1255</ele>
        <time>2010-01-13T02:21:49Z</time>
      </trkpt>
      <trkpt lat="46.01259" lon="6.55437">
        <ele>1255</ele>
        <time>2010-01-13T02:22:24Z</time>
      </trkpt>
      <trkpt lat="46.01218" lon="6.55418">
        <ele>1265</ele>
        <time>2010-01-13T02:22:46Z</time>
      </trkpt>
      <trkpt lat="46.01139" lon="6.55384">
        <ele>1267</ele>
        <time>2010-01-13T02:23:27Z</time>
      </trkpt>
      <trkpt lat="46.01117" lon="6.55366">
        <ele>1268</ele>
        <time>2010-01-13T02:23:40Z</time>
      </trkpt>
      <trkpt lat="46.01104" lon="6.5534">
        <ele>1268</ele>
        <time>2010-01-13T02:23:51Z</time>
      </trkpt>
      <trkpt lat="46.01112" lon="6.55251">
        <ele>1247</ele>
        <time>2010-01-13T02:24:22Z</time>
      </trkpt>
      <trkpt lat="46.01104" lon="6.55199">
        <ele>1232</ele>
        <time>2010-01-13T02:24:40Z</time>
      </trkpt>
      <trkpt lat="46.01099" lon="6.5517">
        <ele>1232</ele>
        <time>2010-01-13T02:24:51Z</time>
      </trkpt>
      <trkpt lat="46.01068" lon="6.55105">
        <ele>1226</ele>
        <time>2010-01-13T02:25:18Z</time>
      </trkpt>
      <trkpt lat="46.01052" lon="6.55053">
        <ele>1219</ele>
        <time>2010-01-13T02:25:38Z</time>
      </trkpt>
      <trkpt lat="46.0104" lon="6.54988">
        <ele>1221</ele>
        <time>2010-01-13T02:26:02Z</time>
      </trkpt>
      <trkpt lat="46.01041" lon="6.54844">
        <ele>1227</ele>
        <time>2010-01-13T02:26:51Z</time>
      </trkpt>
      <trkpt lat="46.01063" lon="6.54737">
        <ele>1217</ele>
        <time>2010-01-13T02:27:30Z</time>
      </trkpt>
      <trkpt lat="46.01067" lon="6.54689">
        <ele>1217</ele>
        <time>2010-01-13T02:27:47Z</time>
      </trkpt>
      <trkpt lat="46.01078" lon="6.54632">
        <ele>1215</ele>
        <time>2010-01-13T02:28:08Z</time>
      </trkpt>
      <trkpt lat="46.01082" lon="6.5455">
        <ele>1206</ele>
        <time>2010-01-13T02:28:36Z</time>
      </trkpt>
      <trkpt lat="46.01042" lon="6.54473">
        <ele>1194</ele>
        <time>2010-01-13T02:29:10Z</time>
      </trkpt>
      <trkpt lat="46.01041" lon="6.54442">
        <ele>1191</ele>
        <time>2010-01-13T02:29:21Z</time>
      </trkpt>
      <trkpt lat="46.01009" lon="6.54387">
        <ele>1178</ele>
        <time>2010-01-13T02:29:46Z</time>
      </trkpt>
      <trkpt lat="46.00979" lon="6.54404">
        <ele>1180</ele>
        <time>2010-01-13T02:30:02Z</time>
      </trkpt>
      <trkpt lat="46.00945" lon="6.54372">
        <ele>1175</ele>
        <time>2010-01-13T02:30:22Z</time>
      </trkpt>
      <trkpt lat="46.00951" lon="6.54349">
        <ele>1172</ele>
        <time>2010-01-13T02:30:31Z</time>
      </trkpt>
      <trkpt lat="46.00949" lon="6.54312">
        <ele>1153</ele>
        <time>2010-01-13T02:30:44Z</time>
      </trkpt>
      <trkpt lat="46.00943" lon="6.54265">
        <ele>1144</ele>
        <time>2010-01-13T02:31:00Z</time>
      </trkpt>
      <trkpt lat="46.00981" lon="6.54148">
        <ele>1081</ele>
        <time>2010-01-13T02:31:45Z</time>
      </trkpt>
      <trkpt lat="46.00857" lon="6.54108">
        <ele>1079</ele>
        <time>2010-01-13T02:31:49Z</time>
      </trkpt>
      <trkpt lat="46.0085" lon="6.54059">
        <ele>1049</ele>
        <time>2010-01-13T02:32:06Z</time>
      </trkpt>
      <trkpt lat="46.00801" lon="6.53939">
        <ele>1013</ele>
        <time>2010-01-13T02:32:55Z</time>
      </trkpt>
      <trkpt lat="46.0084" lon="6.53955">
        <ele>1010</ele>
        <time>2010-01-13T02:33:15Z</time>
      </trkpt>
      <trkpt lat="46.00898" lon="6.5394">
        <ele>1007</ele>
        <time>2010-01-13T02:33:44Z</time>
      </trkpt>
      <trkpt lat="46.00978" lon="6.53919">
        <ele>1006</ele>
        <time>2010-01-13T02:34:25Z</time>
      </trkpt>
      <trkpt lat="46.01135" lon="6.53861">
        <ele>988</ele>
        <time>2010-01-13T02:34:46Z</time>
      </trkpt>
      <trkpt lat="46.01178" lon="6.53821">
        <ele>977</ele>
        <time>2010-01-13T02:35:12Z</time>
      </trkpt>
      <trkpt lat="46.01222" lon="6.53759">
        <ele>974</ele>
        <time>2010-01-13T02:35:43Z</time>
      </trkpt>
      <trkpt lat="46.01217" lon="6.53737">
        <ele>973</ele>
        <time>2010-01-13T02:35:51Z</time>
      </trkpt>
      <trkpt lat="46.01193" lon="6.53692">
        <ele>974</ele>
        <time>2010-01-13T02:36:11Z</time>
      </trkpt>
      <trkpt lat="46.01175" lon="6.53606">
        <ele>977</ele>
        <time>2010-01-13T02:36:42Z</time>
      </trkpt>
      <trkpt lat="46.01159" lon="6.53506">
        <ele>981</ele>
        <time>2010-01-13T02:37:17Z</time>
      </trkpt>
      <trkpt lat="46.01149" lon="6.53507">
        <ele>981</ele>
        <time>2010-01-13T02:37:23Z</time>
      </trkpt>
      <trkpt lat="46.01147" lon="6.53505">
        <ele>981</ele>
        <time>2010-01-13T03:00:00Z</time>
      </trkpt>
      <trkpt lat="46.01147" lon="6.53492">
        <ele>983</ele>
        <time>2010-01-13T03:00:04Z</time>
      </trkpt>
      <trkpt lat="46.01135" lon="6.53489">
        <ele>983</ele>
        <time>2010-01-13T03:00:10Z</time>
      </trkpt>
      <trkpt lat="46.01117" lon="6.53503">
        <ele>980</ele>
        <time>2010-01-13T03:00:21Z</time>
      </trkpt>
      <trkpt lat="46.01105" lon="6.53542">
        <ele>979</ele>
        <time>2010-01-13T03:00:35Z</time>
      </trkpt>
      <trkpt lat="46.01089" lon="6.53579">
        <ele>978</ele>
        <time>2010-01-13T03:00:51Z</time>
      </trkpt>
      <trkpt lat="46.00801" lon="6.53875">
        <ele>1007</ele>
        <time>2010-01-13T03:01:48Z</time>
      </trkpt>
      <trkpt lat="46.00798" lon="6.53887">
        <ele>1007</ele>
        <time>2010-01-13T03:01:52Z</time>
      </trkpt>
      <trkpt lat="46.0071" lon="6.53989">
        <ele>1024</ele>
        <time>2010-01-13T03:02:49Z</time>
      </trkpt>
      <trkpt lat="46.00681" lon="6.53984">
        <ele>1024</ele>
        <time>2010-01-13T03:03:03Z</time>
      </trkpt>
      <trkpt lat="46.00663" lon="6.53959">
        <ele>1027</ele>
        <time>2010-01-13T03:03:16Z</time>
      </trkpt>
      <trkpt lat="46.0064" lon="6.53931">
        <ele>1028</ele>
        <time>2010-01-13T03:03:31Z</time>
      </trkpt>
      <trkpt lat="46.00593" lon="6.53939">
        <ele>1032</ele>
        <time>2010-01-13T03:03:54Z</time>
      </trkpt>
      <trkpt lat="46.00561" lon="6.53962">
        <ele>1034</ele>
        <time>2010-01-13T03:04:13Z</time>
      </trkpt>
      <trkpt lat="46.00471" lon="6.53955">
        <ele>1035</ele>
        <time>2010-01-13T03:04:58Z</time>
      </trkpt>
      <trkpt lat="46.0037" lon="6.53991">
        <ele>1035</ele>
        <time>2010-01-13T03:05:50Z</time>
      </trkpt>
      <trkpt lat="46.00277" lon="6.54067">
        <ele>1035</ele>
        <time>2010-01-13T03:06:43Z</time>
      </trkpt>
      <trkpt lat="46.00207" lon="6.54101">
        <ele>1042</ele>
        <time>2010-01-13T03:07:20Z</time>
      </trkpt>
      <trkpt lat="46.00063" lon="6.54085">
        <ele>1054</ele>
        <time>2010-01-13T03:07:33Z</time>
      </trkpt>
      <trkpt lat="45.99962" lon="6.54153">
        <ele>1066</ele>
        <time>2010-01-13T03:08:28Z</time>
      </trkpt>
      <trkpt lat="45.99878" lon="6.54156">
        <ele>1075</ele>
        <time>2010-01-13T03:09:11Z</time>
      </trkpt>
      <trkpt lat="45.99822" lon="6.54132">
        <ele>1083</ele>
        <time>2010-01-13T03:09:40Z</time>
      </trkpt>
      <trkpt lat="45.9979" lon="6.54137">
        <ele>1086</ele>
        <time>2010-01-13T03:09:56Z</time>
      </trkpt>
      <trkpt lat="45.99759" lon="6.54116">
        <ele>1084</ele>
        <time>2010-01-13T03:10:13Z</time>
      </trkpt>
      <trkpt lat="45.99678" lon="6.54156">
        <ele>1102</ele>
        <time>2010-01-13T03:10:56Z</time>
      </trkpt>
      <trkpt lat="45.99599" lon="6.54088">
        <ele>1108</ele>
        <time>2010-01-13T03:11:42Z</time>
      </trkpt>
      <trkpt lat="45.99567" lon="6.54075">
        <ele>1108</ele>
        <time>2010-01-13T03:11:59Z</time>
      </trkpt>
      <trkpt lat="45.99488" lon="6.54085">
        <ele>1121</ele>
        <time>2010-01-13T03:12:38Z</time>
      </trkpt>
      <trkpt lat="45.99459" lon="6.54033">
        <ele>1120</ele>
        <time>2010-01-13T03:13:01Z</time>
      </trkpt>
      <trkpt lat="45.99432" lon="6.53939">
        <ele>1134</ele>
        <time>2010-01-13T03:13:37Z</time>
      </trkpt>
      <trkpt lat="45.99405" lon="6.53923">
        <ele>1146</ele>
        <time>2010-01-13T03:13:51Z</time>
      </trkpt>
      <trkpt lat="45.99361" lon="6.53942">
        <ele>1153</ele>
        <time>2010-01-13T03:14:15Z</time>
      </trkpt>
      <trkpt lat="45.99222" lon="6.54114">
        <ele>1191</ele>
        <time>2010-01-13T03:14:46Z</time>
      </trkpt>
      <trkpt lat="45.99104" lon="6.5431">
        <ele>1241</ele>
        <time>2010-01-13T03:15:17Z</time>
      </trkpt>
      <trkpt lat="45.9908" lon="6.54409">
        <ele>1255</ele>
        <time>2010-01-13T03:15:53Z</time>
      </trkpt>
      <trkpt lat="45.9898" lon="6.54471">
        <ele>1293</ele>
        <time>2010-01-13T03:16:48Z</time>
      </trkpt>
      <trkpt lat="45.98922" lon="6.54511">
        <ele>1305</ele>
        <time>2010-01-13T03:17:20Z</time>
      </trkpt>
      <trkpt lat="45.98757" lon="6.54513">
        <ele>1310</ele>
        <time>2010-01-13T03:17:43Z</time>
      </trkpt>
      <trkpt lat="45.98717" lon="6.54474">
        <ele>1306</ele>
        <time>2010-01-13T03:18:07Z</time>
      </trkpt>
      <trkpt lat="45.98643" lon="6.54487">
        <ele>1310</ele>
        <time>2010-01-13T03:18:44Z</time>
      </trkpt>
      <trkpt lat="45.98577" lon="6.54453">
        <ele>1314</ele>
        <time>2010-01-13T03:19:19Z</time>
      </trkpt>
      <trkpt lat="45.98491" lon="6.54466">
        <ele>1314</ele>
        <time>2010-01-13T03:20:03Z</time>
      </trkpt>
      <trkpt lat="45.98442" lon="6.54511">
        <ele>1319</ele>
        <time>2010-01-13T03:20:32Z</time>
      </trkpt>
      <trkpt lat="45.98432" lon="6.54578">
        <ele>1326</ele>
        <time>2010-01-13T03:20:56Z</time>
      </trkpt>
      <trkpt lat="45.98381" lon="6.54714">
        <ele>1351</ele>
        <time>2010-01-13T03:21:49Z</time>
      </trkpt>
      <trkpt lat="45.98397" lon="6.54785">
        <ele>1368</ele>
        <time>2010-01-13T03:22:15Z</time>
      </trkpt>
      <trkpt lat="45.98421" lon="6.54837">
        <ele>1381</ele>
        <time>2010-01-13T03:22:37Z</time>
      </trkpt>
      <trkpt lat="45.98435" lon="6.54813">
        <ele>1383</ele>
        <time>2010-01-13T03:22:48Z</time>
      </trkpt>
      <trkpt lat="45.98476" lon="6.54842">
        <ele>1397</ele>
        <time>2010-01-13T03:23:11Z</time>
      </trkpt>
      <trkpt lat="45.98565" lon="6.54806">
        <ele>1404</ele>
        <time>2010-01-13T03:23:57Z</time>
      </trkpt>
      <trkpt lat="45.98658" lon="6.54829">
        <ele>1425</ele>
        <time>2010-01-13T03:24:44Z</time>
      </trkpt>
      <trkpt lat="45.98791" lon="6.54795">
        <ele>1457</ele>
        <time>2010-01-13T03:24:52Z</time>
      </trkpt>
      <trkpt lat="45.9898" lon="6.54829">
        <ele>1498</ele>
        <time>2010-01-13T03:25:27Z</time>
      </trkpt>
      <trkpt lat="45.99064" lon="6.54973">
        <ele>1570</ele>
        <time>2010-01-13T03:25:32Z</time>
      </trkpt>
      <trkpt lat="45.99127" lon="6.54967">
        <ele>1556</ele>
        <time>2010-01-13T03:26:04Z</time>
      </trkpt>
      <trkpt lat="45.99192" lon="6.55009">
        <ele>1580</ele>
        <time>2010-01-13T03:26:40Z</time>
      </trkpt>
      <trkpt lat="45.99181" lon="6.5508">
        <ele>1595</ele>
        <time>2010-01-13T03:27:05Z</time>
      </trkpt>
      <trkpt lat="45.99161" lon="6.55134">
        <ele>1611</ele>
        <time>2010-01-13T03:27:26Z</time>
      </trkpt>
      <trkpt lat="45.9919" lon="6.55226">
        <ele>1631</ele>
        <time>2010-01-13T03:28:01Z</time>
      </trkpt>
      <trkpt lat="45.99183" lon="6.55388">
        <ele>1670</ele>
        <time>2010-01-13T03:28:57Z</time>
      </trkpt>
      <trkpt lat="45.99193" lon="6.55468">
        <ele>1694</ele>
        <time>2010-01-13T03:29:26Z</time>
      </trkpt>
      <trkpt lat="45.99253" lon="6.55565">
        <ele>1726</ele>
        <time>2010-01-13T03:30:11Z</time>
      </trkpt>
      <trkpt lat="45.99254" lon="6.55572">
        <ele>1727</ele>
        <time>2010-01-13T04:00:00Z</time>
      </trkpt>
      <trkpt lat="45.99113" lon="6.55697">
        <ele>1749</ele>
        <time>2010-01-13T04:00:23Z</time>
      </trkpt>
      <trkpt lat="45.98985" lon="6.55621">
        <ele>1747</ele>
        <time>2010-01-13T04:00:32Z</time>
      </trkpt>
      <trkpt lat="45.98818" lon="6.55519">
        <ele>1782</ele>
        <time>2010-01-13T04:01:03Z</time>
      </trkpt>
      <trkpt lat="45.98789" lon="6.55454">
        <ele>1762</ele>
        <time>2010-01-13T04:01:29Z</time>
      </trkpt>
      <trkpt lat="45.98584" lon="6.55548">
        <ele>1768</ele>
        <time>2010-01-13T04:02:17Z</time>
      </trkpt>
      <trkpt lat="45.98553" lon="6.55567">
        <ele>1746</ele>
        <time>2010-01-13T04:02:34Z</time>
      </trkpt>
      <trkpt lat="45.98503" lon="6.55626">
        <ele>1772</ele>
        <time>2010-01-13T04:03:07Z</time>
      </trkpt>
      <trkpt lat="45.98484" lon="6.55648">
        <ele>1767</ele>
        <time>2010-01-13T04:03:19Z</time>
      </trkpt>
      <trkpt lat="45.9848" lon="6.55665">
        <ele>1770</ele>
        <time>2010-01-13T04:03:25Z</time>
      </trkpt>
      <trkpt lat="45.98466" lon="6.55661">
        <ele>1766</ele>
        <time>2010-01-13T04:03:32Z</time>
      </trkpt>
      <trkpt lat="45.98464" lon="6.55644">
        <ele>1763</ele>
        <time>2010-01-13T04:03:38Z</time>
      </trkpt>
      <trkpt lat="45.98452" lon="6.55621">
        <ele>1757</ele>
        <time>2010-01-13T04:03:48Z</time>
      </trkpt>
      <trkpt lat="45.98436" lon="6.55607">
        <ele>1752</ele>
        <time>2010-01-13T04:03:57Z</time>
      </trkpt>
      <trkpt lat="45.98424" lon="6.55584">
        <ele>1742</ele>
        <time>2010-01-13T04:04:07Z</time>
      </trkpt>
      <trkpt lat="45.98404" lon="6.55575">
        <ele>1728</ele>
        <time>2010-01-13T04:04:18Z</time>
      </trkpt>
      <trkpt lat="45.98398" lon="6.55558">
        <ele>1721</ele>
        <time>2010-01-13T04:04:25Z</time>
      </trkpt>
      <trkpt lat="45.98373" lon="6.55549">
        <ele>1717</ele>
        <time>2010-01-13T04:04:37Z</time>
      </trkpt>
      <trkpt lat="45.98362" lon="6.55546">
        <ele>1717</ele>
        <time>2010-01-13T04:04:43Z</time>
      </trkpt>
      <trkpt lat="45.98348" lon="6.55555">
        <ele>1719</ele>
        <time>2010-01-13T04:04:51Z</time>
      </trkpt>
      <trkpt lat="45.98307" lon="6.55584">
        <ele>1724</ele>
        <time>2010-01-13T04:05:13Z</time>
      </trkpt>
      <trkpt lat="45.98296" lon="6.55579">
        <ele>1708</ele>
        <time>2010-01-13T04:05:20Z</time>
      </trkpt>
      <trkpt lat="45.98286" lon="6.5556">
        <ele>1704</ele>
        <time>2010-01-13T04:05:28Z</time>
      </trkpt>
      <trkpt lat="45.98282" lon="6.55524">
        <ele>1698</ele>
        <time>2010-01-13T04:05:40Z</time>
      </trkpt>
      <trkpt lat="45.98241" lon="6.55411">
        <ele>1653</ele>
        <time>2010-01-13T04:06:25Z</time>
      </trkpt>
      <trkpt lat="45.98225" lon="6.55404">
        <ele>1646</ele>
        <time>2010-01-13T04:06:33Z</time>
      </trkpt>
      <trkpt lat="45.98207" lon="6.55419">
        <ele>1657</ele>
        <time>2010-01-13T04:06:43Z</time>
      </trkpt>
      <trkpt lat="45.98186" lon="6.55423">
        <ele>1652</ele>
        <time>2010-01-13T04:06:54Z</time>
      </trkpt>
      <trkpt lat="45.98153" lon="6.55423">
        <ele>1650</ele>
        <time>2010-01-13T04:07:11Z</time>
      </trkpt>
      <trkpt lat="45.98138" lon="6.55408">
        <ele>1640</ele>
        <time>2010-01-13T04:07:20Z</time>
      </trkpt>
      <trkpt lat="45.98135" lon="6.55384">
        <ele>1638</ele>
        <time>2010-01-13T04:07:28Z</time>
      </trkpt>
      <trkpt lat="45.98132" lon="6.55351">
        <ele>1635</ele>
        <time>2010-01-13T04:07:40Z</time>
      </trkpt>
      <trkpt lat="45.98127" lon="6.55332">
        <ele>1625</ele>
        <time>2010-01-13T04:07:47Z</time>
      </trkpt>
      <trkpt lat="45.98114" lon="6.55303">
        <ele>1625</ele>
        <time>2010-01-13T04:07:59Z</time>
      </trkpt>
      <trkpt lat="45.98115" lon="6.5528">
        <ele>1624</ele>
        <time>2010-01-13T04:08:07Z</time>
      </trkpt>
      <trkpt lat="45.98121" lon="6.55254">
        <ele>1622</ele>
        <time>2010-01-13T04:08:17Z</time>
      </trkpt>
      <trkpt lat="45.98114" lon="6.55229">
        <ele>1618</ele>
        <time>2010-01-13T04:08:26Z</time>
      </trkpt>
      <trkpt lat="45.98105" lon="6.55194">
        <ele>1619</ele>
        <time>2010-01-13T04:08:39Z</time>
      </trkpt>
      <trkpt lat="45.98104" lon="6.55171">
        <ele>1620</ele>
        <time>2010-01-13T04:08:47Z</time>
      </trkpt>
      <trkpt lat="45.981" lon="6.55167">
        <ele>1620</ele>
        <time>2010-01-13T04:08:50Z</time>
      </trkpt>
      <trkpt lat="45.98089" lon="6.55173">
        <ele>1622</ele>
        <time>2010-01-13T04:08:56Z</time>
      </trkpt>
      <trkpt lat="45.98077" lon="6.55141">
        <ele>1624</ele>
        <time>2010-01-13T04:09:08Z</time>
      </trkpt>
      <trkpt lat="45.98068" lon="6.55126">
        <ele>1624</ele>
        <time>2010-01-13T04:09:15Z</time>
      </trkpt>
      <trkpt lat="45.98047" lon="6.55108">
        <ele>1623</ele>
        <time>2010-01-13T04:09:27Z</time>
      </trkpt>
      <trkpt lat="45.97997" lon="6.5508">
        <ele>1618</ele>
        <time>2010-01-13T04:09:54Z</time>
      </trkpt>
      <trkpt lat="45.97961" lon="6.5501">
        <ele>1615</ele>
        <time>2010-01-13T04:10:25Z</time>
      </trkpt>
      <trkpt lat="45.97923" lon="6.54931">
        <ele>1589</ele>
        <time>2010-01-13T04:10:58Z</time>
      </trkpt>
      <trkpt lat="45.97908" lon="6.54875">
        <ele>1587</ele>
        <time>2010-01-13T04:11:19Z</time>
      </trkpt>
      <trkpt lat="45.97901" lon="6.54839">
        <ele>1576</ele>
        <time>2010-01-13T04:11:32Z</time>
      </trkpt>
      <trkpt lat="45.97665" lon="6.54693">
        <ele>1592</ele>
        <time>2010-01-13T04:11:41Z</time>
      </trkpt>
      <trkpt lat="45.976" lon="6.54685">
        <ele>1597</ele>
        <time>2010-01-13T04:12:13Z</time>
      </trkpt>
      <trkpt lat="45.9759" lon="6.54673">
        <ele>1595</ele>
        <time>2010-01-13T04:12:20Z</time>
      </trkpt>
      <trkpt lat="45.97555" lon="6.54653">
        <ele>1603</ele>
        <time>2010-01-13T04:12:39Z</time>
      </trkpt>
      <trkpt lat="45.97548" lon="6.54626">
        <ele>1603</ele>
        <time>2010-01-13T04:12:49Z</time>
      </trkpt>
      <trkpt lat="45.97535" lon="6.54605">
        <ele>1604</ele>
        <time>2010-01-13T04:12:59Z</time>
      </trkpt>
      <trkpt lat="45.97528" lon="6.54573">
        <ele>1602</ele>
        <time>2010-01-13T04:13:10Z</time>
      </trkpt>
      <trkpt lat="45.97522" lon="6.54543">
        <ele>1602</ele>
        <time>2010-01-13T04:13:21Z</time>
      </trkpt>
      <trkpt lat="45.9756" lon="6.54472">
        <ele>1594</ele>
        <time>2010-01-13T04:13:52Z</time>
      </trkpt>
      <trkpt lat="45.97547" lon="6.54418">
        <ele>1597</ele>
        <time>2010-01-13T04:14:12Z</time>
      </trkpt>
      <trkpt lat="45.97532" lon="6.54382">
        <ele>1597</ele>
        <time>2010-01-13T04:14:27Z</time>
      </trkpt>
      <trkpt lat="45.97514" lon="6.5435">
        <ele>1598</ele>
        <time>2010-01-13T04:14:41Z</time>
      </trkpt>
      <trkpt lat="45.97463" lon="6.5427">
        <ele>1597</ele>
        <time>2010-01-13T04:15:19Z</time>
      </trkpt>
      <trkpt lat="45.97448" lon="6.54249">
        <ele>1585</ele>
        <time>2010-01-13T04:15:29Z</time>
      </trkpt>
      <trkpt lat="45.97425" lon="6.54234">
        <ele>1588</ele>
        <time>2010-01-13T04:15:42Z</time>
      </trkpt>
      <trkpt lat="45.97392" lon="6.54182">
        <ele>1588</ele>
        <time>2010-01-13T04:16:07Z</time>
      </trkpt>
      <trkpt lat="45.97358" lon="6.54168">
        <ele>1589</ele>
        <time>2010-01-13T04:16:24Z</time>
      </trkpt>
      <trkpt lat="45.97348" lon="6.54155">
        <ele>1576</ele>
        <time>2010-01-13T04:16:31Z</time>
      </trkpt>
      <trkpt lat="45.97326" lon="6.54107">
        <ele>1573</ele>
        <time>2010-01-13T04:16:51Z</time>
      </trkpt>
      <trkpt lat="45.97291" lon="6.54066">
        <ele>1561</ele>
        <time>2010-01-13T04:17:13Z</time>
      </trkpt>
      <trkpt lat="45.97279" lon="6.5405">
        <ele>1561</ele>
        <time>2010-01-13T04:17:21Z</time>
      </trkpt>
      <trkpt lat="45.97276" lon="6.54032">
        <ele>1559</ele>
        <time>2010-01-13T04:17:28Z</time>
      </trkpt>
      <trkpt lat="45.9725" lon="6.54001">
        <ele>1561</ele>
        <time>2010-01-13T04:17:45Z</time>
      </trkpt>
      <trkpt lat="45.9723" lon="6.53949">
        <ele>1556</ele>
        <time>2010-01-13T04:18:06Z</time>
      </trkpt>
      <trkpt lat="45.97202" lon="6.53895">
        <ele>1539</ele>
        <time>2010-01-13T04:18:29Z</time>
      </trkpt>
      <trkpt lat="45.97214" lon="6.53845">
        <ele>1532</ele>
        <time>2010-01-13T04:18:48Z</time>
      </trkpt>
      <trkpt lat="45.97209" lon="6.53827">
        <ele>1520</ele>
        <time>2010-01-13T04:18:54Z</time>
      </trkpt>
      <trkpt lat="45.97184" lon="6.53808">
        <ele>1521</ele>
        <time>2010-01-13T04:19:08Z</time>
      </trkpt>
      <trkpt lat="45.97124" lon="6.538">
        <ele>1540</ele>
        <time>2010-01-13T04:19:38Z</time>
      </trkpt>
      <trkpt lat="45.971" lon="6.53785">
        <ele>1543</ele>
        <time>2010-01-13T04:19:52Z</time>
      </trkpt>
      <trkpt lat="45.97093" lon="6.53784">
        <ele>1544</ele>
        <time>2010-01-13T04:19:55Z</time>
      </trkpt>
      <trkpt lat="45.97091" lon="6.53764">
        <ele>1545</ele>
        <time>2010-01-13T04:20:02Z</time>
      </trkpt>
      <trkpt lat="45.97102" lon="6.53698">
        <ele>1551</ele>
        <time>2010-01-13T04:20:26Z</time>
      </trkpt>
      <trkpt lat="45.97099" lon="6.53682">
        <ele>1557</ele>
        <time>2010-01-13T04:20:31Z</time>
      </trkpt>
      <trkpt lat="45.97112" lon="6.53638">
        <ele>1573</ele>
        <time>2010-01-13T04:20:48Z</time>
      </trkpt>
      <trkpt lat="45.97117" lon="6.53573">
        <ele>1600</ele>
        <time>2010-01-13T04:21:11Z</time>
      </trkpt>
      <trkpt lat="45.97158" lon="6.53508">
        <ele>1596</ele>
        <time>2010-01-13T04:21:42Z</time>
      </trkpt>
      <trkpt lat="45.97171" lon="6.53453">
        <ele>1586</ele>
        <time>2010-01-13T04:22:02Z</time>
      </trkpt>
      <trkpt lat="45.97169" lon="6.53359">
        <ele>1585</ele>
        <time>2010-01-13T04:22:35Z</time>
      </trkpt>
      <trkpt lat="45.97153" lon="6.53307">
        <ele>1596</ele>
        <time>2010-01-13T04:22:54Z</time>
      </trkpt>
      <trkpt lat="45.97103" lon="6.53239">
        <ele>1598</ele>
        <time>2010-01-13T04:23:29Z</time>
      </trkpt>
      <trkpt lat="45.97038" lon="6.53258">
        <ele>1619</ele>
        <time>2010-01-13T04:24:02Z</time>
      </trkpt>
      <trkpt lat="45.9697" lon="6.53254">
        <ele>1631</ele>
        <time>2010-01-13T04:24:37Z</time>
      </trkpt>
      <trkpt lat="45.96955" lon="6.53242">
        <ele>1620</ele>
        <time>2010-01-13T04:24:45Z</time>
      </trkpt>
      <trkpt lat="45.96945" lon="6.53211">
        <ele>1618</ele>
        <time>2010-01-13T04:24:57Z</time>
      </trkpt>
      <trkpt lat="45.96926" lon="6.53174">
        <ele>1617</ele>
        <time>2010-01-13T04:25:13Z</time>
      </trkpt>
      <trkpt lat="45.96923" lon="6.53133">
        <ele>1617</ele>
        <time>2010-01-13T04:25:27Z</time>
      </trkpt>
      <trkpt lat="45.96955" lon="6.53066">
        <ele>1628</ele>
        <time>2010-01-13T04:25:55Z</time>
      </trkpt>
      <trkpt lat="45.9698" lon="6.53029">
        <ele>1629</ele>
        <time>2010-01-13T04:26:13Z</time>
      </trkpt>
      <trkpt lat="45.97013" lon="6.52994">
        <ele>1628</ele>
        <time>2010-01-13T04:26:34Z</time>
      </trkpt>
      <trkpt lat="45.97018" lon="6.52968">
        <ele>1629</ele>
        <time>2010-01-13T04:26:43Z</time>
      </trkpt>
      <trkpt lat="45.9705" lon="6.5296">
        <ele>1628</ele>
        <time>2010-01-13T04:27:00Z</time>
      </trkpt>
      <trkpt lat="45.97048" lon="6.52949">
        <ele>1629</ele>
        <time>2010-01-13T04:27:04Z</time>
      </trkpt>
      <trkpt lat="45.97023" lon="6.52914">
        <ele>1642</ele>
        <time>2010-01-13T04:27:21Z</time>
      </trkpt>
      <trkpt lat="45.97013" lon="6.52883">
        <ele>1644</ele>
        <time>2010-01-13T04:27:33Z</time>
      </trkpt>
      <trkpt lat="45.97033" lon="6.52828">
        <ele>1657</ele>
        <time>2010-01-13T04:27:55Z</time>
      </trkpt>
      <trkpt lat="45.97041" lon="6.5278">
        <ele>1661</ele>
        <time>2010-01-13T04:28:12Z</time>
      </trkpt>
      <trkpt lat="45.97044" lon="6.52727">
        <ele>1680</ele>
        <time>2010-01-13T04:28:30Z</time>
      </trkpt>
      <trkpt lat="45.97053" lon="6.52687">
        <ele>1685</ele>
        <time>2010-01-13T04:28:45Z</time>
      </trkpt>
      <trkpt lat="45.9707" lon="6.52667">
        <ele>1685</ele>
        <time>2010-01-13T04:28:56Z</time>
      </trkpt>
      <trkpt lat="45.97073" lon="6.52644">
        <ele>1698</ele>
        <time>2010-01-13T04:29:04Z</time>
      </trkpt>
      <trkpt lat="45.97105" lon="6.52642">
        <ele>1692</ele>
        <time>2010-01-13T04:29:20Z</time>
      </trkpt>
      <trkpt lat="45.97107" lon="6.52628">
        <ele>1694</ele>
        <time>2010-01-13T04:29:25Z</time>
      </trkpt>
      <trkpt lat="45.97081" lon="6.52586">
        <ele>1702</ele>
        <time>2010-01-13T04:29:45Z</time>
      </trkpt>
      <trkpt lat="45.97079" lon="6.52547">
        <ele>1713</ele>
        <time>2010-01-13T04:29:58Z</time>
      </trkpt>
      <trkpt lat="45.97075" lon="6.52529">
        <ele>1715</ele>
        <time>2010-01-13T04:30:05Z</time>
      </trkpt>
      <trkpt lat="45.97066" lon="6.52513">
        <ele>1716</ele>
        <time>2010-01-13T04:30:12Z</time>
      </trkpt>
      <trkpt lat="45.97044" lon="6.52477">
        <ele>1721</ele>
        <time>2010-01-13T04:30:29Z</time>
      </trkpt>
      <trkpt lat="45.97039" lon="6.52426">
        <ele>1722</ele>
        <time>2010-01-13T04:30:47Z</time>
      </trkpt>
      <trkpt lat="45.97037" lon="6.5239">
        <ele>1723</ele>
        <time>2010-01-13T04:30:59Z</time>
      </trkpt>
      <trkpt lat="45.97055" lon="6.52353">
        <ele>1724</ele>
        <time>2010-01-13T04:31:15Z</time>
      </trkpt>
      <trkpt lat="45.97055" lon="6.52356">
        <ele>1724</ele>
        <time>2010-01-13T05:00:00Z</time>
      </trkpt>
      <trkpt lat="45.97075" lon="6.52333">
        <ele>1725</ele>
        <time>2010-01-13T05:00:12Z</time>
      </trkpt>
      <trkpt lat="45.97076" lon="6.52302">
        <ele>1723</ele>
        <time>2010-01-13T05:00:23Z</time>
      </trkpt>
      <trkpt lat="45.97089" lon="6.52238">
        <ele>1728</ele>
        <time>2010-01-13T05:00:46Z</time>
      </trkpt>
      <trkpt lat="45.97104" lon="6.5216">
        <ele>1726</ele>
        <time>2010-01-13T05:01:14Z</time>
      </trkpt>
      <trkpt lat="45.9714" lon="6.52055">
        <ele>1729</ele>
        <time>2010-01-13T05:01:55Z</time>
      </trkpt>
      <trkpt lat="45.97129" lon="6.52011">
        <ele>1728</ele>
        <time>2010-01-13T05:02:12Z</time>
      </trkpt>
      <trkpt lat="45.97128" lon="6.51994">
        <ele>1727</ele>
        <time>2010-01-13T05:02:18Z</time>
      </trkpt>
      <trkpt lat="45.97131" lon="6.51967">
        <ele>1727</ele>
        <time>2010-01-13T05:02:27Z</time>
      </trkpt>
      <trkpt lat="45.9713" lon="6.51938">
        <ele>1727</ele>
        <time>2010-01-13T05:02:37Z</time>
      </trkpt>
      <trkpt lat="45.97148" lon="6.51904">
        <ele>1731</ele>
        <time>2010-01-13T05:02:52Z</time>
      </trkpt>
      <trkpt lat="45.97132" lon="6.51844">
        <ele>1730</ele>
        <time>2010-01-13T05:03:14Z</time>
      </trkpt>
      <trkpt lat="45.97143" lon="6.51825">
        <ele>1735</ele>
        <time>2010-01-13T05:03:23Z</time>
      </trkpt>
      <trkpt lat="45.97128" lon="6.51802">
        <ele>1733</ele>
        <time>2010-01-13T05:03:34Z</time>
      </trkpt>
      <trkpt lat="45.9712" lon="6.51778">
        <ele>1733</ele>
        <time>2010-01-13T05:03:43Z</time>
      </trkpt>
      <trkpt lat="45.9712" lon="6.51753">
        <ele>1734</ele>
        <time>2010-01-13T05:03:52Z</time>
      </trkpt>
      <trkpt lat="45.97136" lon="6.51738">
        <ele>1743</ele>
        <time>2010-01-13T05:04:02Z</time>
      </trkpt>
      <trkpt lat="45.97107" lon="6.51715">
        <ele>1741</ele>
        <time>2010-01-13T05:04:18Z</time>
      </trkpt>
      <trkpt lat="45.97086" lon="6.51705">
        <ele>1741</ele>
        <time>2010-01-13T05:04:30Z</time>
      </trkpt>
      <trkpt lat="45.97069" lon="6.51685">
        <ele>1728</ele>
        <time>2010-01-13T05:04:41Z</time>
      </trkpt>
      <trkpt lat="45.97063" lon="6.51663">
        <ele>1732</ele>
        <time>2010-01-13T05:04:49Z</time>
      </trkpt>
      <trkpt lat="45.97066" lon="6.51632">
        <ele>1730</ele>
        <time>2010-01-13T05:04:59Z</time>
      </trkpt>
      <trkpt lat="45.97074" lon="6.51601">
        <ele>1735</ele>
        <time>2010-01-13T05:05:11Z</time>
      </trkpt>
      <trkpt lat="45.97096" lon="6.51567">
        <ele>1747</ele>
        <time>2010-01-13T05:05:27Z</time>
      </trkpt>
      <trkpt lat="45.97171" lon="6.51507">
        <ele>1754</ele>
        <time>2010-01-13T05:06:11Z</time>
      </trkpt>
      <trkpt lat="45.97204" lon="6.5149">
        <ele>1752</ele>
        <time>2010-01-13T05:06:28Z</time>
      </trkpt>
      <trkpt lat="45.97223" lon="6.51468">
        <ele>1753</ele>
        <time>2010-01-13T05:06:40Z</time>
      </trkpt>
      <trkpt lat="45.9724" lon="6.51467">
        <ele>1755</ele>
        <time>2010-01-13T05:06:49Z</time>
      </trkpt>
      <trkpt lat="45.97259" lon="6.51446">
        <ele>1772</ele>
        <time>2010-01-13T05:07:01Z</time>
      </trkpt>
      <trkpt lat="45.9727" lon="6.51335">
        <ele>1759</ele>
        <time>2010-01-13T05:07:40Z</time>
      </trkpt>
      <trkpt lat="45.97295" lon="6.51317">
        <ele>1757</ele>
        <time>2010-01-13T05:07:54Z</time>
      </trkpt>
      <trkpt lat="45.97302" lon="6.51273">
        <ele>1755</ele>
        <time>2010-01-13T05:08:09Z</time>
      </trkpt>
      <trkpt lat="45.97314" lon="6.51238">
        <ele>1753</ele>
        <time>2010-01-13T05:08:23Z</time>
      </trkpt>
      <trkpt lat="45.97308" lon="6.51208">
        <ele>1751</ele>
        <time>2010-01-13T05:08:34Z</time>
      </trkpt>
      <trkpt lat="45.9731" lon="6.51176">
        <ele>1754</ele>
        <time>2010-01-13T05:08:45Z</time>
      </trkpt>
      <trkpt lat="45.97281" lon="6.51128">
        <ele>1755</ele>
        <time>2010-01-13T05:09:07Z</time>
      </trkpt>
      <trkpt lat="45.97276" lon="6.51094">
        <ele>1757</ele>
        <time>2010-01-13T05:09:19Z</time>
      </trkpt>
      <trkpt lat="45.97267" lon="6.5109">
        <ele>1754</ele>
        <time>2010-01-13T05:09:24Z</time>
      </trkpt>
      <trkpt lat="45.97251" lon="6.51056">
        <ele>1764</ele>
        <time>2010-01-13T05:09:38Z</time>
      </trkpt>
      <trkpt lat="45.97239" lon="6.51001">
        <ele>1753</ele>
        <time>2010-01-13T05:09:58Z</time>
      </trkpt>
      <trkpt lat="45.97231" lon="6.50964">
        <ele>1753</ele>
        <time>2010-01-13T05:10:12Z</time>
      </trkpt>
      <trkpt lat="45.97228" lon="6.50916">
        <ele>1762</ele>
        <time>2010-01-13T05:10:29Z</time>
      </trkpt>
      <trkpt lat="45.97198" lon="6.50875">
        <ele>1758</ele>
        <time>2010-01-13T05:10:49Z</time>
      </trkpt>
      <trkpt lat="45.97194" lon="6.50852">
        <ele>1759</ele>
        <time>2010-01-13T05:10:58Z</time>
      </trkpt>
      <trkpt lat="45.972" lon="6.50836">
        <ele>1760</ele>
        <time>2010-01-13T05:11:04Z</time>
      </trkpt>
      <trkpt lat="45.97194" lon="6.50815">
        <ele>1760</ele>
        <time>2010-01-13T05:11:12Z</time>
      </trkpt>
      <trkpt lat="45.97165" lon="6.50784">
        <ele>1754</ele>
        <time>2010-01-13T05:11:29Z</time>
      </trkpt>
      <trkpt lat="45.97153" lon="6.50748">
        <ele>1757</ele>
        <time>2010-01-13T05:11:43Z</time>
      </trkpt>
      <trkpt lat="45.97139" lon="6.50721">
        <ele>1753</ele>
        <time>2010-01-13T05:11:55Z</time>
      </trkpt>
      <trkpt lat="45.97122" lon="6.50671">
        <ele>1752</ele>
        <time>2010-01-13T05:12:15Z</time>
      </trkpt>
      <trkpt lat="45.9708" lon="6.50496">
        <ele>1743</ele>
        <time>2010-01-13T05:12:19Z</time>
      </trkpt>
      <trkpt lat="45.97075" lon="6.50456">
        <ele>1738</ele>
        <time>2010-01-13T05:12:33Z</time>
      </trkpt>
      <trkpt lat="45.97053" lon="6.50405">
        <ele>1739</ele>
        <time>2010-01-13T05:12:54Z</time>
      </trkpt>
      <trkpt lat="45.97018" lon="6.50331">
        <ele>1741</ele>
        <time>2010-01-13T05:13:25Z</time>
      </trkpt>
      <trkpt lat="45.96993" lon="6.50276">
        <ele>1742</ele>
        <time>2010-01-13T05:13:48Z</time>
      </trkpt>
      <trkpt lat="45.96939" lon="6.5021">
        <ele>1750</ele>
        <time>2010-01-13T05:14:24Z</time>
      </trkpt>
      <trkpt lat="45.96896" lon="6.50167">
        <ele>1755</ele>
        <time>2010-01-13T05:14:50Z</time>
      </trkpt>
      <trkpt lat="45.96885" lon="6.50157">
        <ele>1757</ele>
        <time>2010-01-13T05:14:57Z</time>
      </trkpt>
      <trkpt lat="45.96867" lon="6.50147">
        <ele>1757</ele>
        <time>2010-01-13T05:15:06Z</time>
      </trkpt>
      <trkpt lat="45.96823" lon="6.50074">
        <ele>1757</ele>
        <time>2010-01-13T05:15:40Z</time>
      </trkpt>
      <trkpt lat="45.96812" lon="6.50041">
        <ele>1752</ele>
        <time>2010-01-13T05:15:53Z</time>
      </trkpt>
      <trkpt lat="45.96806" lon="6.49851">
        <ele>1746</ele>
        <time>2010-01-13T05:15:59Z</time>
      </trkpt>
      <trkpt lat="45.96794" lon="6.49796">
        <ele>1746</ele>
        <time>2010-01-13T05:16:19Z</time>
      </trkpt>
      <trkpt lat="45.96788" lon="6.49761">
        <ele>1746</ele>
        <time>2010-01-13T05:16:31Z</time>
      </trkpt>
      <trkpt lat="45.9676" lon="6.49737">
        <ele>1747</ele>
        <time>2010-01-13T05:16:47Z</time>
      </trkpt>
      <trkpt lat="45.96733" lon="6.49721">
        <ele>1748</ele>
        <time>2010-01-13T05:17:02Z</time>
      </trkpt>
      <trkpt lat="45.96696" lon="6.49689">
        <ele>1747</ele>
        <time>2010-01-13T05:17:24Z</time>
      </trkpt>
      <trkpt lat="45.96683" lon="6.49651">
        <ele>1745</ele>
        <time>2010-01-13T05:17:38Z</time>
      </trkpt>
      <trkpt lat="45.96676" lon="6.49602">
        <ele>1742</ele>
        <time>2010-01-13T05:17:56Z</time>
      </trkpt>
      <trkpt lat="45.96645" lon="6.49515">
        <ele>1725</ele>
        <time>2010-01-13T05:18:30Z</time>
      </trkpt>
      <trkpt lat="45.96639" lon="6.49412">
        <ele>1722</ele>
        <time>2010-01-13T05:19:06Z</time>
      </trkpt>
      <trkpt lat="45.96639" lon="6.4937">
        <ele>1722</ele>
        <time>2010-01-13T05:19:20Z</time>
      </trkpt>
      <trkpt lat="45.96668" lon="6.49383">
        <ele>1711</ele>
        <time>2010-01-13T05:19:35Z</time>
      </trkpt>
      <trkpt lat="45.96698" lon="6.49295">
        <ele>1705</ele>
        <time>2010-01-13T05:20:10Z</time>
      </trkpt>
      <trkpt lat="45.96754" lon="6.49224">
        <ele>1687</ele>
        <time>2010-01-13T05:20:47Z</time>
      </trkpt>
      <trkpt lat="45.96792" lon="6.49224">
        <ele>1685</ele>
        <time>2010-01-13T05:21:06Z</time>
      </trkpt>
      <trkpt lat="45.96804" lon="6.49191">
        <ele>1684</ele>
        <time>2010-01-13T05:21:19Z</time>
      </trkpt>
      <trkpt lat="45.96803" lon="6.49179">
        <ele>1683</ele>
        <time>2010-01-13T05:21:23Z</time>
      </trkpt>
      <trkpt lat="45.96865" lon="6.49132">
        <ele>1673</ele>
        <time>2010-01-13T05:21:59Z</time>
      </trkpt>
      <trkpt lat="45.96902" lon="6.49113">
        <ele>1670</ele>
        <time>2010-01-13T05:22:18Z</time>
      </trkpt>
      <trkpt lat="45.96931" lon="6.49112">
        <ele>1661</ele>
        <time>2010-01-13T05:22:33Z</time>
      </trkpt>
      <trkpt lat="45.96955" lon="6.49131">
        <ele>1659</ele>
        <time>2010-01-13T05:22:46Z</time>
      </trkpt>
      <trkpt lat="45.96985" lon="6.49187">
        <ele>1660</ele>
        <time>2010-01-13T05:23:11Z</time>
      </trkpt>
      <trkpt lat="45.97" lon="6.49181">
        <ele>1652</ele>
        <time>2010-01-13T05:23:19Z</time>
      </trkpt>
      <trkpt lat="45.97009" lon="6.49141">
        <ele>1647</ele>
        <time>2010-01-13T05:23:33Z</time>
      </trkpt>
      <trkpt lat="45.97005" lon="6.49109">
        <ele>1645</ele>
        <time>2010-01-13T05:23:45Z</time>
      </trkpt>
      <trkpt lat="45.96989" lon="6.49031">
        <ele>1650</ele>
        <time>2010-01-13T05:24:13Z</time>
      </trkpt>
      <trkpt lat="45.96991" lon="6.48982">
        <ele>1644</ele>
        <time>2010-01-13T05:24:30Z</time>
      </trkpt>
      <trkpt lat="45.96999" lon="6.48946">
        <ele>1642</ele>
        <time>2010-01-13T05:24:43Z</time>
      </trkpt>
      <trkpt lat="45.97014" lon="6.4893">
        <ele>1634</ele>
        <time>2010-01-13T05:24:53Z</time>
      </trkpt>
      <trkpt lat="45.97039" lon="6.48864">
        <ele>1628</ele>
        <time>2010-01-13T05:25:19Z</time>
      </trkpt>
      <trkpt lat="45.97034" lon="6.48803">
        <ele>1626</ele>
        <time>2010-01-13T05:25:40Z</time>
      </trkpt>
      <trkpt lat="45.97041" lon="6.48756">
        <ele>1625</ele>
        <time>2010-01-13T05:25:57Z</time>
      </trkpt>
      <trkpt lat="45.97097" lon="6.48727">
        <ele>1609</ele>
        <time>2010-01-13T05:26:27Z</time>
      </trkpt>
      <trkpt lat="45.97142" lon="6.48741">
        <ele>1605</ele>
        <time>2010-01-13T05:26:50Z</time>
      </trkpt>
      <trkpt lat="45.97182" lon="6.48747">
        <ele>1597</ele>
        <time>2010-01-13T05:27:10Z</time>
      </trkpt>
      <trkpt lat="45.97189" lon="6.48732">
        <ele>1594</ele>
        <time>2010-01-13T05:27:16Z</time>
      </trkpt>
      <trkpt lat="45.97129" lon="6.48575">
        <ele>1587</ele>
        <time>2010-01-13T05:27:19Z</time>
      </trkpt>
      <trkpt lat="45.97141" lon="6.4855">
        <ele>1583</ele>
        <time>2010-01-13T05:27:30Z</time>
      </trkpt>
      <trkpt lat="45.97195" lon="6.48549">
        <ele>1561</ele>
        <time>2010-01-13T05:27:57Z</time>
      </trkpt>
      <trkpt lat="45.9725" lon="6.48586">
        <ele>1557</ele>
        <time>2010-01-13T05:28:27Z</time>
      </trkpt>
      <trkpt lat="45.97282" lon="6.48584">
        <ele>1551</ele>
        <time>2010-01-13T05:28:43Z</time>
      </trkpt>
      <trkpt lat="45.97269" lon="6.48511">
        <ele>1538</ele>
        <time>2010-01-13T05:29:09Z</time>
      </trkpt>
      <trkpt lat="45.97267" lon="6.48437">
        <ele>1524</ele>
        <time>2010-01-13T05:29:35Z</time>
      </trkpt>
      <trkpt lat="45.9732" lon="6.4828">
        <ele>1503</ele>
        <time>2010-01-13T05:29:36Z</time>
      </trkpt>
      <trkpt lat="45.97331" lon="6.48154">
        <ele>1484</ele>
        <time>2010-01-13T05:30:20Z</time>
      </trkpt>
      <trkpt lat="45.97403" lon="6.47981">
        <ele>1444</ele>
        <time>2010-01-13T05:30:30Z</time>
      </trkpt>
      <trkpt lat="45.97429" lon="6.47899">
        <ele>1431</ele>
        <time>2010-01-13T05:31:02Z</time>
      </trkpt>
      <trkpt lat="45.97438" lon="6.47847">
        <ele>1428</ele>
        <time>2010-01-13T05:31:20Z</time>
      </trkpt>
      <trkpt lat="45.97435" lon="6.47782">
        <ele>1423</ele>
        <time>2010-01-13T05:31:43Z</time>
      </trkpt>
      <trkpt lat="45.97449" lon="6.47754">
        <ele>1422</ele>
        <time>2010-01-13T05:31:55Z</time>
      </trkpt>
      <trkpt lat="45.97414" lon="6.47725">
        <ele>1425</ele>
        <time>2010-01-13T05:32:15Z</time>
      </trkpt>
      <trkpt lat="45.97393" lon="6.47553">
        <ele>1416</ele>
        <time>2010-01-13T05:33:27Z</time>
      </trkpt>
      <trkpt lat="45.97405" lon="6.47482">
        <ele>1413</ele>
        <time>2010-01-13T05:33:53Z</time>
      </trkpt>
      <trkpt lat="45.9746" lon="6.47358">
        <ele>1400</ele>
        <time>2010-01-13T05:34:44Z</time>
      </trkpt>
      <trkpt lat="45.97468" lon="6.47309">
        <ele>1400</ele>
        <time>2010-01-13T05:35:01Z</time>
      </trkpt>
      <trkpt lat="45.97457" lon="6.47231">
        <ele>1400</ele>
        <time>2010-01-13T05:35:29Z</time>
      </trkpt>
      <trkpt lat="45.97455" lon="6.47197">
        <ele>1399</ele>
        <time>2010-01-13T05:35:41Z</time>
      </trkpt>
      <trkpt lat="45.97488" lon="6.46974">
        <ele>1396</ele>
        <time>2010-01-13T05:36:01Z</time>
      </trkpt>
      <trkpt lat="45.97511" lon="6.4692">
        <ele>1384</ele>
        <time>2010-01-13T05:36:22Z</time>
      </trkpt>
      <trkpt lat="45.97509" lon="6.46873">
        <ele>1377</ele>
        <time>2010-01-13T05:36:39Z</time>
      </trkpt>
      <trkpt lat="45.97515" lon="6.46815">
        <ele>1373</ele>
        <time>2010-01-13T05:36:59Z</time>
      </trkpt>
      <trkpt lat="45.97509" lon="6.46731">
        <ele>1366</ele>
        <time>2010-01-13T05:37:29Z</time>
      </trkpt>
      <trkpt lat="45.97508" lon="6.46605">
        <ele>1353</ele>
        <time>2010-01-13T05:38:12Z</time>
      </trkpt>
      <trkpt lat="45.97514" lon="6.46546">
        <ele>1346</ele>
        <time>2010-01-13T05:38:33Z</time>
      </trkpt>
      <trkpt lat="45.97509" lon="6.46446">
        <ele>1338</ele>
        <time>2010-01-13T05:39:08Z</time>
      </trkpt>
      <trkpt lat="45.97506" lon="6.46308">
        <ele>1320</ele>
        <time>2010-01-13T05:39:56Z</time>
      </trkpt>
      <trkpt lat="45.97501" lon="6.46271">
        <ele>1317</ele>
        <time>2010-01-13T05:40:09Z</time>
      </trkpt>
      <trkpt lat="45.97472" lon="6.46197">
        <ele>1320</ele>
        <time>2010-01-13T05:40:39Z</time>
      </trkpt>
      <trkpt lat="45.97478" lon="6.46183">
        <ele>1318</ele>
        <time>2010-01-13T05:40:45Z</time>
      </trkpt>
      <trkpt lat="45.97536" lon="6.46228">
        <ele>1310</ele>
        <time>2010-01-13T05:41:18Z</time>
      </trkpt>
      <trkpt lat="45.97548" lon="6.46255">
        <ele>1314</ele>
        <time>2010-01-13T05:41:29Z</time>
      </trkpt>
      <trkpt lat="45.97565" lon="6.46251">
        <ele>1312</ele>
        <time>2010-01-13T05:41:38Z</time>
      </trkpt>
      <trkpt lat="45.97572" lon="6.46219">
        <ele>1308</ele>
        <time>2010-01-13T05:41:50Z</time>
      </trkpt>
      <trkpt lat="45.97561" lon="6.46126">
        <ele>1302</ele>
        <time>2010-01-13T05:42:22Z</time>
      </trkpt>
      <trkpt lat="45.97535" lon="6.46065">
        <ele>1298</ele>
        <time>2010-01-13T05:42:47Z</time>
      </trkpt>
      <trkpt lat="45.97555" lon="6.46037">
        <ele>1298</ele>
        <time>2010-01-13T05:43:01Z</time>
      </trkpt>
      <trkpt lat="45.97561" lon="6.46012">
        <ele>1298</ele>
        <time>2010-01-13T05:43:11Z</time>
      </trkpt>
      <trkpt lat="45.97557" lon="6.45956">
        <ele>1300</ele>
        <time>2010-01-13T05:43:30Z</time>
      </trkpt>
      <trkpt lat="45.97533" lon="6.45912">
        <ele>1302</ele>
        <time>2010-01-13T05:43:50Z</time>
      </trkpt>
      <trkpt lat="45.9753" lon="6.45889">
        <ele>1303</ele>
        <time>2010-01-13T05:43:58Z</time>
      </trkpt>
      <trkpt lat="45.9752" lon="6.45846">
        <ele>1303</ele>
        <time>2010-01-13T05:44:13Z</time>
      </trkpt>
      <trkpt lat="45.97516" lon="6.4585">
        <ele>1303</ele>
        <time>2010-01-13T06:00:00Z</time>
      </trkpt>
      <trkpt lat="45.97477" lon="6.45766">
        <ele>1298</ele>
        <time>2010-01-13T06:00:35Z</time>
      </trkpt>
      <trkpt lat="45.97456" lon="6.45721">
        <ele>1300</ele>
        <time>2010-01-13T06:00:54Z</time>
      </trkpt>
      <trkpt lat="45.97426" lon="6.45633">
        <ele>1302</ele>
        <time>2010-01-13T06:01:28Z</time>
      </trkpt>
      <trkpt lat="45.97409" lon="6.45578">
        <ele>1292</ele>
        <time>2010-01-13T06:01:49Z</time>
      </trkpt>
      <trkpt lat="45.97391" lon="6.45512">
        <ele>1289</ele>
        <time>2010-01-13T06:02:13Z</time>
      </trkpt>
      <trkpt lat="45.97391" lon="6.45499">
        <ele>1293</ele>
        <time>2010-01-13T06:02:18Z</time>
      </trkpt>
      <trkpt lat="45.97403" lon="6.4549">
        <ele>1296</ele>
        <time>2010-01-13T06:02:25Z</time>
      </trkpt>
      <trkpt lat="45.97404" lon="6.45466">
        <ele>1295</ele>
        <time>2010-01-13T06:02:33Z</time>
      </trkpt>
      <trkpt lat="45.97408" lon="6.4546">
        <ele>1296</ele>
        <time>2010-01-13T06:02:36Z</time>
      </trkpt>
      <trkpt lat="45.97432" lon="6.45489">
        <ele>1315</ele>
        <time>2010-01-13T06:02:51Z</time>
      </trkpt>
      <trkpt lat="45.97441" lon="6.45489">
        <ele>1319</ele>
        <time>2010-01-13T06:02:56Z</time>
      </trkpt>
      <trkpt lat="45.97458" lon="6.45514">
        <ele>1317</ele>
        <time>2010-01-13T06:03:08Z</time>
      </trkpt>
      <trkpt lat="45.97471" lon="6.45516">
        <ele>1321</ele>
        <time>2010-01-13T06:03:15Z</time>
      </trkpt>
      <trkpt lat="45.97465" lon="6.45485">
        <ele>1326</ele>
        <time>2010-01-13T06:03:26Z</time>
      </trkpt>
      <trkpt lat="45.97478" lon="6.45495">
        <ele>1330</ele>
        <time>2010-01-13T06:03:34Z</time>
      </trkpt>
      <trkpt lat="45.97469" lon="6.45441">
        <ele>1330</ele>
        <time>2010-01-13T06:03:53Z</time>
      </trkpt>
      <trkpt lat="45.97446" lon="6.45371">
        <ele>1334</ele>
        <time>2010-01-13T06:04:20Z</time>
      </trkpt>
      <trkpt lat="45.97444" lon="6.45301">
        <ele>1343</ele>
        <time>2010-01-13T06:04:44Z</time>
      </trkpt>
      <trkpt lat="45.97438" lon="6.45271">
        <ele>1343</ele>
        <time>2010-01-13T06:04:55Z</time>
      </trkpt>
      <trkpt lat="45.97449" lon="6.45238">
        <ele>1355</ele>
        <time>2010-01-13T06:05:08Z</time>
      </trkpt>
      <trkpt lat="45.97457" lon="6.45261">
        <ele>1349</ele>
        <time>2010-01-13T06:05:17Z</time>
      </trkpt>
      <trkpt lat="45.97459" lon="6.45202">
        <ele>1361</ele>
        <time>2010-01-13T06:05:38Z</time>
      </trkpt>
      <trkpt lat="45.97474" lon="6.45275">
        <ele>1353</ele>
        <time>2010-01-13T06:06:04Z</time>
      </trkpt>
      <trkpt lat="45.97477" lon="6.45254">
        <ele>1357</ele>
        <time>2010-01-13T06:06:12Z</time>
      </trkpt>
      <trkpt lat="45.975" lon="6.45284">
        <ele>1356</ele>
        <time>2010-01-13T06:06:27Z</time>
      </trkpt>
      <trkpt lat="45.97527" lon="6.45304">
        <ele>1381</ele>
        <time>2010-01-13T06:06:42Z</time>
      </trkpt>
      <trkpt lat="45.97527" lon="6.45292">
        <ele>1382</ele>
        <time>2010-01-13T06:06:46Z</time>
      </trkpt>
      <trkpt lat="45.97575" lon="6.4532">
        <ele>1392</ele>
        <time>2010-01-13T06:07:12Z</time>
      </trkpt>
      <trkpt lat="45.97572" lon="6.4531">
        <ele>1391</ele>
        <time>2010-01-13T06:07:16Z</time>
      </trkpt>
      <trkpt lat="45.97589" lon="6.45316">
        <ele>1407</ele>
        <time>2010-01-13T06:07:24Z</time>
      </trkpt>
      <trkpt lat="45.97578" lon="6.45298">
        <ele>1391</ele>
        <time>2010-01-13T06:07:33Z</time>
      </trkpt>
      <trkpt lat="45.97578" lon="6.45288">
        <ele>1392</ele>
        <time>2010-01-13T06:07:36Z</time>
      </trkpt>
      <trkpt lat="45.97557" lon="6.45252">
        <ele>1392</ele>
        <time>2010-01-13T06:07:52Z</time>
      </trkpt>
      <trkpt lat="45.97573" lon="6.45259">
        <ele>1398</ele>
        <time>2010-01-13T06:08:01Z</time>
      </trkpt>
      <trkpt lat="45.97557" lon="6.45236">
        <ele>1401</ele>
        <time>2010-01-13T06:08:12Z</time>
      </trkpt>
      <trkpt lat="45.97558" lon="6.45225">
        <ele>1401</ele>
        <time>2010-01-13T06:08:16Z</time>
      </trkpt>
      <trkpt lat="45.97536" lon="6.45168">
        <ele>1401</ele>
        <time>2010-01-13T06:08:38Z</time>
      </trkpt>
      <trkpt lat="45.9754" lon="6.45143">
        <ele>1414</ele>
        <time>2010-01-13T06:08:47Z</time>
      </trkpt>
      <trkpt lat="45.97548" lon="6.45144">
        <ele>1416</ele>
        <time>2010-01-13T06:08:52Z</time>
      </trkpt>
      <trkpt lat="45.97554" lon="6.4512">
        <ele>1419</ele>
        <time>2010-01-13T06:09:00Z</time>
      </trkpt>
      <trkpt lat="45.97545" lon="6.45117">
        <ele>1417</ele>
        <time>2010-01-13T06:09:05Z</time>
      </trkpt>
      <trkpt lat="45.9752" lon="6.45088">
        <ele>1411</ele>
        <time>2010-01-13T06:09:21Z</time>
      </trkpt>
      <trkpt lat="45.97509" lon="6.45056">
        <ele>1419</ele>
        <time>2010-01-13T06:09:33Z</time>
      </trkpt>
      <trkpt lat="45.97509" lon="6.45037">
        <ele>1421</ele>
        <time>2010-01-13T06:09:40Z</time>
      </trkpt>
      <trkpt lat="45.97514" lon="6.45046">
        <ele>1422</ele>
        <time>2010-01-13T06:09:44Z</time>
      </trkpt>
      <trkpt lat="45.97529" lon="6.4505">
        <ele>1425</ele>
        <time>2010-01-13T06:09:52Z</time>
      </trkpt>
      <trkpt lat="45.97519" lon="6.4503">
        <ele>1423</ele>
        <time>2010-01-13T06:10:00Z</time>
      </trkpt>
      <trkpt lat="45.97508" lon="6.44986">
        <ele>1423</ele>
        <time>2010-01-13T06:10:16Z</time>
      </trkpt>
      <trkpt lat="45.97495" lon="6.44966">
        <ele>1401</ele>
        <time>2010-01-13T06:10:26Z</time>
      </trkpt>
      <trkpt lat="45.9749" lon="6.44948">
        <ele>1403</ele>
        <time>2010-01-13T06:10:32Z</time>
      </trkpt>
      <trkpt lat="45.97486" lon="6.44895">
        <ele>1417</ele>
        <time>2010-01-13T06:10:51Z</time>
      </trkpt>
      <trkpt lat="45.97508" lon="6.44917">
        <ele>1428</ele>
        <time>2010-01-13T06:11:05Z</time>
      </trkpt>
      <trkpt lat="45.97499" lon="6.44844">
        <ele>1437</ele>
        <time>2010-01-13T06:11:30Z</time>
      </trkpt>
      <trkpt lat="45.9749" lon="6.44815">
        <ele>1441</ele>
        <time>2010-01-13T06:11:42Z</time>
      </trkpt>
      <trkpt lat="45.97487" lon="6.44794">
        <ele>1440</ele>
        <time>2010-01-13T06:11:49Z</time>
      </trkpt>
      <trkpt lat="45.97496" lon="6.44765">
        <ele>1453</ele>
        <time>2010-01-13T06:12:00Z</time>
      </trkpt>
      <trkpt lat="45.97514" lon="6.44743">
        <ele>1479</ele>
        <time>2010-01-13T06:12:12Z</time>
      </trkpt>
      <trkpt lat="45.97504" lon="6.44721">
        <ele>1482</ele>
        <time>2010-01-13T06:12:21Z</time>
      </trkpt>
      <trkpt lat="45.97499" lon="6.44698">
        <ele>1459</ele>
        <time>2010-01-13T06:12:30Z</time>
      </trkpt>
      <trkpt lat="45.97511" lon="6.44649">
        <ele>1488</ele>
        <time>2010-01-13T06:12:48Z</time>
      </trkpt>
      <trkpt lat="45.97504" lon="6.44636">
        <ele>1489</ele>
        <time>2010-01-13T06:12:53Z</time>
      </trkpt>
      <trkpt lat="45.97517" lon="6.44622">
        <ele>1491</ele>
        <time>2010-01-13T06:13:02Z</time>
      </trkpt>
      <trkpt lat="45.97506" lon="6.44579">
        <ele>1492</ele>
        <time>2010-01-13T06:13:18Z</time>
      </trkpt>
      <trkpt lat="45.97496" lon="6.44557">
        <ele>1483</ele>
        <time>2010-01-13T06:13:27Z</time>
      </trkpt>
      <trkpt lat="45.97495" lon="6.44526">
        <ele>1488</ele>
        <time>2010-01-13T06:13:37Z</time>
      </trkpt>
      <trkpt lat="45.97501" lon="6.44513">
        <ele>1505</ele>
        <time>2010-01-13T06:13:43Z</time>
      </trkpt>
      <trkpt lat="45.97549" lon="6.44472">
        <ele>1517</ele>
        <time>2010-01-13T06:14:11Z</time>
      </trkpt>
      <trkpt lat="45.97608" lon="6.44466">
        <ele>1524</ele>
        <time>2010-01-13T06:14:40Z</time>
      </trkpt>
      <trkpt lat="45.97608" lon="6.44458">
        <ele>1524</ele>
        <time>2010-01-13T06:14:43Z</time>
      </trkpt>
      <trkpt lat="45.97602" lon="6.44446">
        <ele>1525</ele>
        <time>2010-01-13T06:14:48Z</time>
      </trkpt>
      <trkpt lat="45.97599" lon="6.4443">
        <ele>1525</ele>
        <time>2010-01-13T06:14:54Z</time>
      </trkpt>
      <trkpt lat="45.97601" lon="6.44409">
        <ele>1529</ele>
        <time>2010-01-13T06:15:02Z</time>
      </trkpt>
      <trkpt lat="45.9762" lon="6.44431">
        <ele>1526</ele>
        <time>2010-01-13T06:15:13Z</time>
      </trkpt>
      <trkpt lat="45.9766" lon="6.44447">
        <ele>1527</ele>
        <time>2010-01-13T06:15:35Z</time>
      </trkpt>
      <trkpt lat="45.9771" lon="6.44443">
        <ele>1533</ele>
        <time>2010-01-13T06:15:59Z</time>
      </trkpt>
      <trkpt lat="45.97765" lon="6.44443">
        <ele>1539</ele>
        <time>2010-01-13T06:16:27Z</time>
      </trkpt>
      <trkpt lat="45.97782" lon="6.44441">
        <ele>1539</ele>
        <time>2010-01-13T06:16:36Z</time>
      </trkpt>
      <trkpt lat="45.9782" lon="6.44401">
        <ele>1548</ele>
        <time>2010-01-13T06:16:59Z</time>
      </trkpt>
      <trkpt lat="45.9783" lon="6.44371">
        <ele>1554</ele>
        <time>2010-01-13T06:17:11Z</time>
      </trkpt>
      <trkpt lat="45.97842" lon="6.44377">
        <ele>1564</ele>
        <time>2010-01-13T06:17:17Z</time>
      </trkpt>
      <trkpt lat="45.97858" lon="6.44406">
        <ele>1560</ele>
        <time>2010-01-13T06:17:30Z</time>
      </trkpt>
      <trkpt lat="45.97881" lon="6.44425">
        <ele>1551</ele>
        <time>2010-01-13T06:17:43Z</time>
      </trkpt>
      <trkpt lat="45.97908" lon="6.44454">
        <ele>1552</ele>
        <time>2010-01-13T06:18:00Z</time>
      </trkpt>
      <trkpt lat="45.97919" lon="6.44466">
        <ele>1561</ele>
        <time>2010-01-13T06:18:07Z</time>
      </trkpt>
      <trkpt lat="45.97937" lon="6.44459">
        <ele>1564</ele>
        <time>2010-01-13T06:18:17Z</time>
      </trkpt>
      <trkpt lat="45.97952" lon="6.44481">
        <ele>1563</ele>
        <time>2010-01-13T06:18:27Z</time>
      </trkpt>
      <trkpt lat="45.97992" lon="6.44494">
        <ele>1565</ele>
        <time>2010-01-13T06:18:48Z</time>
      </trkpt>
      <trkpt lat="45.98029" lon="6.44491">
        <ele>1576</ele>
        <time>2010-01-13T06:19:07Z</time>
      </trkpt>
      <trkpt lat="45.98037" lon="6.44472">
        <ele>1579</ele>
        <time>2010-01-13T06:19:14Z</time>
      </trkpt>
      <trkpt lat="45.98048" lon="6.44476">
        <ele>1580</ele>
        <time>2010-01-13T06:19:20Z</time>
      </trkpt>
      <trkpt lat="45.98047" lon="6.44463">
        <ele>1581</ele>
        <time>2010-01-13T06:19:24Z</time>
      </trkpt>
      <trkpt lat="45.98056" lon="6.4446">
        <ele>1582</ele>
        <time>2010-01-13T06:19:29Z</time>
      </trkpt>
      <trkpt lat="45.98071" lon="6.4438">
        <ele>1601</ele>
        <time>2010-01-13T06:19:58Z</time>
      </trkpt>
      <trkpt lat="45.98071" lon="6.44348">
        <ele>1606</ele>
        <time>2010-01-13T06:20:09Z</time>
      </trkpt>
      <trkpt lat="45.98071" lon="6.44313">
        <ele>1618</ele>
        <time>2010-01-13T06:20:21Z</time>
      </trkpt>
      <trkpt lat="45.98072" lon="6.44293">
        <ele>1621</ele>
        <time>2010-01-13T06:20:28Z</time>
      </trkpt>
      <trkpt lat="45.9808" lon="6.44283">
        <ele>1623</ele>
        <time>2010-01-13T06:20:33Z</time>
      </trkpt>
      <trkpt lat="45.98079" lon="6.44245">
        <ele>1634</ele>
        <time>2010-01-13T06:20:47Z</time>
      </trkpt>
      <trkpt lat="45.98072" lon="6.4422">
        <ele>1640</ele>
        <time>2010-01-13T06:20:56Z</time>
      </trkpt>
      <trkpt lat="45.98048" lon="6.44194">
        <ele>1644</ele>
        <time>2010-01-13T06:21:11Z</time>
      </trkpt>
      <trkpt lat="45.98041" lon="6.44194">
        <ele>1644</ele>
        <time>2010-01-13T06:21:14Z</time>
      </trkpt>
      <trkpt lat="45.98024" lon="6.4418">
        <ele>1645</ele>
        <time>2010-01-13T06:21:24Z</time>
      </trkpt>
      <trkpt lat="45.98016" lon="6.44172">
        <ele>1646</ele>
        <time>2010-01-13T06:21:29Z</time>
      </trkpt>
      <trkpt lat="45.98008" lon="6.44168">
        <ele>1647</ele>
        <time>2010-01-13T06:21:33Z</time>
      </trkpt>
      <trkpt lat="45.97998" lon="6.44175">
        <ele>1646</ele>
        <time>2010-01-13T06:21:39Z</time>
      </trkpt>
      <trkpt lat="45.97995" lon="6.44182">
        <ele>1644</ele>
        <time>2010-01-13T06:21:42Z</time>
      </trkpt>
      <trkpt lat="45.9799" lon="6.44181">
        <ele>1644</ele>
        <time>2010-01-13T06:21:44Z</time>
      </trkpt>
      <trkpt lat="45.97968" lon="6.44163">
        <ele>1657</ele>
        <time>2010-01-13T06:21:57Z</time>
      </trkpt>
      <trkpt lat="45.97945" lon="6.4416">
        <ele>1657</ele>
        <time>2010-01-13T06:22:08Z</time>
      </trkpt>
      <trkpt lat="45.97969" lon="6.44134">
        <ele>1661</ele>
        <time>2010-01-13T06:22:23Z</time>
      </trkpt>
      <trkpt lat="45.97943" lon="6.44121">
        <ele>1663</ele>
        <time>2010-01-13T06:22:36Z</time>
      </trkpt>
      <trkpt lat="45.97942" lon="6.44098">
        <ele>1666</ele>
        <time>2010-01-13T06:22:44Z</time>
      </trkpt>
      <trkpt lat="45.97954" lon="6.44106">
        <ele>1665</ele>
        <time>2010-01-13T06:22:51Z</time>
      </trkpt>
      <trkpt lat="45.97972" lon="6.44092">
        <ele>1667</ele>
        <time>2010-01-13T06:23:01Z</time>
      </trkpt>
      <trkpt lat="45.97963" lon="6.44067">
        <ele>1684</ele>
        <time>2010-01-13T06:23:11Z</time>
      </trkpt>
      <trkpt lat="45.97959" lon="6.44043">
        <ele>1688</ele>
        <time>2010-01-13T06:23:19Z</time>
      </trkpt>
      <trkpt lat="45.97955" lon="6.44013">
        <ele>1692</ele>
        <time>2010-01-13T06:23:30Z</time>
      </trkpt>
      <trkpt lat="45.97985" lon="6.43985">
        <ele>1706</ele>
        <time>2010-01-13T06:23:48Z</time>
      </trkpt>
      <trkpt lat="45.97971" lon="6.43973">
        <ele>1709</ele>
        <time>2010-01-13T06:23:56Z</time>
      </trkpt>
      <trkpt lat="45.97981" lon="6.43961">
        <ele>1711</ele>
        <time>2010-01-13T06:24:03Z</time>
      </trkpt>
      <trkpt lat="45.97981" lon="6.43946">
        <ele>1713</ele>
        <time>2010-01-13T06:24:08Z</time>
      </trkpt>
      <trkpt lat="45.97975" lon="6.43943">
        <ele>1714</ele>
        <time>2010-01-13T06:24:11Z</time>
      </trkpt>
      <trkpt lat="45.97973" lon="6.43929">
        <ele>1715</ele>
        <time>2010-01-13T06:24:16Z</time>
      </trkpt>
      <trkpt lat="45.97979" lon="6.43922">
        <ele>1717</ele>
        <time>2010-01-13T06:24:20Z</time>
      </trkpt>
      <trkpt lat="45.97964" lon="6.43908">
        <ele>1728</ele>
        <time>2010-01-13T06:24:28Z</time>
      </trkpt>
      <trkpt lat="45.97948" lon="6.43891">
        <ele>1728</ele>
        <time>2010-01-13T06:24:38Z</time>
      </trkpt>
      <trkpt lat="45.97975" lon="6.43889">
        <ele>1730</ele>
        <time>2010-01-13T06:24:52Z</time>
      </trkpt>
      <trkpt lat="45.97988" lon="6.43874">
        <ele>1732</ele>
        <time>2010-01-13T06:25:00Z</time>
      </trkpt>
      <trkpt lat="45.9797" lon="6.43856">
        <ele>1734</ele>
        <time>2010-01-13T06:25:11Z</time>
      </trkpt>
      <trkpt lat="45.97996" lon="6.43817">
        <ele>1748</ele>
        <time>2010-01-13T06:25:30Z</time>
      </trkpt>
      <trkpt lat="45.97981" lon="6.43804">
        <ele>1749</ele>
        <time>2010-01-13T06:25:39Z</time>
      </trkpt>
      <trkpt lat="45.97968" lon="6.43752">
        <ele>1754</ele>
        <time>2010-01-13T06:25:58Z</time>
      </trkpt>
      <trkpt lat="45.97964" lon="6.43732">
        <ele>1764</ele>
        <time>2010-01-13T06:26:05Z</time>
      </trkpt>
      <trkpt lat="45.97957" lon="6.437">
        <ele>1766</ele>
        <time>2010-01-13T06:26:17Z</time>
      </trkpt>
      <trkpt lat="45.9796" lon="6.43682">
        <ele>1768</ele>
        <time>2010-01-13T06:26:23Z</time>
      </trkpt>
      <trkpt lat="45.97956" lon="6.43614">
        <ele>1786</ele>
        <time>2010-01-13T06:26:47Z</time>
      </trkpt>
      <trkpt lat="45.97974" lon="6.43607">
        <ele>1789</ele>
        <time>2010-01-13T06:26:57Z</time>
      </trkpt>
      <trkpt lat="45.97987" lon="6.43614">
        <ele>1789</ele>
        <time>2010-01-13T06:27:04Z</time>
      </trkpt>
      <trkpt lat="45.9796" lon="6.43576">
        <ele>1806</ele>
        <time>2010-01-13T06:27:23Z</time>
      </trkpt>
      <trkpt lat="45.9795" lon="6.43569">
        <ele>1806</ele>
        <time>2010-01-13T06:27:29Z</time>
      </trkpt>
      <trkpt lat="45.97941" lon="6.43558">
        <ele>1807</ele>
        <time>2010-01-13T06:27:34Z</time>
      </trkpt>
      <trkpt lat="45.97931" lon="6.43553">
        <ele>1806</ele>
        <time>2010-01-13T06:27:40Z</time>
      </trkpt>
      <trkpt lat="45.97935" lon="6.43531">
        <ele>1811</ele>
        <time>2010-01-13T06:27:47Z</time>
      </trkpt>
      <trkpt lat="45.97934" lon="6.43519">
        <ele>1813</ele>
        <time>2010-01-13T06:27:52Z</time>
      </trkpt>
      <trkpt lat="45.97944" lon="6.43512">
        <ele>1815</ele>
        <time>2010-01-13T06:27:57Z</time>
      </trkpt>
      <trkpt lat="45.97922" lon="6.43466">
        <ele>1833</ele>
        <time>2010-01-13T06:28:17Z</time>
      </trkpt>
      <trkpt lat="45.97918" lon="6.43442">
        <ele>1837</ele>
        <time>2010-01-13T06:28:25Z</time>
      </trkpt>
      <trkpt lat="45.97909" lon="6.43424">
        <ele>1829</ele>
        <time>2010-01-13T06:28:33Z</time>
      </trkpt>
      <trkpt lat="45.97898" lon="6.43363">
        <ele>1843</ele>
        <time>2010-01-13T06:28:55Z</time>
      </trkpt>
      <trkpt lat="45.97887" lon="6.43299">
        <ele>1857</ele>
        <time>2010-01-13T06:29:18Z</time>
      </trkpt>
      <trkpt lat="45.97883" lon="6.43268">
        <ele>1861</ele>
        <time>2010-01-13T06:29:29Z</time>
      </trkpt>
      <trkpt lat="45.97865" lon="6.43222">
        <ele>1875</ele>
        <time>2010-01-13T06:29:47Z</time>
      </trkpt>
      <trkpt lat="45.97844" lon="6.43198">
        <ele>1878</ele>
        <time>2010-01-13T06:30:01Z</time>
      </trkpt>
      <trkpt lat="45.97834" lon="6.43196">
        <ele>1877</ele>
        <time>2010-01-13T06:30:06Z</time>
      </trkpt>
      <trkpt lat="45.97843" lon="6.43182">
        <ele>1880</ele>
        <time>2010-01-13T06:30:13Z</time>
      </trkpt>
      <trkpt lat="45.97854" lon="6.43178">
        <ele>1880</ele>
        <time>2010-01-13T06:30:18Z</time>
      </trkpt>
      <trkpt lat="45.97844" lon="6.43167">
        <ele>1881</ele>
        <time>2010-01-13T06:30:24Z</time>
      </trkpt>
      <trkpt lat="45.97835" lon="6.4317">
        <ele>1881</ele>
        <time>2010-01-13T06:30:29Z</time>
      </trkpt>
      <trkpt lat="45.97823" lon="6.43147">
        <ele>1875</ele>
        <time>2010-01-13T06:30:39Z</time>
      </trkpt>
      <trkpt lat="45.97837" lon="6.43129">
        <ele>1881</ele>
        <time>2010-01-13T06:30:48Z</time>
      </trkpt>
      <trkpt lat="45.97849" lon="6.43133">
        <ele>1882</ele>
        <time>2010-01-13T06:30:54Z</time>
      </trkpt>
      <trkpt lat="45.97871" lon="6.4313">
        <ele>1885</ele>
        <time>2010-01-13T06:31:05Z</time>
      </trkpt>
      <trkpt lat="45.97892" lon="6.43124">
        <ele>1886</ele>
        <time>2010-01-13T06:31:16Z</time>
      </trkpt>
      <trkpt lat="45.97908" lon="6.43134">
        <ele>1889</ele>
        <time>2010-01-13T06:31:25Z</time>
      </trkpt>
      <trkpt lat="45.97933" lon="6.43147">
        <ele>1903</ele>
        <time>2010-01-13T06:31:38Z</time>
      </trkpt>
      <trkpt lat="45.97946" lon="6.43144">
        <ele>1904</ele>
        <time>2010-01-13T06:31:44Z</time>
      </trkpt>
      <trkpt lat="45.97967" lon="6.43156">
        <ele>1909</ele>
        <time>2010-01-13T06:31:56Z</time>
      </trkpt>
      <trkpt lat="45.97973" lon="6.43164">
        <ele>1912</ele>
        <time>2010-01-13T06:32:00Z</time>
      </trkpt>
      <trkpt lat="45.98001" lon="6.43184">
        <ele>1934</ele>
        <time>2010-01-13T06:32:15Z</time>
      </trkpt>
      <trkpt lat="45.98028" lon="6.43212">
        <ele>1940</ele>
        <time>2010-01-13T06:32:32Z</time>
      </trkpt>
      <trkpt lat="45.98065" lon="6.43246">
        <ele>1953</ele>
        <time>2010-01-13T06:32:54Z</time>
      </trkpt>
      <trkpt lat="45.9808" lon="6.43247">
        <ele>1963</ele>
        <time>2010-01-13T06:33:02Z</time>
      </trkpt>
      <trkpt lat="45.98112" lon="6.43291">
        <ele>1973</ele>
        <time>2010-01-13T06:33:24Z</time>
      </trkpt>
      <trkpt lat="45.98148" lon="6.43321">
        <ele>1979</ele>
        <time>2010-01-13T06:33:45Z</time>
      </trkpt>
      <trkpt lat="45.98159" lon="6.43336">
        <ele>1975</ele>
        <time>2010-01-13T06:33:53Z</time>
      </trkpt>
      <trkpt lat="45.98206" lon="6.43418">
        <ele>1933</ele>
        <time>2010-01-13T06:34:29Z</time>
      </trkpt>
      <trkpt lat="45.98219" lon="6.43448">
        <ele>1931</ele>
        <time>2010-01-13T06:34:42Z</time>
      </trkpt>
      <trkpt lat="45.98231" lon="6.43454">
        <ele>1931</ele>
        <time>2010-01-13T06:34:48Z</time>
      </trkpt>
      <trkpt lat="45.98268" lon="6.43576">
        <ele>1915</ele>
        <time>2010-01-13T06:35:34Z</time>
      </trkpt>
      <trkpt lat="45.98272" lon="6.43609">
        <ele>1909</ele>
        <time>2010-01-13T06:35:46Z</time>
      </trkpt>
      <trkpt lat="45.98305" lon="6.43712">
        <ele>1896</ele>
        <time>2010-01-13T06:36:26Z</time>
      </trkpt>
      <trkpt lat="45.98332" lon="6.43772">
        <ele>1892</ele>
        <time>2010-01-13T06:36:50Z</time>
      </trkpt>
      <trkpt lat="45.98334" lon="6.43807">
        <ele>1887</ele>
        <time>2010-01-13T06:37:03Z</time>
      </trkpt>
      <trkpt lat="45.98351" lon="6.43827">
        <ele>1887</ele>
        <time>2010-01-13T06:37:14Z</time>
      </trkpt>
      <trkpt lat="45.98351" lon="6.43843">
        <ele>1889</ele>
        <time>2010-01-13T06:37:19Z</time>
      </trkpt>
      <trkpt lat="45.98373" lon="6.43881">
        <ele>1885</ele>
        <time>2010-01-13T06:37:36Z</time>
      </trkpt>
      <trkpt lat="45.98405" lon="6.43853">
        <ele>1881</ele>
        <time>2010-01-13T06:37:55Z</time>
      </trkpt>
      <trkpt lat="45.98447" lon="6.43846">
        <ele>1869</ele>
        <time>2010-01-13T06:38:17Z</time>
      </trkpt>
      <trkpt lat="45.98483" lon="6.43855">
        <ele>1862</ele>
        <time>2010-01-13T06:38:35Z</time>
      </trkpt>
      <trkpt lat="45.98521" lon="6.43899">
        <ele>1847</ele>
        <time>2010-01-13T06:38:59Z</time>
      </trkpt>
      <trkpt lat="45.98528" lon="6.43913">
        <ele>1846</ele>
        <time>2010-01-13T06:39:05Z</time>
      </trkpt>
      <trkpt lat="45.98554" lon="6.43924">
        <ele>1841</ele>
        <time>2010-01-13T06:39:19Z</time>
      </trkpt>
      <trkpt lat="45.98569" lon="6.43953">
        <ele>1840</ele>
        <time>2010-01-13T06:39:31Z</time>
      </trkpt>
      <trkpt lat="45.98587" lon="6.43962">
        <ele>1809</ele>
        <time>2010-01-13T06:39:41Z</time>
      </trkpt>
      <trkpt lat="45.98598" lon="6.43976">
        <ele>1809</ele>
        <time>2010-01-13T06:39:48Z</time>
      </trkpt>
      <trkpt lat="45.98598" lon="6.44003">
        <ele>1816</ele>
        <time>2010-01-13T06:39:57Z</time>
      </trkpt>
      <trkpt lat="45.98626" lon="6.44056">
        <ele>1806</ele>
        <time>2010-01-13T06:40:21Z</time>
      </trkpt>
      <trkpt lat="45.9865" lon="6.4414">
        <ele>1813</ele>
        <time>2010-01-13T06:40:52Z</time>
      </trkpt>
      <trkpt lat="45.98666" lon="6.44159">
        <ele>1807</ele>
        <time>2010-01-13T06:41:03Z</time>
      </trkpt>
      <trkpt lat="45.98713" lon="6.44176">
        <ele>1798</ele>
        <time>2010-01-13T06:41:27Z</time>
      </trkpt>
      <trkpt lat="45.98753" lon="6.44203">
        <ele>1786</ele>
        <time>2010-01-13T06:41:49Z</time>
      </trkpt>
      <trkpt lat="45.98777" lon="6.44203">
        <ele>1786</ele>
        <time>2010-01-13T06:42:01Z</time>
      </trkpt>
      <trkpt lat="45.98847" lon="6.44161">
        <ele>1759</ele>
        <time>2010-01-13T06:42:39Z</time>
      </trkpt>
      <trkpt lat="45.98889" lon="6.4412">
        <ele>1752</ele>
        <time>2010-01-13T06:43:04Z</time>
      </trkpt>
      <trkpt lat="45.98909" lon="6.44035">
        <ele>1746</ele>
        <time>2010-01-13T06:43:36Z</time>
      </trkpt>
      <trkpt lat="45.98909" lon="6.4396">
        <ele>1750</ele>
        <time>2010-01-13T06:44:02Z</time>
      </trkpt>
      <trkpt lat="45.98937" lon="6.4394">
        <ele>1763</ele>
        <time>2010-01-13T06:44:17Z</time>
      </trkpt>
      <trkpt lat="45.9897" lon="6.43957">
        <ele>1765</ele>
        <time>2010-01-13T06:44:35Z</time>
      </trkpt>
      <trkpt lat="45.99006" lon="6.43993">
        <ele>1769</ele>
        <time>2010-01-13T06:44:57Z</time>
      </trkpt>
      <trkpt lat="45.99003" lon="6.43998">
        <ele>1768</ele>
        <time>2010-01-13T07:00:00Z</time>
      </trkpt>
      <trkpt lat="45.99075" lon="6.44051">
        <ele>1768</ele>
        <time>2010-01-13T07:00:40Z</time>
      </trkpt>
      <trkpt lat="45.9915" lon="6.44152">
        <ele>1769</ele>
        <time>2010-01-13T07:01:31Z</time>
      </trkpt>
      <trkpt lat="45.99179" lon="6.44156">
        <ele>1771</ele>
        <time>2010-01-13T07:01:46Z</time>
      </trkpt>
      <trkpt lat="45.9921" lon="6.44202">
        <ele>1785</ele>
        <time>2010-01-13T07:02:08Z</time>
      </trkpt>
      <trkpt lat="45.99226" lon="6.44225">
        <ele>1788</ele>
        <time>2010-01-13T07:02:20Z</time>
      </trkpt>
      <trkpt lat="45.99248" lon="6.44216">
        <ele>1788</ele>
        <time>2010-01-13T07:02:31Z</time>
      </trkpt>
      <trkpt lat="45.99304" lon="6.44243">
        <ele>1798</ele>
        <time>2010-01-13T07:03:01Z</time>
      </trkpt>
      <trkpt lat="45.99358" lon="6.44249">
        <ele>1804</ele>
        <time>2010-01-13T07:03:28Z</time>
      </trkpt>
      <trkpt lat="45.99393" lon="6.44275">
        <ele>1815</ele>
        <time>2010-01-13T07:03:48Z</time>
      </trkpt>
      <trkpt lat="45.99461" lon="6.443">
        <ele>1825</ele>
        <time>2010-01-13T07:04:23Z</time>
      </trkpt>
      <trkpt lat="45.99477" lon="6.44318">
        <ele>1829</ele>
        <time>2010-01-13T07:04:33Z</time>
      </trkpt>
      <trkpt lat="45.99533" lon="6.44332">
        <ele>1838</ele>
        <time>2010-01-13T07:05:01Z</time>
      </trkpt>
      <trkpt lat="45.9955" lon="6.44357">
        <ele>1858</ele>
        <time>2010-01-13T07:05:13Z</time>
      </trkpt>
      <trkpt lat="45.99599" lon="6.44363">
        <ele>1864</ele>
        <time>2010-01-13T07:05:38Z</time>
      </trkpt>
      <trkpt lat="45.99669" lon="6.44404">
        <ele>1877</ele>
        <time>2010-01-13T07:06:16Z</time>
      </trkpt>
      <trkpt lat="45.9973" lon="6.4442">
        <ele>1892</ele>
        <time>2010-01-13T07:06:47Z</time>
      </trkpt>
      <trkpt lat="45.99769" lon="6.44431">
        <ele>1902</ele>
        <time>2010-01-13T07:07:07Z</time>
      </trkpt>
      <trkpt lat="45.99818" lon="6.44474">
        <ele>1919</ele>
        <time>2010-01-13T07:07:35Z</time>
      </trkpt>
      <trkpt lat="45.99804" lon="6.44535">
        <ele>1946</ele>
        <time>2010-01-13T07:07:58Z</time>
      </trkpt>
      <trkpt lat="45.99844" lon="6.44506">
        <ele>1932</ele>
        <time>2010-01-13T07:08:20Z</time>
      </trkpt>
      <trkpt lat="45.99854" lon="6.44477">
        <ele>1925</ele>
        <time>2010-01-13T07:08:31Z</time>
      </trkpt>
      <trkpt lat="45.99876" lon="6.44463">
        <ele>1922</ele>
        <time>2010-01-13T07:08:43Z</time>
      </trkpt>
      <trkpt lat="45.99882" lon="6.44514">
        <ele>1921</ele>
        <time>2010-01-13T07:09:01Z</time>
      </trkpt>
      <trkpt lat="45.9988" lon="6.44548">
        <ele>1924</ele>
        <time>2010-01-13T07:09:13Z</time>
      </trkpt>
      <trkpt lat="45.99889" lon="6.4456">
        <ele>1920</ele>
        <time>2010-01-13T07:09:19Z</time>
      </trkpt>
      <trkpt lat="45.99889" lon="6.44606">
        <ele>1927</ele>
        <time>2010-01-13T07:09:35Z</time>
      </trkpt>
      <trkpt lat="45.99907" lon="6.44653">
        <ele>1921</ele>
        <time>2010-01-13T07:09:54Z</time>
      </trkpt>
      <trkpt lat="45.99922" lon="6.44686">
        <ele>1903</ele>
        <time>2010-01-13T07:10:08Z</time>
      </trkpt>
      <trkpt lat="45.9998" lon="6.44729">
        <ele>1889</ele>
        <time>2010-01-13T07:10:41Z</time>
      </trkpt>
      <trkpt lat="46.0001" lon="6.44773">
        <ele>1877</ele>
        <time>2010-01-13T07:11:02Z</time>
      </trkpt>
      <trkpt lat="46.00048" lon="6.44784">
        <ele>1875</ele>
        <time>2010-01-13T07:11:21Z</time>
      </trkpt>
      <trkpt lat="46.00107" lon="6.44832">
        <ele>1871</ele>
        <time>2010-01-13T07:11:55Z</time>
      </trkpt>
      <trkpt lat="46.0017" lon="6.44845">
        <ele>1871</ele>
        <time>2010-01-13T07:12:27Z</time>
      </trkpt>
      <trkpt lat="46.0024" lon="6.44902">
        <ele>1873</ele>
        <time>2010-01-13T07:13:08Z</time>
      </trkpt>
      <trkpt lat="46.00311" lon="6.44925">
        <ele>1875</ele>
        <time>2010-01-13T07:13:44Z</time>
      </trkpt>
      <trkpt lat="46.00418" lon="6.4491">
        <ele>1861</ele>
        <time>2010-01-13T07:14:38Z</time>
      </trkpt>
      <trkpt lat="46.00451" lon="6.4488">
        <ele>1851</ele>
        <time>2010-01-13T07:14:58Z</time>
      </trkpt>
      <trkpt lat="46.00473" lon="6.4489">
        <ele>1847</ele>
        <time>2010-01-13T07:15:09Z</time>
      </trkpt>
      <trkpt lat="46.00494" lon="6.44876">
        <ele>1844</ele>
        <time>2010-01-13T07:15:21Z</time>
      </trkpt>
      <trkpt lat="46.00527" lon="6.44872">
        <ele>1829</ele>
        <time>2010-01-13T07:15:37Z</time>
      </trkpt>
      <trkpt lat="46.00576" lon="6.44756">
        <ele>1816</ele>
        <time>2010-01-13T07:16:24Z</time>
      </trkpt>
      <trkpt lat="46.00584" lon="6.4473">
        <ele>1796</ele>
        <time>2010-01-13T07:16:34Z</time>
      </trkpt>
      <trkpt lat="46.00611" lon="6.44733">
        <ele>1788</ele>
        <time>2010-01-13T07:16:48Z</time>
      </trkpt>
      <trkpt lat="46.00621" lon="6.44754">
        <ele>1797</ele>
        <time>2010-01-13T07:16:57Z</time>
      </trkpt>
      <trkpt lat="46.00629" lon="6.44734">
        <ele>1781</ele>
        <time>2010-01-13T07:17:04Z</time>
      </trkpt>
      <trkpt lat="46.00646" lon="6.44738">
        <ele>1775</ele>
        <time>2010-01-13T07:17:13Z</time>
      </trkpt>
      <trkpt lat="46.0063" lon="6.44681">
        <ele>1773</ele>
        <time>2010-01-13T07:17:35Z</time>
      </trkpt>
      <trkpt lat="46.00647" lon="6.4469">
        <ele>1767</ele>
        <time>2010-01-13T07:17:44Z</time>
      </trkpt>
      <trkpt lat="46.00659" lon="6.44705">
        <ele>1769</ele>
        <time>2010-01-13T07:17:52Z</time>
      </trkpt>
      <trkpt lat="46.00663" lon="6.44725">
        <ele>1772</ele>
        <time>2010-01-13T07:17:59Z</time>
      </trkpt>
      <trkpt lat="46.00688" lon="6.44764">
        <ele>1760</ele>
        <time>2010-01-13T07:18:18Z</time>
      </trkpt>
      <trkpt lat="46.007" lon="6.448">
        <ele>1761</ele>
        <time>2010-01-13T07:18:31Z</time>
      </trkpt>
      <trkpt lat="46.00742" lon="6.44844">
        <ele>1762</ele>
        <time>2010-01-13T07:18:58Z</time>
      </trkpt>
      <trkpt lat="46.0081" lon="6.44867">
        <ele>1750</ele>
        <time>2010-01-13T07:19:32Z</time>
      </trkpt>
      <trkpt lat="46.00861" lon="6.44829">
        <ele>1733</ele>
        <time>2010-01-13T07:20:01Z</time>
      </trkpt>
      <trkpt lat="46.009" lon="6.44774">
        <ele>1735</ele>
        <time>2010-01-13T07:20:28Z</time>
      </trkpt>
      <trkpt lat="46.00947" lon="6.44696">
        <ele>1737</ele>
        <time>2010-01-13T07:21:04Z</time>
      </trkpt>
      <trkpt lat="46.00995" lon="6.44639">
        <ele>1732</ele>
        <time>2010-01-13T07:21:36Z</time>
      </trkpt>
      <trkpt lat="46.0107" lon="6.44623">
        <ele>1742</ele>
        <time>2010-01-13T07:22:13Z</time>
      </trkpt>
      <trkpt lat="46.01134" lon="6.4463">
        <ele>1741</ele>
        <time>2010-01-13T07:22:46Z</time>
      </trkpt>
      <trkpt lat="46.01305" lon="6.44699">
        <ele>1734</ele>
        <time>2010-01-13T07:23:15Z</time>
      </trkpt>
      <trkpt lat="46.0133" lon="6.44719">
        <ele>1734</ele>
        <time>2010-01-13T07:23:29Z</time>
      </trkpt>
      <trkpt lat="46.01427" lon="6.44714">
        <ele>1726</ele>
        <time>2010-01-13T07:24:18Z</time>
      </trkpt>
      <trkpt lat="46.01458" lon="6.44737">
        <ele>1726</ele>
        <time>2010-01-13T07:24:35Z</time>
      </trkpt>
      <trkpt lat="46.0153" lon="6.44764">
        <ele>1726</ele>
        <time>2010-01-13T07:25:13Z</time>
      </trkpt>
      <trkpt lat="46.01664" lon="6.4491">
        <ele>1726</ele>
        <time>2010-01-13T07:25:37Z</time>
      </trkpt>
      <trkpt lat="46.01879" lon="6.44902">
        <ele>1722</ele>
        <time>2010-01-13T07:26:24Z</time>
      </trkpt>
      <trkpt lat="46.01945" lon="6.44901">
        <ele>1723</ele>
        <time>2010-01-13T07:26:57Z</time>
      </trkpt>
      <trkpt lat="46.01946" lon="6.44904">
        <ele>1724</ele>
        <time>2010-01-13T08:00:00Z</time>
      </trkpt>
      <trkpt lat="46.01944" lon="6.44893">
        <ele>1723</ele>
        <time>2010-01-13T08:00:03Z</time>
      </trkpt>
      <trkpt lat="46.01905" lon="6.44856">
        <ele>1722</ele>
        <time>2010-01-13T08:00:26Z</time>
      </trkpt>
      <trkpt lat="46.01925" lon="6.44796">
        <ele>1721</ele>
        <time>2010-01-13T08:00:50Z</time>
      </trkpt>
      <trkpt lat="46.02019" lon="6.4467">
        <ele>1718</ele>
        <time>2010-01-13T08:00:54Z</time>
      </trkpt>
      <trkpt lat="46.02094" lon="6.44563">
        <ele>1716</ele>
        <time>2010-01-13T08:01:47Z</time>
      </trkpt>
      <trkpt lat="46.02245" lon="6.44443">
        <ele>1716</ele>
        <time>2010-01-13T08:02:13Z</time>
      </trkpt>
      <trkpt lat="46.02391" lon="6.44086">
        <ele>1679</ele>
        <time>2010-01-13T08:02:37Z</time>
      </trkpt>
      <trkpt lat="46.02412" lon="6.4406">
        <ele>1682</ele>
        <time>2010-01-13T08:02:51Z</time>
      </trkpt>
      <trkpt lat="46.02536" lon="6.43984">
        <ele>1628</ele>
        <time>2010-01-13T08:02:59Z</time>
      </trkpt>
      <trkpt lat="46.02572" lon="6.43976">
        <ele>1620</ele>
        <time>2010-01-13T08:03:17Z</time>
      </trkpt>
      <trkpt lat="46.02592" lon="6.43937">
        <ele>1594</ele>
        <time>2010-01-13T08:03:34Z</time>
      </trkpt>
      <trkpt lat="46.02692" lon="6.43887">
        <ele>1542</ele>
        <time>2010-01-13T08:04:27Z</time>
      </trkpt>
      <trkpt lat="46.02676" lon="6.43825">
        <ele>1531</ele>
        <time>2010-01-13T08:04:50Z</time>
      </trkpt>
      <trkpt lat="46.02678" lon="6.43783">
        <ele>1521</ele>
        <time>2010-01-13T08:05:05Z</time>
      </trkpt>
      <trkpt lat="46.02696" lon="6.43642">
        <ele>1499</ele>
        <time>2010-01-13T08:05:55Z</time>
      </trkpt>
      <trkpt lat="46.02673" lon="6.43564">
        <ele>1500</ele>
        <time>2010-01-13T08:06:24Z</time>
      </trkpt>
      <trkpt lat="46.02703" lon="6.43532">
        <ele>1495</ele>
        <time>2010-01-13T08:06:43Z</time>
      </trkpt>
      <trkpt lat="46.02696" lon="6.43475">
        <ele>1500</ele>
        <time>2010-01-13T08:07:03Z</time>
      </trkpt>
      <trkpt lat="46.02797" lon="6.42979">
        <ele>1501</ele>
        <time>2010-01-13T08:10:37Z</time>
      </trkpt>
      <trkpt lat="46.02887" lon="6.42859">
        <ele>1488</ele>
        <time>2010-01-13T08:10:38Z</time>
      </trkpt>
      <trkpt lat="46.0293" lon="6.42781">
        <ele>1488</ele>
        <time>2010-01-13T08:11:13Z</time>
      </trkpt>
      <trkpt lat="46.02933" lon="6.42702">
        <ele>1489</ele>
        <time>2010-01-13T08:11:40Z</time>
      </trkpt>
      <trkpt lat="46.02942" lon="6.42669">
        <ele>1489</ele>
        <time>2010-01-13T08:11:53Z</time>
      </trkpt>
      <trkpt lat="46.02978" lon="6.42592">
        <ele>1490</ele>
        <time>2010-01-13T08:12:25Z</time>
      </trkpt>
      <trkpt lat="46.03008" lon="6.42618">
        <ele>1488</ele>
        <time>2010-01-13T08:12:43Z</time>
      </trkpt>
      <trkpt lat="46.0304" lon="6.42642">
        <ele>1488</ele>
        <time>2010-01-13T08:13:01Z</time>
      </trkpt>
      <trkpt lat="46.03104" lon="6.42657">
        <ele>1491</ele>
        <time>2010-01-13T08:13:34Z</time>
      </trkpt>
      <trkpt lat="46.03141" lon="6.42652">
        <ele>1494</ele>
        <time>2010-01-13T08:13:52Z</time>
      </trkpt>
      <trkpt lat="46.03196" lon="6.42667">
        <ele>1496</ele>
        <time>2010-01-13T08:14:20Z</time>
      </trkpt>
      <trkpt lat="46.03244" lon="6.427">
        <ele>1497</ele>
        <time>2010-01-13T08:14:47Z</time>
      </trkpt>
      <trkpt lat="46.03278" lon="6.42707">
        <ele>1502</ele>
        <time>2010-01-13T08:15:04Z</time>
      </trkpt>
      <trkpt lat="46.03323" lon="6.42753">
        <ele>1504</ele>
        <time>2010-01-13T08:15:32Z</time>
      </trkpt>
      <trkpt lat="46.03373" lon="6.42704">
        <ele>1508</ele>
        <time>2010-01-13T08:16:02Z</time>
      </trkpt>
      <trkpt lat="46.03372" lon="6.42706">
        <ele>1508</ele>
        <time>2010-01-13T09:00:00Z</time>
      </trkpt>
      <trkpt lat="46.03384" lon="6.42657">
        <ele>1509</ele>
        <time>2010-01-13T09:00:17Z</time>
      </trkpt>
      <trkpt lat="46.03389" lon="6.42609">
        <ele>1508</ele>
        <time>2010-01-13T09:00:34Z</time>
      </trkpt>
      <trkpt lat="46.03403" lon="6.42578">
        <ele>1509</ele>
        <time>2010-01-13T09:00:47Z</time>
      </trkpt>
      <trkpt lat="46.03425" lon="6.42568">
        <ele>1511</ele>
        <time>2010-01-13T09:00:59Z</time>
      </trkpt>
      <trkpt lat="46.03455" lon="6.42563">
        <ele>1512</ele>
        <time>2010-01-13T09:01:14Z</time>
      </trkpt>
      <trkpt lat="46.03466" lon="6.42535">
        <ele>1513</ele>
        <time>2010-01-13T09:01:25Z</time>
      </trkpt>
      <trkpt lat="46.03472" lon="6.42485">
        <ele>1513</ele>
        <time>2010-01-13T09:01:43Z</time>
      </trkpt>
      <trkpt lat="46.03471" lon="6.42441">
        <ele>1513</ele>
        <time>2010-01-13T09:01:58Z</time>
      </trkpt>
      <trkpt lat="46.03469" lon="6.42422">
        <ele>1513</ele>
        <time>2010-01-13T09:02:05Z</time>
      </trkpt>
      <trkpt lat="46.03486" lon="6.4242">
        <ele>1514</ele>
        <time>2010-01-13T09:02:13Z</time>
      </trkpt>
      <trkpt lat="46.03495" lon="6.42438">
        <ele>1514</ele>
        <time>2010-01-13T09:02:21Z</time>
      </trkpt>
      <trkpt lat="46.03518" lon="6.42422">
        <ele>1518</ele>
        <time>2010-01-13T09:02:34Z</time>
      </trkpt>
      <trkpt lat="46.03547" lon="6.42398">
        <ele>1522</ele>
        <time>2010-01-13T09:02:51Z</time>
      </trkpt>
      <trkpt lat="46.03557" lon="6.42344">
        <ele>1524</ele>
        <time>2010-01-13T09:03:10Z</time>
      </trkpt>
      <trkpt lat="46.0363" lon="6.42216">
        <ele>1541</ele>
        <time>2010-01-13T09:04:07Z</time>
      </trkpt>
      <trkpt lat="46.03638" lon="6.42182">
        <ele>1543</ele>
        <time>2010-01-13T09:04:20Z</time>
      </trkpt>
      <trkpt lat="46.03711" lon="6.42141">
        <ele>1572</ele>
        <time>2010-01-13T09:04:59Z</time>
      </trkpt>
      <trkpt lat="46.03746" lon="6.42108">
        <ele>1581</ele>
        <time>2010-01-13T09:05:20Z</time>
      </trkpt>
      <trkpt lat="46.03753" lon="6.42078">
        <ele>1597</ele>
        <time>2010-01-13T09:05:31Z</time>
      </trkpt>
      <trkpt lat="46.03813" lon="6.41984">
        <ele>1620</ele>
        <time>2010-01-13T09:06:16Z</time>
      </trkpt>
      <trkpt lat="46.03834" lon="6.41958">
        <ele>1632</ele>
        <time>2010-01-13T09:06:29Z</time>
      </trkpt>
      <trkpt lat="46.03893" lon="6.41917">
        <ele>1640</ele>
        <time>2010-01-13T09:07:02Z</time>
      </trkpt>
      <trkpt lat="46.03919" lon="6.41878">
        <ele>1664</ele>
        <time>2010-01-13T09:07:21Z</time>
      </trkpt>
      <trkpt lat="46.03945" lon="6.41867">
        <ele>1669</ele>
        <time>2010-01-13T09:07:35Z</time>
      </trkpt>
      <trkpt lat="46.03989" lon="6.41798">
        <ele>1688</ele>
        <time>2010-01-13T09:08:07Z</time>
      </trkpt>
      <trkpt lat="46.04021" lon="6.41782">
        <ele>1711</ele>
        <time>2010-01-13T09:08:24Z</time>
      </trkpt>
      <trkpt lat="46.04032" lon="6.41755">
        <ele>1713</ele>
        <time>2010-01-13T09:08:35Z</time>
      </trkpt>
      <trkpt lat="46.04054" lon="6.41747">
        <ele>1727</ele>
        <time>2010-01-13T09:08:46Z</time>
      </trkpt>
      <trkpt lat="46.04116" lon="6.41646">
        <ele>1735</ele>
        <time>2010-01-13T09:09:33Z</time>
      </trkpt>
      <trkpt lat="46.04135" lon="6.41657">
        <ele>1741</ele>
        <time>2010-01-13T09:09:43Z</time>
      </trkpt>
      <trkpt lat="46.04163" lon="6.41691">
        <ele>1763</ele>
        <time>2010-01-13T09:10:02Z</time>
      </trkpt>
      <trkpt lat="46.04184" lon="6.41688">
        <ele>1788</ele>
        <time>2010-01-13T09:10:12Z</time>
      </trkpt>
      <trkpt lat="46.04197" lon="6.41715">
        <ele>1797</ele>
        <time>2010-01-13T09:10:24Z</time>
      </trkpt>
      <trkpt lat="46.04218" lon="6.41732">
        <ele>1806</ele>
        <time>2010-01-13T09:10:36Z</time>
      </trkpt>
      <trkpt lat="46.04248" lon="6.41727">
        <ele>1815</ele>
        <time>2010-01-13T09:10:51Z</time>
      </trkpt>
      <trkpt lat="46.04264" lon="6.41708">
        <ele>1766</ele>
        <time>2010-01-13T09:11:02Z</time>
      </trkpt>
      <trkpt lat="46.04274" lon="6.4172">
        <ele>1762</ele>
        <time>2010-01-13T09:11:08Z</time>
      </trkpt>
      <trkpt lat="46.04278" lon="6.41742">
        <ele>1766</ele>
        <time>2010-01-13T09:11:16Z</time>
      </trkpt>
      <trkpt lat="46.04277" lon="6.4182">
        <ele>1812</ele>
        <time>2010-01-13T09:11:43Z</time>
      </trkpt>
      <trkpt lat="46.04276" lon="6.41852">
        <ele>1841</ele>
        <time>2010-01-13T09:11:54Z</time>
      </trkpt>
      <trkpt lat="46.04269" lon="6.41879">
        <ele>1841</ele>
        <time>2010-01-13T09:12:04Z</time>
      </trkpt>
      <trkpt lat="46.04233" lon="6.42005">
        <ele>1810</ele>
        <time>2010-01-13T09:12:51Z</time>
      </trkpt>
      <trkpt lat="46.04228" lon="6.42154">
        <ele>1776</ele>
        <time>2010-01-13T09:13:43Z</time>
      </trkpt>
      <trkpt lat="46.04239" lon="6.423">
        <ele>1739</ele>
        <time>2010-01-13T09:14:34Z</time>
      </trkpt>
      <trkpt lat="46.04311" lon="6.42516">
        <ele>1679</ele>
        <time>2010-01-13T09:14:58Z</time>
      </trkpt>
      <trkpt lat="46.04393" lon="6.42788">
        <ele>1582</ele>
        <time>2010-01-13T09:15:41Z</time>
      </trkpt>
      <trkpt lat="46.04454" lon="6.43028">
        <ele>1503</ele>
        <time>2010-01-13T09:16:10Z</time>
      </trkpt>
      <trkpt lat="46.04469" lon="6.43166">
        <ele>1466</ele>
        <time>2010-01-13T09:16:58Z</time>
      </trkpt>
      <trkpt lat="46.04461" lon="6.43265">
        <ele>1402</ele>
        <time>2010-01-13T09:17:33Z</time>
      </trkpt>
      <trkpt lat="46.04456" lon="6.43383">
        <ele>1357</ele>
        <time>2010-01-13T09:18:14Z</time>
      </trkpt>
      <trkpt lat="46.04451" lon="6.43485">
        <ele>1323</ele>
        <time>2010-01-13T09:18:49Z</time>
      </trkpt>
      <trkpt lat="46.04423" lon="6.43672">
        <ele>1239</ele>
        <time>2010-01-13T09:18:56Z</time>
      </trkpt>
      <trkpt lat="46.04418" lon="6.43792">
        <ele>1203</ele>
        <time>2010-01-13T09:19:38Z</time>
      </trkpt>
      <trkpt lat="46.04416" lon="6.44028">
        <ele>1142</ele>
        <time>2010-01-13T09:20:00Z</time>
      </trkpt>
      <trkpt lat="46.04425" lon="6.44276">
        <ele>1085</ele>
        <time>2010-01-13T09:20:26Z</time>
      </trkpt>
      <trkpt lat="46.04467" lon="6.44477">
        <ele>1049</ele>
        <time>2010-01-13T09:20:39Z</time>
      </trkpt>
      <trkpt lat="46.04496" lon="6.44461">
        <ele>1047</ele>
        <time>2010-01-13T09:20:55Z</time>
      </trkpt>
      <trkpt lat="46.04519" lon="6.44465">
        <ele>1037</ele>
        <time>2010-01-13T09:21:06Z</time>
      </trkpt>
      <trkpt lat="46.04553" lon="6.44445">
        <ele>1036</ele>
        <time>2010-01-13T09:21:25Z</time>
      </trkpt>
      <trkpt lat="46.04584" lon="6.44433">
        <ele>1031</ele>
        <time>2010-01-13T09:21:41Z</time>
      </trkpt>
      <trkpt lat="46.0461" lon="6.44415">
        <ele>1038</ele>
        <time>2010-01-13T09:21:55Z</time>
      </trkpt>
      <trkpt lat="46.04629" lon="6.44415">
        <ele>1038</ele>
        <time>2010-01-13T09:22:05Z</time>
      </trkpt>
      <trkpt lat="46.04651" lon="6.44439">
        <ele>1027</ele>
        <time>2010-01-13T09:22:19Z</time>
      </trkpt>
      <trkpt lat="46.04707" lon="6.4447">
        <ele>1020</ele>
        <time>2010-01-13T09:22:49Z</time>
      </trkpt>
      <trkpt lat="46.04722" lon="6.44483">
        <ele>1018</ele>
        <time>2010-01-13T09:22:58Z</time>
      </trkpt>
      <trkpt lat="46.04744" lon="6.44483">
        <ele>1017</ele>
        <time>2010-01-13T09:23:09Z</time>
      </trkpt>
      <trkpt lat="46.04763" lon="6.44499">
        <ele>1013</ele>
        <time>2010-01-13T09:23:20Z</time>
      </trkpt>
      <trkpt lat="46.04787" lon="6.44489">
        <ele>1013</ele>
        <time>2010-01-13T09:23:32Z</time>
      </trkpt>
      <trkpt lat="46.04837" lon="6.44451">
        <ele>1009</ele>
        <time>2010-01-13T09:24:00Z</time>
      </trkpt>
      <trkpt lat="46.04863" lon="6.44443">
        <ele>1009</ele>
        <time>2010-01-13T09:24:14Z</time>
      </trkpt>
      <trkpt lat="46.04921" lon="6.4446">
        <ele>1002</ele>
        <time>2010-01-13T09:24:43Z</time>
      </trkpt>
      <trkpt lat="46.04924" lon="6.44473">
        <ele>1001</ele>
        <time>2010-01-13T09:24:48Z</time>
      </trkpt>
      <trkpt lat="46.04898" lon="6.44503">
        <ele>997</ele>
        <time>2010-01-13T09:25:04Z</time>
      </trkpt>
      <trkpt lat="46.04869" lon="6.44551">
        <ele>994</ele>
        <time>2010-01-13T09:25:27Z</time>
      </trkpt>
      <trkpt lat="46.04867" lon="6.44554">
        <ele>994</ele>
        <time>2010-01-13T10:00:00Z</time>
      </trkpt>
      <trkpt lat="46.04847" lon="6.44558">
        <ele>994</ele>
        <time>2010-01-13T10:00:10Z</time>
      </trkpt>
      <trkpt lat="46.0484" lon="6.44561">
        <ele>993</ele>
        <time>2010-01-13T10:00:13Z</time>
      </trkpt>
      <trkpt lat="46.04823" lon="6.4456">
        <ele>997</ele>
        <time>2010-01-13T10:00:22Z</time>
      </trkpt>
      <trkpt lat="46.04796" lon="6.44562">
        <ele>998</ele>
        <time>2010-01-13T10:00:35Z</time>
      </trkpt>
      <trkpt lat="46.04778" lon="6.44555">
        <ele>999</ele>
        <time>2010-01-13T10:00:45Z</time>
      </trkpt>
      <trkpt lat="46.04752" lon="6.44559">
        <ele>999</ele>
        <time>2010-01-13T10:00:58Z</time>
      </trkpt>
      <trkpt lat="46.04723" lon="6.44565">
        <ele>1004</ele>
        <time>2010-01-13T10:01:13Z</time>
      </trkpt>
      <trkpt lat="46.04716" lon="6.44577">
        <ele>1004</ele>
        <time>2010-01-13T10:01:18Z</time>
      </trkpt>
      <trkpt lat="46.04715" lon="6.44594">
        <ele>1001</ele>
        <time>2010-01-13T10:01:24Z</time>
      </trkpt>
      <trkpt lat="46.04758" lon="6.44638">
        <ele>992</ele>
        <time>2010-01-13T10:01:50Z</time>
      </trkpt>
      <trkpt lat="46.04767" lon="6.44651">
        <ele>991</ele>
        <time>2010-01-13T10:01:56Z</time>
      </trkpt>
      <trkpt lat="46.04789" lon="6.44659">
        <ele>989</ele>
        <time>2010-01-13T10:02:07Z</time>
      </trkpt>
      <trkpt lat="46.04806" lon="6.44675">
        <ele>985</ele>
        <time>2010-01-13T10:02:18Z</time>
      </trkpt>
      <trkpt lat="46.04817" lon="6.44709">
        <ele>985</ele>
        <time>2010-01-13T10:02:31Z</time>
      </trkpt>
      <trkpt lat="46.04808" lon="6.44763">
        <ele>982</ele>
        <time>2010-01-13T10:02:50Z</time>
      </trkpt>
      <trkpt lat="46.04802" lon="6.44817">
        <ele>982</ele>
        <time>2010-01-13T10:03:09Z</time>
      </trkpt>
      <trkpt lat="46.04797" lon="6.4483">
        <ele>982</ele>
        <time>2010-01-13T10:03:14Z</time>
      </trkpt>
      <trkpt lat="46.0478" lon="6.4484">
        <ele>979</ele>
        <time>2010-01-13T10:03:23Z</time>
      </trkpt>
      <trkpt lat="46.04751" lon="6.44868">
        <ele>979</ele>
        <time>2010-01-13T10:03:41Z</time>
      </trkpt>
      <trkpt lat="46.04728" lon="6.44918">
        <ele>985</ele>
        <time>2010-01-13T10:04:02Z</time>
      </trkpt>
      <trkpt lat="46.04667" lon="6.44855">
        <ele>1013</ele>
        <time>2010-01-13T10:04:39Z</time>
      </trkpt>
      <trkpt lat="46.04656" lon="6.44795">
        <ele>1033</ele>
        <time>2010-01-13T10:05:01Z</time>
      </trkpt>
      <trkpt lat="46.04581" lon="6.44779">
        <ele>1059</ele>
        <time>2010-01-13T10:05:39Z</time>
      </trkpt>
      <trkpt lat="46.04532" lon="6.44733">
        <ele>1059</ele>
        <time>2010-01-13T10:06:08Z</time>
      </trkpt>
      <trkpt lat="46.04518" lon="6.44764">
        <ele>1069</ele>
        <time>2010-01-13T10:06:21Z</time>
      </trkpt>
      <trkpt lat="46.04493" lon="6.44772">
        <ele>1085</ele>
        <time>2010-01-13T10:06:34Z</time>
      </trkpt>
      <trkpt lat="46.04462" lon="6.44785">
        <ele>1092</ele>
        <time>2010-01-13T10:06:50Z</time>
      </trkpt>
      <trkpt lat="46.04445" lon="6.44816">
        <ele>1097</ele>
        <time>2010-01-13T10:07:04Z</time>
      </trkpt>
      <trkpt lat="46.04421" lon="6.44821">
        <ele>1104</ele>
        <time>2010-01-13T10:07:16Z</time>
      </trkpt>
      <trkpt lat="46.04421" lon="6.44887">
        <ele>1106</ele>
        <time>2010-01-13T10:07:39Z</time>
      </trkpt>
      <trkpt lat="46.04393" lon="6.44859">
        <ele>1133</ele>
        <time>2010-01-13T10:07:56Z</time>
      </trkpt>
      <trkpt lat="46.04383" lon="6.44917">
        <ele>1141</ele>
        <time>2010-01-13T10:08:16Z</time>
      </trkpt>
      <trkpt lat="46.04374" lon="6.44969">
        <ele>1147</ele>
        <time>2010-01-13T10:08:35Z</time>
      </trkpt>
      <trkpt lat="46.04333" lon="6.4506">
        <ele>1197</ele>
        <time>2010-01-13T10:09:13Z</time>
      </trkpt>
      <trkpt lat="46.04351" lon="6.45154">
        <ele>1176</ele>
        <time>2010-01-13T10:09:47Z</time>
      </trkpt>
      <trkpt lat="46.04309" lon="6.45277">
        <ele>1231</ele>
        <time>2010-01-13T10:10:34Z</time>
      </trkpt>
      <trkpt lat="46.04282" lon="6.45441">
        <ele>1227</ele>
        <time>2010-01-13T10:11:33Z</time>
      </trkpt>
      <trkpt lat="46.04257" lon="6.45488">
        <ele>1227</ele>
        <time>2010-01-13T10:11:54Z</time>
      </trkpt>
      <trkpt lat="46.04185" lon="6.45496">
        <ele>1240</ele>
        <time>2010-01-13T10:12:30Z</time>
      </trkpt>
      <trkpt lat="46.04088" lon="6.45486">
        <ele>1231</ele>
        <time>2010-01-13T10:13:18Z</time>
      </trkpt>
      <trkpt lat="46.04045" lon="6.45504">
        <ele>1215</ele>
        <time>2010-01-13T10:13:41Z</time>
      </trkpt>
      <trkpt lat="46.03989" lon="6.45514">
        <ele>1222</ele>
        <time>2010-01-13T10:14:09Z</time>
      </trkpt>
      <trkpt lat="46.03903" lon="6.4559">
        <ele>1225</ele>
        <time>2010-01-13T10:15:00Z</time>
      </trkpt>
      <trkpt lat="46.04056" lon="6.45778">
        <ele>1227</ele>
        <time>2010-01-13T10:15:40Z</time>
      </trkpt>
      <trkpt lat="46.04166" lon="6.45935">
        <ele>1246</ele>
        <time>2010-01-13T10:15:58Z</time>
      </trkpt>
      <trkpt lat="46.0425" lon="6.45961">
        <ele>1236</ele>
        <time>2010-01-13T10:16:41Z</time>
      </trkpt>
      <trkpt lat="46.04277" lon="6.45997">
        <ele>1223</ele>
        <time>2010-01-13T10:16:59Z</time>
      </trkpt>
      <trkpt lat="46.0427" lon="6.46028">
        <ele>1231</ele>
        <time>2010-01-13T10:17:11Z</time>
      </trkpt>
      <trkpt lat="46.04282" lon="6.46075">
        <ele>1229</ele>
        <time>2010-01-13T10:17:28Z</time>
      </trkpt>
      <trkpt lat="46.0428" lon="6.46121">
        <ele>1223</ele>
        <time>2010-01-13T10:17:44Z</time>
      </trkpt>
      <trkpt lat="46.04296" lon="6.46274">
        <ele>1190</ele>
        <time>2010-01-13T10:18:38Z</time>
      </trkpt>
      <trkpt lat="46.04299" lon="6.46298">
        <ele>1187</ele>
        <time>2010-01-13T10:18:46Z</time>
      </trkpt>
      <trkpt lat="46.04294" lon="6.46306">
        <ele>1187</ele>
        <time>2010-01-13T10:18:50Z</time>
      </trkpt>
      <trkpt lat="46.04304" lon="6.46315">
        <ele>1183</ele>
        <time>2010-01-13T10:18:56Z</time>
      </trkpt>
      <trkpt lat="46.04285" lon="6.46331">
        <ele>1187</ele>
        <time>2010-01-13T10:19:07Z</time>
      </trkpt>
      <trkpt lat="46.04279" lon="6.46343">
        <ele>1175</ele>
        <time>2010-01-13T10:19:12Z</time>
      </trkpt>
      <trkpt lat="46.04287" lon="6.4637">
        <ele>1169</ele>
        <time>2010-01-13T10:19:23Z</time>
      </trkpt>
      <trkpt lat="46.04289" lon="6.46386">
        <ele>1167</ele>
        <time>2010-01-13T10:19:28Z</time>
      </trkpt>
      <trkpt lat="46.04269" lon="6.46477">
        <ele>1155</ele>
        <time>2010-01-13T10:20:02Z</time>
      </trkpt>
      <trkpt lat="46.043" lon="6.46584">
        <ele>1139</ele>
        <time>2010-01-13T10:20:42Z</time>
      </trkpt>
      <trkpt lat="46.04294" lon="6.46629">
        <ele>1140</ele>
        <time>2010-01-13T10:20:58Z</time>
      </trkpt>
      <trkpt lat="46.04335" lon="6.46702">
        <ele>1116</ele>
        <time>2010-01-13T10:21:30Z</time>
      </trkpt>
      <trkpt lat="46.0442" lon="6.46731">
        <ele>1092</ele>
        <time>2010-01-13T10:22:14Z</time>
      </trkpt>
      <trkpt lat="46.04517" lon="6.46882">
        <ele>1072</ele>
        <time>2010-01-13T10:22:25Z</time>
      </trkpt>
      <trkpt lat="46.0456" lon="6.46906">
        <ele>1065</ele>
        <time>2010-01-13T10:22:48Z</time>
      </trkpt>
      <trkpt lat="46.0458" lon="6.46946">
        <ele>1066</ele>
        <time>2010-01-13T10:23:06Z</time>
      </trkpt>
      <trkpt lat="46.04606" lon="6.46972">
        <ele>1050</ele>
        <time>2010-01-13T10:23:21Z</time>
      </trkpt>
      <trkpt lat="46.04626" lon="6.47012">
        <ele>1045</ele>
        <time>2010-01-13T10:23:39Z</time>
      </trkpt>
      <trkpt lat="46.04669" lon="6.47119">
        <ele>1020</ele>
        <time>2010-01-13T10:24:22Z</time>
      </trkpt>
      <trkpt lat="46.04725" lon="6.47247">
        <ele>1010</ele>
        <time>2010-01-13T10:25:14Z</time>
      </trkpt>
      <trkpt lat="46.04777" lon="6.47349">
        <ele>981</ele>
        <time>2010-01-13T10:25:58Z</time>
      </trkpt>
      <trkpt lat="46.04816" lon="6.47435">
        <ele>966</ele>
        <time>2010-01-13T10:26:34Z</time>
      </trkpt>
      <trkpt lat="46.04832" lon="6.47431">
        <ele>964</ele>
        <time>2010-01-13T10:26:42Z</time>
      </trkpt>
      <trkpt lat="46.04836" lon="6.47511">
        <ele>956</ele>
        <time>2010-01-13T10:27:10Z</time>
      </trkpt>
      <trkpt lat="46.0484" lon="6.47537">
        <ele>956</ele>
        <time>2010-01-13T10:27:19Z</time>
      </trkpt>
      <trkpt lat="46.04849" lon="6.47555">
        <ele>956</ele>
        <time>2010-01-13T10:27:27Z</time>
      </trkpt>
      <trkpt lat="46.04864" lon="6.47563">
        <ele>956</ele>
        <time>2010-01-13T10:27:35Z</time>
      </trkpt>
      <trkpt lat="46.04895" lon="6.4757">
        <ele>955</ele>
        <time>2010-01-13T10:27:50Z</time>
      </trkpt>
      <trkpt lat="46.04906" lon="6.47579">
        <ele>955</ele>
        <time>2010-01-13T10:27:57Z</time>
      </trkpt>
      <trkpt lat="46.04912" lon="6.47596">
        <ele>956</ele>
        <time>2010-01-13T10:28:03Z</time>
      </trkpt>
      <trkpt lat="46.04922" lon="6.47636">
        <ele>955</ele>
        <time>2010-01-13T10:28:18Z</time>
      </trkpt>
      <trkpt lat="46.04931" lon="6.47682">
        <ele>957</ele>
        <time>2010-01-13T10:28:35Z</time>
      </trkpt>
      <trkpt lat="46.04934" lon="6.47725">
        <ele>958</ele>
        <time>2010-01-13T10:28:50Z</time>
      </trkpt>
      <trkpt lat="46.04946" lon="6.47773">
        <ele>959</ele>
        <time>2010-01-13T10:29:08Z</time>
      </trkpt>
      <trkpt lat="46.04969" lon="6.47829">
        <ele>960</ele>
        <time>2010-01-13T10:29:30Z</time>
      </trkpt>
      <trkpt lat="46.04995" lon="6.47835">
        <ele>962</ele>
        <time>2010-01-13T10:29:43Z</time>
      </trkpt>
      <trkpt lat="46.05001" lon="6.47842">
        <ele>962</ele>
        <time>2010-01-13T10:29:47Z</time>
      </trkpt>
      <trkpt lat="46.05001" lon="6.47843">
        <ele>962</ele>
        <time>2010-01-13T11:00:00Z</time>
      </trkpt>
      <trkpt lat="46.05056" lon="6.47912">
        <ele>964</ele>
        <time>2010-01-13T11:00:47Z</time>
      </trkpt>
      <trkpt lat="46.05061" lon="6.47923">
        <ele>965</ele>
        <time>2010-01-13T11:00:52Z</time>
      </trkpt>
      <trkpt lat="46.05064" lon="6.47933">
        <ele>965</ele>
        <time>2010-01-13T11:00:57Z</time>
      </trkpt>
      <trkpt lat="46.05064" lon="6.47944">
        <ele>966</ele>
        <time>2010-01-13T11:01:01Z</time>
      </trkpt>
      <trkpt lat="46.05064" lon="6.47955">
        <ele>966</ele>
        <time>2010-01-13T11:01:06Z</time>
      </trkpt>
      <trkpt lat="46.05033" lon="6.48072">
        <ele>966</ele>
        <time>2010-01-13T11:02:41Z</time>
      </trkpt>
      <trkpt lat="46.05033" lon="6.48086">
        <ele>963</ele>
        <time>2010-01-13T11:02:47Z</time>
      </trkpt>
      <trkpt lat="46.0503" lon="6.48101">
        <ele>963</ele>
        <time>2010-01-13T11:02:54Z</time>
      </trkpt>
      <trkpt lat="46.05024" lon="6.48114">
        <ele>963</ele>
        <time>2010-01-13T11:03:00Z</time>
      </trkpt>
      <trkpt lat="46.05017" lon="6.48129">
        <ele>963</ele>
        <time>2010-01-13T11:03:07Z</time>
      </trkpt>
      <trkpt lat="46.05009" lon="6.48139">
        <ele>964</ele>
        <time>2010-01-13T11:03:14Z</time>
      </trkpt>
      <trkpt lat="46.04995" lon="6.48159">
        <ele>971</ele>
        <time>2010-01-13T11:03:26Z</time>
      </trkpt>
      <trkpt lat="46.04989" lon="6.48175">
        <ele>971</ele>
        <time>2010-01-13T11:03:33Z</time>
      </trkpt>
      <trkpt lat="46.04992" lon="6.48185">
        <ele>972</ele>
        <time>2010-01-13T11:03:38Z</time>
      </trkpt>
      <trkpt lat="46.04993" lon="6.48196">
        <ele>973</ele>
        <time>2010-01-13T11:03:42Z</time>
      </trkpt>
      <trkpt lat="46.05" lon="6.48214">
        <ele>973</ele>
        <time>2010-01-13T11:03:57Z</time>
      </trkpt>
      <trkpt lat="46.05092" lon="6.48311">
        <ele>967</ele>
        <time>2010-01-13T11:05:19Z</time>
      </trkpt>
      <trkpt lat="46.05104" lon="6.48325">
        <ele>967</ele>
        <time>2010-01-13T11:05:28Z</time>
      </trkpt>
      <trkpt lat="46.05134" lon="6.4838">
        <ele>974</ele>
        <time>2010-01-13T11:06:00Z</time>
      </trkpt>
      <trkpt lat="46.05154" lon="6.48404">
        <ele>974</ele>
        <time>2010-01-13T11:06:16Z</time>
      </trkpt>
      <trkpt lat="46.05247" lon="6.48495">
        <ele>977</ele>
        <time>2010-01-13T11:07:30Z</time>
      </trkpt>
      <trkpt lat="46.05244" lon="6.48503">
        <ele>979</ele>
        <time>2010-01-13T11:07:34Z</time>
      </trkpt>
      <trkpt lat="46.05237" lon="6.48513">
        <ele>982</ele>
        <time>2010-01-13T11:07:40Z</time>
      </trkpt>
      <trkpt lat="46.0522" lon="6.48545">
        <ele>987</ele>
        <time>2010-01-13T11:08:17Z</time>
      </trkpt>
      <trkpt lat="46.0521" lon="6.48574">
        <ele>989</ele>
        <time>2010-01-13T11:08:30Z</time>
      </trkpt>
      <trkpt lat="46.05196" lon="6.4861">
        <ele>995</ele>
        <time>2010-01-13T11:09:47Z</time>
      </trkpt>
      <trkpt lat="46.05175" lon="6.48661">
        <ele>1002</ele>
        <time>2010-01-13T11:10:28Z</time>
      </trkpt>
      <trkpt lat="46.05165" lon="6.48683">
        <ele>1010</ele>
        <time>2010-01-13T11:10:40Z</time>
      </trkpt>
      <trkpt lat="46.05153" lon="6.48726">
        <ele>1012</ele>
        <time>2010-01-13T11:10:59Z</time>
      </trkpt>
      <trkpt lat="46.05143" lon="6.48745">
        <ele>1012</ele>
        <time>2010-01-13T11:11:09Z</time>
      </trkpt>
      <trkpt lat="46.0513" lon="6.48755">
        <ele>1014</ele>
        <time>2010-01-13T11:11:17Z</time>
      </trkpt>
      <trkpt lat="46.05113" lon="6.4876">
        <ele>1017</ele>
        <time>2010-01-13T11:12:31Z</time>
      </trkpt>
      <trkpt lat="46.05085" lon="6.48767">
        <ele>1020</ele>
        <time>2010-01-13T11:12:48Z</time>
      </trkpt>
      <trkpt lat="46.05066" lon="6.48771">
        <ele>1028</ele>
        <time>2010-01-13T11:13:00Z</time>
      </trkpt>
      <trkpt lat="46.05051" lon="6.48771">
        <ele>1029</ele>
        <time>2010-01-13T11:13:09Z</time>
      </trkpt>
      <trkpt lat="46.05022" lon="6.48771">
        <ele>1031</ele>
        <time>2010-01-13T11:14:02Z</time>
      </trkpt>
      <trkpt lat="46.05006" lon="6.48769">
        <ele>1033</ele>
        <time>2010-01-13T11:14:12Z</time>
      </trkpt>
      <trkpt lat="46.04958" lon="6.48761">
        <ele>1038</ele>
        <time>2010-01-13T11:14:51Z</time>
      </trkpt>
      <trkpt lat="46.04873" lon="6.48753">
        <ele>1047</ele>
        <time>2010-01-13T11:16:16Z</time>
      </trkpt>
      <trkpt lat="46.04861" lon="6.48758">
        <ele>1048</ele>
        <time>2010-01-13T11:16:23Z</time>
      </trkpt>
      <trkpt lat="46.04843" lon="6.48766">
        <ele>1049</ele>
        <time>2010-01-13T11:16:34Z</time>
      </trkpt>
      <trkpt lat="46.04817" lon="6.48764">
        <ele>1061</ele>
        <time>2010-01-13T11:16:50Z</time>
      </trkpt>
      <trkpt lat="46.04806" lon="6.48752">
        <ele>1063</ele>
        <time>2010-01-13T11:16:58Z</time>
      </trkpt>
      <trkpt lat="46.04789" lon="6.48753">
        <ele>1068</ele>
        <time>2010-01-13T11:18:28Z</time>
      </trkpt>
      <trkpt lat="46.0477" lon="6.48753">
        <ele>1071</ele>
        <time>2010-01-13T11:18:40Z</time>
      </trkpt>
      <trkpt lat="46.04747" lon="6.48752">
        <ele>1077</ele>
        <time>2010-01-13T11:18:53Z</time>
      </trkpt>
      <trkpt lat="46.04724" lon="6.48743">
        <ele>1078</ele>
        <time>2010-01-13T11:19:07Z</time>
      </trkpt>
      <trkpt lat="46.04691" lon="6.48733">
        <ele>1085</ele>
        <time>2010-01-13T11:21:14Z</time>
      </trkpt>
      <trkpt lat="46.0467" lon="6.48728">
        <ele>1089</ele>
        <time>2010-01-13T11:21:27Z</time>
      </trkpt>
      <trkpt lat="46.04617" lon="6.48698">
        <ele>1101</ele>
        <time>2010-01-13T11:22:01Z</time>
      </trkpt>
      <trkpt lat="46.04593" lon="6.48699">
        <ele>1104</ele>
        <time>2010-01-13T11:22:16Z</time>
      </trkpt>
      <trkpt lat="46.04585" lon="6.48705">
        <ele>1105</ele>
        <time>2010-01-13T11:22:21Z</time>
      </trkpt>
      <trkpt lat="46.04571" lon="6.48705">
        <ele>1121</ele>
        <time>2010-01-13T11:22:29Z</time>
      </trkpt>
      <trkpt lat="46.04537" lon="6.48695">
        <ele>1124</ele>
        <time>2010-01-13T11:24:20Z</time>
      </trkpt>
      <trkpt lat="46.04499" lon="6.48681">
        <ele>1135</ele>
        <time>2010-01-13T11:24:43Z</time>
      </trkpt>
      <trkpt lat="46.04467" lon="6.48669">
        <ele>1142</ele>
        <time>2010-01-13T11:25:03Z</time>
      </trkpt>
      <trkpt lat="46.04427" lon="6.48653">
        <ele>1135</ele>
        <time>2010-01-13T11:26:42Z</time>
      </trkpt>
      <trkpt lat="46.04401" lon="6.48653">
        <ele>1141</ele>
        <time>2010-01-13T11:26:57Z</time>
      </trkpt>
      <trkpt lat="46.04371" lon="6.48652">
        <ele>1141</ele>
        <time>2010-01-13T11:27:42Z</time>
      </trkpt>
      <trkpt lat="46.04321" lon="6.48655">
        <ele>1148</ele>
        <time>2010-01-13T11:28:12Z</time>
      </trkpt>
      <trkpt lat="46.0428" lon="6.48662">
        <ele>1146</ele>
        <time>2010-01-13T11:28:36Z</time>
      </trkpt>
      <trkpt lat="46.04238" lon="6.4867">
        <ele>1156</ele>
        <time>2010-01-13T11:29:02Z</time>
      </trkpt>
      <trkpt lat="46.04216" lon="6.48677">
        <ele>1157</ele>
        <time>2010-01-13T11:29:15Z</time>
      </trkpt>
      <trkpt lat="46.04198" lon="6.48687">
        <ele>1157</ele>
        <time>2010-01-13T11:29:27Z</time>
      </trkpt>
      <trkpt lat="46.0418" lon="6.48707">
        <ele>1158</ele>
        <time>2010-01-13T11:29:40Z</time>
      </trkpt>
      <trkpt lat="46.04169" lon="6.48734">
        <ele>1162</ele>
        <time>2010-01-13T11:30:43Z</time>
      </trkpt>
      <trkpt lat="46.04144" lon="6.48753">
        <ele>1165</ele>
        <time>2010-01-13T11:31:00Z</time>
      </trkpt>
      <trkpt lat="46.04141" lon="6.48796">
        <ele>1167</ele>
        <time>2010-01-13T11:32:01Z</time>
      </trkpt>
      <trkpt lat="46.04174" lon="6.48818">
        <ele>1175</ele>
        <time>2010-01-13T11:32:23Z</time>
      </trkpt>
      <trkpt lat="46.04119" lon="6.48883">
        <ele>1184</ele>
        <time>2010-01-13T11:33:36Z</time>
      </trkpt>
      <trkpt lat="46.04168" lon="6.4891">
        <ele>1198</ele>
        <time>2010-01-13T11:34:54Z</time>
      </trkpt>
      <trkpt lat="46.04178" lon="6.48932">
        <ele>1206</ele>
        <time>2010-01-13T11:35:05Z</time>
      </trkpt>
      <trkpt lat="46.04211" lon="6.48953">
        <ele>1210</ele>
        <time>2010-01-13T11:35:27Z</time>
      </trkpt>
      <trkpt lat="46.04221" lon="6.49003">
        <ele>1227</ele>
        <time>2010-01-13T11:37:08Z</time>
      </trkpt>
      <trkpt lat="46.04182" lon="6.49054">
        <ele>1230</ele>
        <time>2010-01-13T11:38:20Z</time>
      </trkpt>
      <trkpt lat="46.04183" lon="6.4907">
        <ele>1232</ele>
        <time>2010-01-13T11:38:27Z</time>
      </trkpt>
      <trkpt lat="46.04202" lon="6.49091">
        <ele>1241</ele>
        <time>2010-01-13T11:38:41Z</time>
      </trkpt>
      <trkpt lat="46.04205" lon="6.49113">
        <ele>1242</ele>
        <time>2010-01-13T11:38:50Z</time>
      </trkpt>
      <trkpt lat="46.04161" lon="6.49204">
        <ele>1254</ele>
        <time>2010-01-13T11:40:20Z</time>
      </trkpt>
      <trkpt lat="46.04143" lon="6.49254">
        <ele>1265</ele>
        <time>2010-01-13T11:41:30Z</time>
      </trkpt>
      <trkpt lat="46.04121" lon="6.49302">
        <ele>1267</ele>
        <time>2010-01-13T11:42:34Z</time>
      </trkpt>
      <trkpt lat="46.04116" lon="6.49337">
        <ele>1275</ele>
        <time>2010-01-13T11:42:48Z</time>
      </trkpt>
      <trkpt lat="46.04116" lon="6.49364">
        <ele>1277</ele>
        <time>2010-01-13T11:43:00Z</time>
      </trkpt>
      <trkpt lat="46.04119" lon="6.49406">
        <ele>1279</ele>
        <time>2010-01-13T11:44:04Z</time>
      </trkpt>
      <trkpt lat="46.04111" lon="6.49437">
        <ele>1288</ele>
        <time>2010-01-13T11:44:17Z</time>
      </trkpt>
      <trkpt lat="46.04107" lon="6.49453">
        <ele>1289</ele>
        <time>2010-01-13T11:44:25Z</time>
      </trkpt>
      <trkpt lat="46.04099" lon="6.49474">
        <ele>1292</ele>
        <time>2010-01-13T11:45:18Z</time>
      </trkpt>
      <trkpt lat="46.04082" lon="6.49492">
        <ele>1303</ele>
        <time>2010-01-13T11:45:30Z</time>
      </trkpt>
      <trkpt lat="46.04041" lon="6.4953">
        <ele>1318</ele>
        <time>2010-01-13T11:47:13Z</time>
      </trkpt>
      <trkpt lat="46.04038" lon="6.4954">
        <ele>1319</ele>
        <time>2010-01-13T11:47:17Z</time>
      </trkpt>
      <trkpt lat="46.04049" lon="6.49564">
        <ele>1319</ele>
        <time>2010-01-13T11:47:29Z</time>
      </trkpt>
      <trkpt lat="46.04058" lon="6.49601">
        <ele>1324</ele>
        <time>2010-01-13T11:47:46Z</time>
      </trkpt>
      <trkpt lat="46.0406" lon="6.49632">
        <ele>1325</ele>
        <time>2010-01-13T11:48:22Z</time>
      </trkpt>
      <trkpt lat="46.04058" lon="6.49649">
        <ele>1326</ele>
        <time>2010-01-13T11:48:29Z</time>
      </trkpt>
      <trkpt lat="46.04053" lon="6.49653">
        <ele>1327</ele>
        <time>2010-01-13T11:48:32Z</time>
      </trkpt>
      <trkpt lat="46.04045" lon="6.49656">
        <ele>1328</ele>
        <time>2010-01-13T11:48:37Z</time>
      </trkpt>
      <trkpt lat="46.04016" lon="6.49651">
        <ele>1333</ele>
        <time>2010-01-13T11:50:01Z</time>
      </trkpt>
      <trkpt lat="46.04002" lon="6.49643">
        <ele>1333</ele>
        <time>2010-01-13T11:50:11Z</time>
      </trkpt>
      <trkpt lat="46.03983" lon="6.49629">
        <ele>1344</ele>
        <time>2010-01-13T11:50:23Z</time>
      </trkpt>
      <trkpt lat="46.03973" lon="6.49625">
        <ele>1345</ele>
        <time>2010-01-13T11:50:30Z</time>
      </trkpt>
      <trkpt lat="46.03969" lon="6.49634">
        <ele>1346</ele>
        <time>2010-01-13T11:51:01Z</time>
      </trkpt>
      <trkpt lat="46.03975" lon="6.49654">
        <ele>1345</ele>
        <time>2010-01-13T11:51:10Z</time>
      </trkpt>
      <trkpt lat="46.03977" lon="6.49679">
        <ele>1350</ele>
        <time>2010-01-13T11:51:20Z</time>
      </trkpt>
      <trkpt lat="46.03977" lon="6.49711">
        <ele>1353</ele>
        <time>2010-01-13T11:51:57Z</time>
      </trkpt>
      <trkpt lat="46.0397" lon="6.4973">
        <ele>1354</ele>
        <time>2010-01-13T11:52:06Z</time>
      </trkpt>
      <trkpt lat="46.03957" lon="6.49769">
        <ele>1361</ele>
        <time>2010-01-13T11:53:34Z</time>
      </trkpt>
      <trkpt lat="46.03945" lon="6.4981">
        <ele>1364</ele>
        <time>2010-01-13T11:54:09Z</time>
      </trkpt>
      <trkpt lat="46.03923" lon="6.49842">
        <ele>1372</ele>
        <time>2010-01-13T11:54:28Z</time>
      </trkpt>
      <trkpt lat="46.03909" lon="6.49884">
        <ele>1382</ele>
        <time>2010-01-13T11:55:07Z</time>
      </trkpt>
      <trkpt lat="46.0388" lon="6.49924">
        <ele>1389</ele>
        <time>2010-01-13T11:55:31Z</time>
      </trkpt>
      <trkpt lat="46.03847" lon="6.49991">
        <ele>1397</ele>
        <time>2010-01-13T11:57:22Z</time>
      </trkpt>
      <trkpt lat="46.03812" lon="6.50013">
        <ele>1410</ele>
        <time>2010-01-13T11:57:45Z</time>
      </trkpt>
      <trkpt lat="46.03786" lon="6.50021">
        <ele>1414</ele>
        <time>2010-01-13T11:58:51Z</time>
      </trkpt>
      <trkpt lat="46.03726" lon="6.50056">
        <ele>1428</ele>
        <time>2010-01-13T11:59:53Z</time>
      </trkpt>
      <trkpt lat="46.03707" lon="6.50075">
        <ele>1430</ele>
        <time>2010-01-13T12:00:47Z</time>
      </trkpt>
      <trkpt lat="46.03664" lon="6.5009">
        <ele>1438</ele>
        <time>2010-01-13T12:01:13Z</time>
      </trkpt>
      <trkpt lat="46.03633" lon="6.50083">
        <ele>1442</ele>
        <time>2010-01-13T12:01:32Z</time>
      </trkpt>
      <trkpt lat="46.03593" lon="6.50096">
        <ele>1447</ele>
        <time>2010-01-13T12:02:43Z</time>
      </trkpt>
      <trkpt lat="46.03572" lon="6.50104">
        <ele>1453</ele>
        <time>2010-01-13T12:02:56Z</time>
      </trkpt>
      <trkpt lat="46.03542" lon="6.50106">
        <ele>1455</ele>
        <time>2010-01-13T12:03:14Z</time>
      </trkpt>
      <trkpt lat="46.03482" lon="6.50121">
        <ele>1463</ele>
        <time>2010-01-13T12:04:14Z</time>
      </trkpt>
      <trkpt lat="46.03452" lon="6.50129">
        <ele>1464</ele>
        <time>2010-01-13T12:05:12Z</time>
      </trkpt>
      <trkpt lat="46.0344" lon="6.50134">
        <ele>1465</ele>
        <time>2010-01-13T12:05:19Z</time>
      </trkpt>
      <trkpt lat="46.03424" lon="6.50131">
        <ele>1466</ele>
        <time>2010-01-13T12:05:29Z</time>
      </trkpt>
      <trkpt lat="46.03415" lon="6.50134">
        <ele>1476</ele>
        <time>2010-01-13T12:05:35Z</time>
      </trkpt>
      <trkpt lat="46.03406" lon="6.50144">
        <ele>1476</ele>
        <time>2010-01-13T12:05:41Z</time>
      </trkpt>
      <trkpt lat="46.03329" lon="6.50255">
        <ele>1491</ele>
        <time>2010-01-13T12:07:54Z</time>
      </trkpt>
      <trkpt lat="46.03308" lon="6.50283">
        <ele>1495</ele>
        <time>2010-01-13T12:08:11Z</time>
      </trkpt>
      <trkpt lat="46.03264" lon="6.50341">
        <ele>1496</ele>
        <time>2010-01-13T12:09:19Z</time>
      </trkpt>
      <trkpt lat="46.03257" lon="6.50347">
        <ele>1496</ele>
        <time>2010-01-13T12:09:24Z</time>
      </trkpt>
      <trkpt lat="46.03246" lon="6.50349">
        <ele>1495</ele>
        <time>2010-01-13T12:09:32Z</time>
      </trkpt>
      <trkpt lat="46.03216" lon="6.50347">
        <ele>1492</ele>
        <time>2010-01-13T12:09:49Z</time>
      </trkpt>
      <trkpt lat="46.03183" lon="6.50346">
        <ele>1491</ele>
        <time>2010-01-13T12:10:09Z</time>
      </trkpt>
      <trkpt lat="46.03156" lon="6.50337">
        <ele>1488</ele>
        <time>2010-01-13T12:10:26Z</time>
      </trkpt>
      <trkpt lat="46.03132" lon="6.50327">
        <ele>1494</ele>
        <time>2010-01-13T12:10:40Z</time>
      </trkpt>
      <trkpt lat="46.03122" lon="6.50318">
        <ele>1493</ele>
        <time>2010-01-13T12:10:48Z</time>
      </trkpt>
      <trkpt lat="46.0309" lon="6.50307">
        <ele>1493</ele>
        <time>2010-01-13T12:11:07Z</time>
      </trkpt>
      <trkpt lat="46.03077" lon="6.50304">
        <ele>1493</ele>
        <time>2010-01-13T12:11:15Z</time>
      </trkpt>
      <trkpt lat="46.03065" lon="6.50304">
        <ele>1494</ele>
        <time>2010-01-13T12:11:22Z</time>
      </trkpt>
      <trkpt lat="46.03015" lon="6.50335">
        <ele>1483</ele>
        <time>2010-01-13T12:12:05Z</time>
      </trkpt>
      <trkpt lat="46.02978" lon="6.50365">
        <ele>1479</ele>
        <time>2010-01-13T12:12:30Z</time>
      </trkpt>
      <trkpt lat="46.0297" lon="6.50371">
        <ele>1478</ele>
        <time>2010-01-13T12:12:35Z</time>
      </trkpt>
      <trkpt lat="46.02951" lon="6.50374">
        <ele>1478</ele>
        <time>2010-01-13T12:12:47Z</time>
      </trkpt>
      <trkpt lat="46.02946" lon="6.5038">
        <ele>1477</ele>
        <time>2010-01-13T12:12:51Z</time>
      </trkpt>
      <trkpt lat="46.02947" lon="6.50399">
        <ele>1476</ele>
        <time>2010-01-13T12:12:59Z</time>
      </trkpt>
      <trkpt lat="46.02946" lon="6.50452">
        <ele>1468</ele>
        <time>2010-01-13T12:13:21Z</time>
      </trkpt>
      <trkpt lat="46.02941" lon="6.5046">
        <ele>1468</ele>
        <time>2010-01-13T12:13:25Z</time>
      </trkpt>
      <trkpt lat="46.02916" lon="6.50508">
        <ele>1467</ele>
        <time>2010-01-13T12:13:50Z</time>
      </trkpt>
      <trkpt lat="46.02909" lon="6.50535">
        <ele>1463</ele>
        <time>2010-01-13T12:14:02Z</time>
      </trkpt>
      <trkpt lat="46.02905" lon="6.50555">
        <ele>1463</ele>
        <time>2010-01-13T12:14:11Z</time>
      </trkpt>
      <trkpt lat="46.02907" lon="6.50585">
        <ele>1463</ele>
        <time>2010-01-13T12:14:24Z</time>
      </trkpt>
      <trkpt lat="46.02911" lon="6.50603">
        <ele>1462</ele>
        <time>2010-01-13T12:14:31Z</time>
      </trkpt>
      <trkpt lat="46.02909" lon="6.50612">
        <ele>1461</ele>
        <time>2010-01-13T12:14:35Z</time>
      </trkpt>
      <trkpt lat="46.02902" lon="6.50615">
        <ele>1460</ele>
        <time>2010-01-13T12:14:39Z</time>
      </trkpt>
      <trkpt lat="46.02892" lon="6.50615">
        <ele>1460</ele>
        <time>2010-01-13T12:14:46Z</time>
      </trkpt>
      <trkpt lat="46.02878" lon="6.50613">
        <ele>1459</ele>
        <time>2010-01-13T12:14:54Z</time>
      </trkpt>
      <trkpt lat="46.02863" lon="6.5062">
        <ele>1459</ele>
        <time>2010-01-13T12:15:03Z</time>
      </trkpt>
      <trkpt lat="46.0285" lon="6.50626">
        <ele>1458</ele>
        <time>2010-01-13T12:15:32Z</time>
      </trkpt>
      <trkpt lat="46.02844" lon="6.50629">
        <ele>1458</ele>
        <time>2010-01-13T12:15:35Z</time>
      </trkpt>
      <trkpt lat="46.02842" lon="6.50632">
        <ele>1458</ele>
        <time>2010-01-13T12:15:35Z</time>
      </trkpt>
      <trkpt lat="46.02847" lon="6.50646">
        <ele>1459</ele>
        <time>2010-01-13T12:15:40Z</time>
      </trkpt>
      <trkpt lat="46.02879" lon="6.50667">
        <ele>1459</ele>
        <time>2010-01-13T12:15:57Z</time>
      </trkpt>
      <trkpt lat="46.02885" lon="6.50686">
        <ele>1459</ele>
        <time>2010-01-13T12:16:05Z</time>
      </trkpt>
      <trkpt lat="46.0289" lon="6.50696">
        <ele>1459</ele>
        <time>2010-01-13T12:16:09Z</time>
      </trkpt>
      <trkpt lat="46.029" lon="6.50717">
        <ele>1458</ele>
        <time>2010-01-13T12:16:18Z</time>
      </trkpt>
      <trkpt lat="46.02904" lon="6.50758">
        <ele>1457</ele>
        <time>2010-01-13T12:16:32Z</time>
      </trkpt>
      <trkpt lat="46.02909" lon="6.50797">
        <ele>1459</ele>
        <time>2010-01-13T12:16:46Z</time>
      </trkpt>
      <trkpt lat="46.02922" lon="6.50826">
        <ele>1451</ele>
        <time>2010-01-13T12:16:58Z</time>
      </trkpt>
      <trkpt lat="46.02921" lon="6.50863">
        <ele>1450</ele>
        <time>2010-01-13T12:17:11Z</time>
      </trkpt>
      <trkpt lat="46.02942" lon="6.50878">
        <ele>1449</ele>
        <time>2010-01-13T12:17:23Z</time>
      </trkpt>
      <trkpt lat="46.02971" lon="6.50899">
        <ele>1446</ele>
        <time>2010-01-13T12:17:39Z</time>
      </trkpt>
      <trkpt lat="46.02989" lon="6.50938">
        <ele>1446</ele>
        <time>2010-01-13T12:17:56Z</time>
      </trkpt>
      <trkpt lat="46.0301" lon="6.51011">
        <ele>1438</ele>
        <time>2010-01-13T12:18:23Z</time>
      </trkpt>
      <trkpt lat="46.03012" lon="6.51047">
        <ele>1435</ele>
        <time>2010-01-13T12:18:35Z</time>
      </trkpt>
      <trkpt lat="46.0303" lon="6.51083">
        <ele>1435</ele>
        <time>2010-01-13T12:18:51Z</time>
      </trkpt>
      <trkpt lat="46.03056" lon="6.51105">
        <ele>1428</ele>
        <time>2010-01-13T12:19:06Z</time>
      </trkpt>
      <trkpt lat="46.03112" lon="6.51173">
        <ele>1411</ele>
        <time>2010-01-13T12:19:43Z</time>
      </trkpt>
      <trkpt lat="46.03131" lon="6.51217">
        <ele>1406</ele>
        <time>2010-01-13T12:20:01Z</time>
      </trkpt>
      <trkpt lat="46.03182" lon="6.51234">
        <ele>1396</ele>
        <time>2010-01-13T12:20:27Z</time>
      </trkpt>
      <trkpt lat="46.03224" lon="6.51307">
        <ele>1386</ele>
        <time>2010-01-13T12:21:00Z</time>
      </trkpt>
      <trkpt lat="46.03235" lon="6.51328">
        <ele>1384</ele>
        <time>2010-01-13T12:21:09Z</time>
      </trkpt>
      <trkpt lat="46.03285" lon="6.51362">
        <ele>1369</ele>
        <time>2010-01-13T12:21:37Z</time>
      </trkpt>
      <trkpt lat="46.03375" lon="6.51399">
        <ele>1346</ele>
        <time>2010-01-13T12:22:24Z</time>
      </trkpt>
      <trkpt lat="46.03416" lon="6.51461">
        <ele>1339</ele>
        <time>2010-01-13T12:22:54Z</time>
      </trkpt>
      <trkpt lat="46.03513" lon="6.51529">
        <ele>1302</ele>
        <time>2010-01-13T12:23:48Z</time>
      </trkpt>
      <trkpt lat="46.03576" lon="6.51592">
        <ele>1285</ele>
        <time>2010-01-13T12:24:26Z</time>
      </trkpt>
      <trkpt lat="46.03655" lon="6.5166">
        <ele>1264</ele>
        <time>2010-01-13T12:25:12Z</time>
      </trkpt>
      <trkpt lat="46.03749" lon="6.51681">
        <ele>1242</ele>
        <time>2010-01-13T12:26:00Z</time>
      </trkpt>
      <trkpt lat="46.03765" lon="6.51789">
        <ele>1218</ele>
        <time>2010-01-13T12:26:38Z</time>
      </trkpt>
      <trkpt lat="46.03757" lon="6.51834">
        <ele>1214</ele>
        <time>2010-01-13T12:26:54Z</time>
      </trkpt>
      <trkpt lat="46.03746" lon="6.51888">
        <ele>1209</ele>
        <time>2010-01-13T12:27:14Z</time>
      </trkpt>
      <trkpt lat="46.0373" lon="6.51931">
        <ele>1203</ele>
        <time>2010-01-13T12:27:31Z</time>
      </trkpt>
      <trkpt lat="46.03805" lon="6.51981">
        <ele>1190</ele>
        <time>2010-01-13T12:28:12Z</time>
      </trkpt>
      <trkpt lat="46.03874" lon="6.52035">
        <ele>1177</ele>
        <time>2010-01-13T12:28:52Z</time>
      </trkpt>
      <trkpt lat="46.0402" lon="6.52195">
        <ele>1134</ele>
        <time>2010-01-13T12:29:24Z</time>
      </trkpt>
      <trkpt lat="46.04372" lon="6.52156">
        <ele>974</ele>
        <time>2010-01-13T12:30:21Z</time>
      </trkpt>
      <trkpt lat="46.04516" lon="6.5226">
        <ele>897</ele>
        <time>2010-01-13T12:30:41Z</time>
      </trkpt>
      <trkpt lat="46.04653" lon="6.52174">
        <ele>819</ele>
        <time>2010-01-13T12:30:56Z</time>
      </trkpt>
      <trkpt lat="46.04822" lon="6.52245">
        <ele>766</ele>
        <time>2010-01-13T12:31:24Z</time>
      </trkpt>
      <trkpt lat="46.04964" lon="6.52347">
        <ele>737</ele>
        <time>2010-01-13T12:31:44Z</time>
      </trkpt>
      <trkpt lat="46.05052" lon="6.5248">
        <ele>713</ele>
        <time>2010-01-13T12:31:47Z</time>
      </trkpt>
      <trkpt lat="46.05114" lon="6.52602">
        <ele>697</ele>
        <time>2010-01-13T12:32:40Z</time>
      </trkpt>
      <trkpt lat="46.05135" lon="6.5266">
        <ele>692</ele>
        <time>2010-01-13T12:33:03Z</time>
      </trkpt>
      <trkpt lat="46.05158" lon="6.52739">
        <ele>684</ele>
        <time>2010-01-13T12:33:33Z</time>
      </trkpt>
      <trkpt lat="46.05191" lon="6.52757">
        <ele>671</ele>
        <time>2010-01-13T12:33:50Z</time>
      </trkpt>
      <trkpt lat="46.05247" lon="6.52646">
        <ele>661</ele>
        <time>2010-01-13T12:34:38Z</time>
      </trkpt>
      <trkpt lat="46.05222" lon="6.5252">
        <ele>644</ele>
        <time>2010-01-13T12:35:24Z</time>
      </trkpt>
      <trkpt lat="46.05222" lon="6.52453">
        <ele>645</ele>
        <time>2010-01-13T12:35:47Z</time>
      </trkpt>
      <trkpt lat="46.05248" lon="6.5247">
        <ele>640</ele>
        <time>2010-01-13T12:36:01Z</time>
      </trkpt>
      <trkpt lat="46.05327" lon="6.5247">
        <ele>629</ele>
        <time>2010-01-13T12:36:41Z</time>
      </trkpt>
      <trkpt lat="46.05401" lon="6.52486">
        <ele>618</ele>
        <time>2010-01-13T12:37:18Z</time>
      </trkpt>
      <trkpt lat="46.05444" lon="6.5253">
        <ele>594</ele>
        <time>2010-01-13T12:37:45Z</time>
      </trkpt>
      <trkpt lat="46.05485" lon="6.52607">
        <ele>582</ele>
        <time>2010-01-13T12:38:19Z</time>
      </trkpt>
      <trkpt lat="46.05558" lon="6.526">
        <ele>569</ele>
        <time>2010-01-13T12:38:55Z</time>
      </trkpt>
      <trkpt lat="46.05599" lon="6.52575">
        <ele>563</ele>
        <time>2010-01-13T12:39:18Z</time>
      </trkpt>
      <trkpt lat="46.05663" lon="6.52573">
        <ele>555</ele>
        <time>2010-01-13T12:39:50Z</time>
      </trkpt>
      <trkpt lat="46.05694" lon="6.52587">
        <ele>547</ele>
        <time>2010-01-13T12:40:06Z</time>
      </trkpt>
      <trkpt lat="46.05718" lon="6.52593">
        <ele>545</ele>
        <time>2010-01-13T12:40:18Z</time>
      </trkpt>
      <trkpt lat="46.05727" lon="6.52611">
        <ele>544</ele>
        <time>2010-01-13T12:40:26Z</time>
      </trkpt>
      <trkpt lat="46.05789" lon="6.52648">
        <ele>536</ele>
        <time>2010-01-13T12:40:59Z</time>
      </trkpt>
      <trkpt lat="46.05822" lon="6.52644">
        <ele>534</ele>
        <time>2010-01-13T12:41:16Z</time>
      </trkpt>
      <trkpt lat="46.05854" lon="6.52623">
        <ele>527</ele>
        <time>2010-01-13T12:41:33Z</time>
      </trkpt>
      <trkpt lat="46.05898" lon="6.52615">
        <ele>524</ele>
        <time>2010-01-13T12:41:56Z</time>
      </trkpt>
      <trkpt lat="46.05922" lon="6.52628">
        <ele>518</ele>
        <time>2010-01-13T12:42:09Z</time>
      </trkpt>
      <trkpt lat="46.05952" lon="6.52615">
        <ele>517</ele>
        <time>2010-01-13T12:42:25Z</time>
      </trkpt>
      <trkpt lat="46.06036" lon="6.52636">
        <ele>509</ele>
        <time>2010-01-13T12:43:07Z</time>
      </trkpt>
      <trkpt lat="46.06095" lon="6.52687">
        <ele>504</ele>
        <time>2010-01-13T12:43:41Z</time>
      </trkpt>
      <trkpt lat="46.06075" lon="6.52834">
        <ele>505</ele>
        <time>2010-01-13T12:44:33Z</time>
      </trkpt>
      <trkpt lat="46.06075" lon="6.52834">
        <ele>505</ele>
        <time>2010-01-13T13:15:35Z</time>
      </trkpt>
      <trkpt lat="46.06136" lon="6.52844">
        <ele>501</ele>
        <time>2010-01-13T13:16:05Z</time>
      </trkpt>
      <trkpt lat="46.06177" lon="6.52834">
        <ele>499</ele>
        <time>2010-01-13T13:16:26Z</time>
      </trkpt>
      <trkpt lat="46.06223" lon="6.52791">
        <ele>496</ele>
        <time>2010-01-13T13:16:53Z</time>
      </trkpt>
      <trkpt lat="46.06342" lon="6.52758">
        <ele>490</ele>
        <time>2010-01-13T13:16:54Z</time>
      </trkpt>
      <trkpt lat="46.0645" lon="6.5273">
        <ele>485</ele>
        <time>2010-01-13T13:17:49Z</time>
      </trkpt>
      <trkpt lat="46.06561" lon="6.52704">
        <ele>481</ele>
        <time>2010-01-13T13:18:45Z</time>
      </trkpt>
      <trkpt lat="46.0661" lon="6.52705">
        <ele>479</ele>
        <time>2010-01-13T13:19:10Z</time>
      </trkpt>
      <trkpt lat="46.06658" lon="6.52711">
        <ele>479</ele>
        <time>2010-01-13T13:19:34Z</time>
      </trkpt>
      <trkpt lat="46.06769" lon="6.52755">
        <ele>477</ele>
        <time>2010-01-13T13:20:32Z</time>
      </trkpt>
      <trkpt lat="46.06876" lon="6.52802">
        <ele>475</ele>
        <time>2010-01-13T13:21:28Z</time>
      </trkpt>
      <trkpt lat="46.06885" lon="6.5283">
        <ele>475</ele>
        <time>2010-01-13T13:21:39Z</time>
      </trkpt>
      <trkpt lat="46.0688" lon="6.5285">
        <ele>475</ele>
        <time>2010-01-13T13:21:46Z</time>
      </trkpt>
      <trkpt lat="46.06898" lon="6.52867">
        <ele>475</ele>
        <time>2010-01-13T13:21:56Z</time>
      </trkpt>
      <trkpt lat="46.06917" lon="6.52869">
        <ele>473</ele>
        <time>2010-01-13T13:22:06Z</time>
      </trkpt>
      <trkpt lat="46.06922" lon="6.52851">
        <ele>474</ele>
        <time>2010-01-13T13:22:13Z</time>
      </trkpt>
      <trkpt lat="46.06936" lon="6.52844">
        <ele>473</ele>
        <time>2010-01-13T13:22:20Z</time>
      </trkpt>
      <trkpt lat="46.07056" lon="6.52913">
        <ele>470</ele>
        <time>2010-01-13T13:22:24Z</time>
      </trkpt>
      <trkpt lat="46.07132" lon="6.52954">
        <ele>469</ele>
        <time>2010-01-13T13:23:05Z</time>
      </trkpt>
      <trkpt lat="46.07176" lon="6.52977">
        <ele>469</ele>
        <time>2010-01-13T13:23:29Z</time>
      </trkpt>
      <trkpt lat="46.07206" lon="6.5295">
        <ele>468</ele>
        <time>2010-01-13T13:23:46Z</time>
      </trkpt>
      <trkpt lat="46.07234" lon="6.52955">
        <ele>468</ele>
        <time>2010-01-13T13:24:01Z</time>
      </trkpt>
      <trkpt lat="46.07243" lon="6.52932">
        <ele>468</ele>
        <time>2010-01-13T13:24:10Z</time>
      </trkpt>
      <trkpt lat="46.07241" lon="6.52916">
        <ele>467</ele>
        <time>2010-01-13T13:24:16Z</time>
      </trkpt>
      <trkpt lat="46.07275" lon="6.52859">
        <ele>467</ele>
        <time>2010-01-13T13:24:42Z</time>
      </trkpt>
      <trkpt lat="46.07376" lon="6.52745">
        <ele>466</ele>
        <time>2010-01-13T13:24:46Z</time>
      </trkpt>
      <trkpt lat="46.07486" lon="6.52618">
        <ele>463</ele>
        <time>2010-01-13T13:24:57Z</time>
      </trkpt>
      <trkpt lat="46.07542" lon="6.52552">
        <ele>465</ele>
        <time>2010-01-13T13:25:32Z</time>
      </trkpt>
      <trkpt lat="46.07543" lon="6.52552">
        <ele>465</ele>
        <time>2010-01-13T14:15:35Z</time>
      </trkpt>
      <trkpt lat="46.07555" lon="6.52547">
        <ele>465</ele>
        <time>2010-01-13T14:15:42Z</time>
      </trkpt>
      <trkpt lat="46.07567" lon="6.5256">
        <ele>465</ele>
        <time>2010-01-13T14:15:51Z</time>
      </trkpt>
      <trkpt lat="46.07587" lon="6.52565">
        <ele>466</ele>
        <time>2010-01-13T14:16:03Z</time>
      </trkpt>
      <trkpt lat="46.07602" lon="6.5255">
        <ele>467</ele>
        <time>2010-01-13T14:16:14Z</time>
      </trkpt>
      <trkpt lat="46.07608" lon="6.52535">
        <ele>467</ele>
        <time>2010-01-13T14:16:31Z</time>
      </trkpt>
      <trkpt lat="46.07621" lon="6.52528">
        <ele>467</ele>
        <time>2010-01-13T14:16:39Z</time>
      </trkpt>
      <trkpt lat="46.07721" lon="6.5252">
        <ele>467</ele>
        <time>2010-01-13T14:17:39Z</time>
      </trkpt>
      <trkpt lat="46.07731" lon="6.52573">
        <ele>467</ele>
        <time>2010-01-13T14:18:02Z</time>
      </trkpt>
      <trkpt lat="46.07731" lon="6.52605">
        <ele>467</ele>
        <time>2010-01-13T14:18:15Z</time>
      </trkpt>
      <trkpt lat="46.07734" lon="6.52624">
        <ele>468</ele>
        <time>2010-01-13T14:18:24Z</time>
      </trkpt>
      <trkpt lat="46.07736" lon="6.52646">
        <ele>468</ele>
        <time>2010-01-13T14:18:36Z</time>
      </trkpt>
      <trkpt lat="46.07773" lon="6.52718">
        <ele>468</ele>
        <time>2010-01-13T14:19:14Z</time>
      </trkpt>
      <trkpt lat="46.07772" lon="6.52724">
        <ele>468</ele>
        <time>2010-01-13T14:19:16Z</time>
      </trkpt>
      <trkpt lat="46.07764" lon="6.52728">
        <ele>468</ele>
        <time>2010-01-13T14:19:21Z</time>
      </trkpt>
      <trkpt lat="46.07777" lon="6.52794">
        <ele>468</ele>
        <time>2010-01-13T14:19:49Z</time>
      </trkpt>
      <trkpt lat="46.07781" lon="6.52824">
        <ele>468</ele>
        <time>2010-01-13T14:20:02Z</time>
      </trkpt>
      <trkpt lat="46.07785" lon="6.52901">
        <ele>469</ele>
        <time>2010-01-13T14:20:41Z</time>
      </trkpt>
      <trkpt lat="46.07806" lon="6.53005">
        <ele>470</ele>
        <time>2010-01-13T14:21:26Z</time>
      </trkpt>
      <trkpt lat="46.07773" lon="6.53014">
        <ele>470</ele>
        <time>2010-01-13T14:21:45Z</time>
      </trkpt>
      <trkpt lat="46.07766" lon="6.5302">
        <ele>470</ele>
        <time>2010-01-13T14:21:51Z</time>
      </trkpt>
      <trkpt lat="46.07762" lon="6.53088">
        <ele>471</ele>
        <time>2010-01-13T14:22:19Z</time>
      </trkpt>
      <trkpt lat="46.07757" lon="6.53147">
        <ele>471</ele>
        <time>2010-01-13T14:22:47Z</time>
      </trkpt>
      <trkpt lat="46.07799" lon="6.53157">
        <ele>471</ele>
        <time>2010-01-13T14:23:16Z</time>
      </trkpt>
      <trkpt lat="46.07837" lon="6.53169">
        <ele>472</ele>
        <time>2010-01-13T14:23:39Z</time>
      </trkpt>
      <trkpt lat="46.07858" lon="6.53256">
        <ele>473</ele>
        <time>2010-01-13T14:24:20Z</time>
      </trkpt>
      <trkpt lat="46.07874" lon="6.53358">
        <ele>473</ele>
        <time>2010-01-13T14:25:04Z</time>
      </trkpt>
      <trkpt lat="46.07874" lon="6.53415">
        <ele>472</ele>
        <time>2010-01-13T14:25:28Z</time>
      </trkpt>
      <trkpt lat="46.07876" lon="6.53442">
        <ele>472</ele>
        <time>2010-01-13T14:25:39Z</time>
      </trkpt>
      <trkpt lat="46.07899" lon="6.53538">
        <ele>472</ele>
        <time>2010-01-13T14:26:21Z</time>
      </trkpt>
      <trkpt lat="46.079" lon="6.53611">
        <ele>473</ele>
        <time>2010-01-13T14:26:58Z</time>
      </trkpt>
      <trkpt lat="46.07907" lon="6.53658">
        <ele>473</ele>
        <time>2010-01-13T14:27:18Z</time>
      </trkpt>
      <trkpt lat="46.07913" lon="6.53711">
        <ele>473</ele>
        <time>2010-01-13T14:27:40Z</time>
      </trkpt>
      <trkpt lat="46.07927" lon="6.53765">
        <ele>473</ele>
        <time>2010-01-13T14:28:04Z</time>
      </trkpt>
      <trkpt lat="46.07923" lon="6.53805">
        <ele>473</ele>
        <time>2010-01-13T14:28:28Z</time>
      </trkpt>
      <trkpt lat="46.07922" lon="6.53855">
        <ele>475</ele>
        <time>2010-01-13T14:28:49Z</time>
      </trkpt>
      <trkpt lat="46.07921" lon="6.53926">
        <ele>479</ele>
        <time>2010-01-13T14:29:35Z</time>
      </trkpt>
      <trkpt lat="46.07907" lon="6.53947">
        <ele>477</ele>
        <time>2010-01-13T14:29:47Z</time>
      </trkpt>
      <trkpt lat="46.07896" lon="6.53954">
        <ele>477</ele>
        <time>2010-01-13T14:29:54Z</time>
      </trkpt>
      <trkpt lat="46.07894" lon="6.53982">
        <ele>476</ele>
        <time>2010-01-13T14:30:06Z</time>
      </trkpt>
      <trkpt lat="46.07885" lon="6.54026">
        <ele>475</ele>
        <time>2010-01-13T14:30:25Z</time>
      </trkpt>
      <trkpt lat="46.07879" lon="6.54053">
        <ele>475</ele>
        <time>2010-01-13T14:30:37Z</time>
      </trkpt>
      <trkpt lat="46.07861" lon="6.54089">
        <ele>474</ele>
        <time>2010-01-13T14:30:55Z</time>
      </trkpt>
      <trkpt lat="46.0784" lon="6.54092">
        <ele>474</ele>
        <time>2010-01-13T14:31:08Z</time>
      </trkpt>
      <trkpt lat="46.07835" lon="6.5411">
        <ele>473</ele>
        <time>2010-01-13T14:31:16Z</time>
      </trkpt>
      <trkpt lat="46.07822" lon="6.54131">
        <ele>472</ele>
        <time>2010-01-13T14:31:27Z</time>
      </trkpt>
      <trkpt lat="46.07819" lon="6.54149">
        <ele>472</ele>
        <time>2010-01-13T14:31:35Z</time>
      </trkpt>
      <trkpt lat="46.07808" lon="6.54169">
        <ele>472</ele>
        <time>2010-01-13T14:31:46Z</time>
      </trkpt>
      <trkpt lat="46.07796" lon="6.54168">
        <ele>472</ele>
        <time>2010-01-13T14:31:53Z</time>
      </trkpt>
      <trkpt lat="46.07783" lon="6.5418">
        <ele>472</ele>
        <time>2010-01-13T14:32:05Z</time>
      </trkpt>
      <trkpt lat="46.07725" lon="6.54278">
        <ele>474</ele>
        <time>2010-01-13T14:33:05Z</time>
      </trkpt>
      <trkpt lat="46.07633" lon="6.54412">
        <ele>473</ele>
        <time>2010-01-13T14:34:24Z</time>
      </trkpt>
      <trkpt lat="46.07612" lon="6.54457">
        <ele>472</ele>
        <time>2010-01-13T14:34:50Z</time>
      </trkpt>
      <trkpt lat="46.07597" lon="6.54519">
        <ele>474</ele>
        <time>2010-01-13T14:35:17Z</time>
      </trkpt>
      <trkpt lat="46.07592" lon="6.54534">
        <ele>474</ele>
        <time>2010-01-13T14:35:23Z</time>
      </trkpt>
      <trkpt lat="46.07579" lon="6.54541">
        <ele>475</ele>
        <time>2010-01-13T14:35:32Z</time>
      </trkpt>
      <trkpt lat="46.07574" lon="6.54556">
        <ele>475</ele>
        <time>2010-01-13T14:35:52Z</time>
      </trkpt>
      <trkpt lat="46.07554" lon="6.54557">
        <ele>475</ele>
        <time>2010-01-13T14:36:04Z</time>
      </trkpt>
      <trkpt lat="46.07538" lon="6.54575">
        <ele>475</ele>
        <time>2010-01-13T14:36:17Z</time>
      </trkpt>
      <trkpt lat="46.07529" lon="6.54587">
        <ele>476</ele>
        <time>2010-01-13T14:36:24Z</time>
      </trkpt>
      <trkpt lat="46.0751" lon="6.54594">
        <ele>476</ele>
        <time>2010-01-13T14:36:35Z</time>
      </trkpt>
      <trkpt lat="46.07499" lon="6.54619">
        <ele>475</ele>
        <time>2010-01-13T14:36:48Z</time>
      </trkpt>
      <trkpt lat="46.07489" lon="6.54668">
        <ele>474</ele>
        <time>2010-01-13T14:37:09Z</time>
      </trkpt>
      <trkpt lat="46.07483" lon="6.54686">
        <ele>475</ele>
        <time>2010-01-13T14:37:17Z</time>
      </trkpt>
      <trkpt lat="46.0743" lon="6.54781">
        <ele>477</ele>
        <time>2010-01-13T14:38:25Z</time>
      </trkpt>
      <trkpt lat="46.07426" lon="6.54791">
        <ele>477</ele>
        <time>2010-01-13T14:38:29Z</time>
      </trkpt>
      <trkpt lat="46.07389" lon="6.54789">
        <ele>475</ele>
        <time>2010-01-13T14:38:51Z</time>
      </trkpt>
      <trkpt lat="46.07359" lon="6.54796">
        <ele>474</ele>
        <time>2010-01-13T14:39:10Z</time>
      </trkpt>
      <trkpt lat="46.07338" lon="6.54784">
        <ele>474</ele>
        <time>2010-01-13T14:39:23Z</time>
      </trkpt>
      <trkpt lat="46.07328" lon="6.54807">
        <ele>472</ele>
        <time>2010-01-13T14:39:35Z</time>
      </trkpt>
      <trkpt lat="46.07264" lon="6.5503">
        <ele>475</ele>
        <time>2010-01-13T14:41:21Z</time>
      </trkpt>
      <trkpt lat="46.07257" lon="6.55068">
        <ele>476</ele>
        <time>2010-01-13T14:41:44Z</time>
      </trkpt>
      <trkpt lat="46.07238" lon="6.55119">
        <ele>476</ele>
        <time>2010-01-13T14:42:09Z</time>
      </trkpt>
      <trkpt lat="46.07216" lon="6.55196">
        <ele>475</ele>
        <time>2010-01-13T14:42:46Z</time>
      </trkpt>
      <trkpt lat="46.07195" lon="6.55256">
        <ele>474</ele>
        <time>2010-01-13T14:43:14Z</time>
      </trkpt>
      <trkpt lat="46.07141" lon="6.55393">
        <ele>475</ele>
        <time>2010-01-13T14:44:30Z</time>
      </trkpt>
      <trkpt lat="46.0706" lon="6.55586">
        <ele>474</ele>
        <time>2010-01-13T14:46:03Z</time>
      </trkpt>
      <trkpt lat="46.07054" lon="6.55591">
        <ele>474</ele>
        <time>2010-01-13T14:46:08Z</time>
      </trkpt>
      <trkpt lat="46.07047" lon="6.55597">
        <ele>474</ele>
        <time>2010-01-13T14:46:12Z</time>
      </trkpt>
      <trkpt lat="46.06973" lon="6.55783">
        <ele>475</ele>
        <time>2010-01-13T14:47:44Z</time>
      </trkpt>
      <trkpt lat="46.0694" lon="6.55881">
        <ele>475</ele>
        <time>2010-01-13T14:48:30Z</time>
      </trkpt>
      <trkpt lat="46.06922" lon="6.55923">
        <ele>475</ele>
        <time>2010-01-13T14:48:50Z</time>
      </trkpt>
      <trkpt lat="46.06907" lon="6.55951">
        <ele>475</ele>
        <time>2010-01-13T14:49:05Z</time>
      </trkpt>
      <trkpt lat="46.06888" lon="6.55988">
        <ele>475</ele>
        <time>2010-01-13T14:49:34Z</time>
      </trkpt>
      <trkpt lat="46.06864" lon="6.56036">
        <ele>476</ele>
        <time>2010-01-13T14:49:59Z</time>
      </trkpt>
      <trkpt lat="46.06848" lon="6.56072">
        <ele>476</ele>
        <time>2010-01-13T14:50:23Z</time>
      </trkpt>
      <trkpt lat="46.06843" lon="6.56096">
        <ele>476</ele>
        <time>2010-01-13T14:50:33Z</time>
      </trkpt>
      <trkpt lat="46.06834" lon="6.56113">
        <ele>477</ele>
        <time>2010-01-13T14:50:42Z</time>
      </trkpt>
      <trkpt lat="46.06827" lon="6.56124">
        <ele>477</ele>
        <time>2010-01-13T14:50:49Z</time>
      </trkpt>
      <trkpt lat="46.06813" lon="6.56173">
        <ele>477</ele>
        <time>2010-01-13T14:51:21Z</time>
      </trkpt>
      <trkpt lat="46.06758" lon="6.56298">
        <ele>476</ele>
        <time>2010-01-13T14:52:22Z</time>
      </trkpt>
      <trkpt lat="46.0671" lon="6.56398">
        <ele>477</ele>
        <time>2010-01-13T14:53:22Z</time>
      </trkpt>
      <trkpt lat="46.06626" lon="6.56525">
        <ele>480</ele>
        <time>2010-01-13T14:54:39Z</time>
      </trkpt>
      <trkpt lat="46.06536" lon="6.56663">
        <ele>478</ele>
        <time>2010-01-13T14:55:57Z</time>
      </trkpt>
      <trkpt lat="46.06525" lon="6.5669">
        <ele>478</ele>
        <time>2010-01-13T14:56:10Z</time>
      </trkpt>
      <trkpt lat="46.06512" lon="6.56731">
        <ele>478</ele>
        <time>2010-01-13T14:56:29Z</time>
      </trkpt>
      <trkpt lat="46.06493" lon="6.56768">
        <ele>478</ele>
        <time>2010-01-13T14:56:48Z</time>
      </trkpt>
      <trkpt lat="46.06444" lon="6.56727">
        <ele>479</ele>
        <time>2010-01-13T14:57:32Z</time>
      </trkpt>
      <trkpt lat="46.06449" lon="6.56721">
        <ele>479</ele>
        <time>2010-01-13T14:57:36Z</time>
      </trkpt>
      <trkpt lat="46.06454" lon="6.56727">
        <ele>479</ele>
        <time>2010-01-13T14:57:40Z</time>
      </trkpt>
      <trkpt lat="46.06497" lon="6.56628">
        <ele>479</ele>
        <time>2010-01-13T14:58:28Z</time>
      </trkpt>
      <trkpt lat="46.06498" lon="6.56619">
        <ele>479</ele>
        <time>2010-01-13T14:58:39Z</time>
      </trkpt>
      <trkpt lat="46.06552" lon="6.56507">
        <ele>480</ele>
        <time>2010-01-13T14:59:39Z</time>
      </trkpt>
      <trkpt lat="46.06553" lon="6.56495">
        <ele>480</ele>
        <time>2010-01-13T14:59:44Z</time>
      </trkpt>
      <trkpt lat="46.0657" lon="6.56472">
        <ele>480</ele>
        <time>2010-01-13T14:59:58Z</time>
      </trkpt>
      <trkpt lat="46.06604" lon="6.56415">
        <ele>479</ele>
        <time>2010-01-13T15:00:29Z</time>
      </trkpt>
      <trkpt lat="46.0661" lon="6.56381">
        <ele>478</ele>
        <time>2010-01-13T15:00:44Z</time>
      </trkpt>
      <trkpt lat="46.0662" lon="6.56366">
        <ele>478</ele>
        <time>2010-01-13T15:00:52Z</time>
      </trkpt>
      <trkpt lat="46.06622" lon="6.56354">
        <ele>478</ele>
        <time>2010-01-13T15:00:57Z</time>
      </trkpt>
      <trkpt lat="46.0663" lon="6.56335">
        <ele>478</ele>
        <time>2010-01-13T15:01:06Z</time>
      </trkpt>
      <trkpt lat="46.06435" lon="6.56158">
        <ele>479</ele>
        <time>2010-01-13T15:03:34Z</time>
      </trkpt>
      <trkpt lat="46.06394" lon="6.56053">
        <ele>478</ele>
        <time>2010-01-13T15:04:24Z</time>
      </trkpt>
      <trkpt lat="46.06383" lon="6.56054">
        <ele>478</ele>
        <time>2010-01-13T15:04:31Z</time>
      </trkpt>
      <trkpt lat="46.06375" lon="6.56064">
        <ele>478</ele>
        <time>2010-01-13T15:04:37Z</time>
      </trkpt>
      <trkpt lat="46.06321" lon="6.56073">
        <ele>480</ele>
        <time>2010-01-13T15:05:20Z</time>
      </trkpt>
    </trkseg>
  </trk>
</gpx>